Temperatur und Luftfeuchte

Nummer Datum Zeit Sensor Temp Celsius Gef├╝hlte Temp Luftfeuchte in %
4116 2019-02-24 06:36:59 ESP12E-S1 2.00 -0.59 44.10
4115 2019-02-24 06:08:43 ESP12E-S1 2.10 -0.45 45.20
4114 2019-02-24 05:40:28 ESP12E-S1 2.20 -0.38 44.00
4113 2019-02-24 05:12:13 ESP12E-S1 2.30 -0.21 46.30
4112 2019-02-24 04:44:00 ESP12E-S1 2.50 -0.01 45.40
4111 2019-02-24 04:15:46 ESP12E-S1 2.60 0.07 44.10
4110 2019-02-24 03:47:32 ESP12E-S1 2.80 0.27 43.60
4109 2019-02-24 03:19:16 ESP12E-S1 3.00 0.48 43.10
4108 2019-02-24 02:51:01 ESP12E-S1 3.00 0.50 43.70
4107 2019-02-24 02:22:49 ESP12E-S1 3.20 0.73 44.40
4106 2019-02-24 01:54:34 ESP12E-S1 3.40 0.95 44.20
4105 2019-02-24 01:26:19 ESP12E-S1 3.50 1.08 45.00
4104 2019-02-24 00:58:05 ESP12E-S1 3.70 1.31 45.50
4103 2019-02-24 00:29:50 ESP12E-S1 3.80 1.44 46.00
4102 2019-02-24 00:01:34 ESP12E-S1 3.90 1.55 46.20
4101 2019-02-23 23:33:18 ESP12E-S1 4.00 1.68 46.90
4100 2019-02-23 23:05:04 ESP12E-S1 4.30 2.00 46.50
4099 2019-02-23 22:36:50 ESP12E-S1 4.50 2.22 46.60
4098 2019-02-23 22:08:35 ESP12E-S1 4.60 2.35 47.40
4097 2019-02-23 21:40:20 ESP12E-S1 4.80 2.57 47.10
4096 2019-02-23 21:12:05 ESP12E-S1 5.10 2.93 48.40
4095 2019-02-23 20:43:52 ESP12E-S1 5.40 3.25 48.00
4094 2019-02-23 20:15:39 ESP12E-S1 6.00 3.88 46.90
4093 2019-02-23 19:47:25 ESP12E-S1 6.30 4.20 46.50
4092 2019-02-23 19:19:11 ESP12E-S1 6.70 4.61 45.20
4091 2019-02-23 18:51:06 ESP12E-S1 7.00 4.91 44.30
4090 2019-02-23 18:22:51 ESP12E-S1 7.50 5.46 44.10
4089 2019-02-23 17:54:41 ESP12E-S1 8.10 6.11 43.70
4088 2019-02-23 17:26:31 ESP12E-S1 9.20 7.31 43.50
4087 2019-02-23 16:58:24 ESP12E-S1 10.60 8.81 42.10
4086 2019-02-23 16:30:20 ESP12E-S1 12.50 10.87 40.90
4085 2019-02-23 16:02:16 ESP12E-S1 14.70 13.18 36.60
4084 2019-02-23 15:33:57 ESP12E-S1 14.40 12.98 41.70
4083 2019-02-23 15:05:23 ESP12E-S1 12.20 10.67 45.90
4082 2019-02-23 14:37:07 ESP12E-S1 11.90 10.36 46.50
4081 2019-02-23 14:08:51 ESP12E-S1 11.70 10.15 47.00
4080 2019-02-23 13:40:39 ESP12E-S1 12.00 10.48 46.80
4079 2019-02-23 13:12:40 ESP12E-S1 13.40 11.98 45.30
4078 2019-02-23 12:44:34 ESP12E-S1 13.20 11.82 47.70
4077 2019-02-23 12:15:43 ESP12E-S1 10.10 8.62 55.70
4076 2019-02-23 11:47:13 ESP12E-S1 8.60 7.04 58.50
4075 2019-02-23 11:18:55 ESP12E-S1 7.80 6.20 60.10
4074 2019-02-23 10:50:43 ESP12E-S1 7.30 5.70 62.00
4073 2019-02-23 10:22:21 ESP12E-S1 6.30 4.71 66.20
4072 2019-02-23 09:53:48 ESP12E-S1 4.80 3.17 70.10
4071 2019-02-23 09:25:26 ESP12E-S1 3.90 2.30 74.80
4070 2019-02-23 08:57:06 ESP12E-S1 3.20 1.64 79.20
4069 2019-02-23 08:28:48 ESP12E-S1 2.80 1.29 82.50
4068 2019-02-23 08:00:35 ESP12E-S1 2.80 1.29 82.60
4067 2019-02-23 07:32:20 ESP12E-S1 2.90 1.41 83.00
4066 2019-02-23 07:04:07 ESP12E-S1 3.20 1.70 81.50
4065 2019-02-23 06:35:51 ESP12E-S1 3.50 2.04 81.60
4064 2019-02-23 06:07:36 ESP12E-S1 3.70 2.25 81.40
4063 2019-02-23 05:39:22 ESP12E-S1 3.90 2.51 83.00
4062 2019-02-23 05:11:08 ESP12E-S1 4.00 2.63 83.40
4061 2019-02-23 04:42:53 ESP12E-S1 4.30 2.95 82.90
4060 2019-02-23 04:14:40 ESP12E-S1 4.70 3.40 83.10
4059 2019-02-23 03:46:25 ESP12E-S1 5.00 3.79 85.50
4058 2019-02-23 03:18:09 ESP12E-S1 5.10 3.93 86.70
4057 2019-02-23 02:49:55 ESP12E-S1 5.20 4.09 88.70
4056 2019-02-23 02:21:39 ESP12E-S1 5.30 4.21 89.20
4055 2019-02-23 01:53:25 ESP12E-S1 5.40 4.33 89.50
4054 2019-02-23 01:25:10 ESP12E-S1 5.80 4.79 90.10
4053 2019-02-23 00:56:56 ESP12E-S1 6.00 5.02 90.50
4052 2019-02-23 00:28:42 ESP12E-S1 6.20 5.25 90.80
4051 2019-02-23 00:00:27 ESP12E-S1 6.50 5.57 90.60
4050 2019-02-22 23:32:13 ESP12E-S1 6.80 5.89 90.20
4049 2019-02-22 23:03:59 ESP12E-S1 7.10 6.21 89.60
4048 2019-02-22 22:35:44 ESP12E-S1 7.20 6.26 87.50
4047 2019-02-22 22:07:28 ESP12E-S1 7.40 6.47 87.10
4046 2019-02-22 21:39:13 ESP12E-S1 7.60 6.63 84.80
4045 2019-02-22 21:11:00 ESP12E-S1 7.80 6.76 81.50
4044 2019-02-22 20:42:45 ESP12E-S1 7.90 6.80 78.60
4043 2019-02-22 20:14:31 ESP12E-S1 8.20 7.09 77.20
4042 2019-02-22 19:46:17 ESP12E-S1 8.40 7.29 76.30
4041 2019-02-22 19:18:02 ESP12E-S1 8.70 7.65 77.50
4040 2019-02-22 18:49:49 ESP12E-S1 9.10 8.14 79.30
4039 2019-02-22 18:21:37 ESP12E-S1 9.70 8.85 81.40
4038 2019-02-22 17:53:24 ESP12E-S1 10.10 9.25 79.80
4037 2019-02-22 17:25:10 ESP12E-S1 10.50 9.62 77.00
4036 2019-02-22 16:56:56 ESP12E-S1 10.90 9.99 74.40
4035 2019-02-22 16:28:40 ESP12E-S1 11.10 10.20 73.90
4034 2019-02-22 16:00:27 ESP12E-S1 11.30 10.36 71.70
4033 2019-02-22 15:32:13 ESP12E-S1 11.60 10.69 71.70
4032 2019-02-22 15:03:57 ESP12E-S1 11.70 10.78 71.10
4031 2019-02-22 14:35:38 ESP12E-S1 11.40 10.45 71.20
4030 2019-02-22 14:07:22 ESP12E-S1 11.30 10.36 71.60
4029 2019-02-22 13:39:14 ESP12E-S1 11.50 10.60 72.50
4028 2019-02-22 13:10:58 ESP12E-S1 11.90 11.03 72.20
4027 2019-02-22 12:42:46 ESP12E-S1 12.50 11.63 69.70
4026 2019-02-22 12:14:20 ESP12E-S1 12.10 11.23 71.40
4025 2019-02-22 11:46:05 ESP12E-S1 12.50 11.65 70.80
4024 2019-02-22 11:17:42 ESP12E-S1 11.40 10.59 76.40
4023 2019-02-22 10:49:25 ESP12E-S1 11.10 10.38 81.10
4022 2019-02-22 10:21:00 ESP12E-S1 10.00 9.36 88.10
4021 2019-02-22 09:52:44 ESP12E-S1 9.50 8.93 93.00
4020 2019-02-22 09:24:24 ESP12E-S1 9.10 8.51 93.70
4019 2019-02-22 08:56:05 ESP12E-S1 8.80 8.23 95.70
4018 2019-02-22 08:27:49 ESP12E-S1 8.40 7.82 96.80
4017 2019-02-22 07:59:31 ESP12E-S1 8.30 7.72 97.20
4016 2019-02-22 07:31:15 ESP12E-S1 8.20 7.61 97.00
4015 2019-02-22 07:02:58 ESP12E-S1 8.30 7.71 96.70
4014 2019-02-22 06:34:42 ESP12E-S1 8.30 7.73 97.30
4013 2019-02-22 06:06:27 ESP12E-S1 8.30 7.72 96.90
4012 2019-02-22 05:38:10 ESP12E-S1 8.30 7.75 98.30
4011 2019-02-22 05:09:53 ESP12E-S1 8.30 7.79 99.90
4010 2019-02-22 04:41:39 ESP12E-S1 8.30 7.79 99.90
4009 2019-02-22 04:13:23 ESP12E-S1 8.30 7.77 98.90
4008 2019-02-22 03:45:08 ESP12E-S1 8.30 7.79 99.90
4007 2019-02-22 03:16:52 ESP12E-S1 8.20 7.67 99.30
4006 2019-02-22 02:48:36 ESP12E-S1 8.20 7.67 99.40
4005 2019-02-22 02:20:19 ESP12E-S1 8.00 7.43 98.50
4004 2019-02-22 01:52:03 ESP12E-S1 8.00 7.40 97.50
4003 2019-02-22 01:23:47 ESP12E-S1 8.00 7.40 97.30
4002 2019-02-22 00:55:32 ESP12E-S1 8.10 7.49 96.70
4001 2019-02-22 00:27:16 ESP12E-S1 8.10 7.47 95.80
4000 2019-02-21 23:59:03 ESP12E-S1 8.30 7.67 95.30
3999 2019-02-21 23:30:47 ESP12E-S1 8.40 7.73 93.20
3998 2019-02-21 23:02:36 ESP12E-S1 8.50 7.83 92.80
3997 2019-02-21 22:34:19 ESP12E-S1 8.30 7.59 92.20
3996 2019-02-21 22:06:03 ESP12E-S1 8.10 7.34 90.90
3995 2019-02-21 21:37:47 ESP12E-S1 8.10 7.34 90.80
3994 2019-02-21 21:09:33 ESP12E-S1 8.20 7.44 90.60
3993 2019-02-21 20:41:19 ESP12E-S1 8.50 7.77 90.60
3992 2019-02-21 20:13:05 ESP12E-S1 8.80 8.09 90.20
3991 2019-02-21 19:44:50 ESP12E-S1 9.10 8.42 90.30
3990 2019-02-21 19:16:36 ESP12E-S1 9.40 8.71 88.80
3989 2019-02-21 18:48:21 ESP12E-S1 9.90 9.22 87.10
3988 2019-02-21 18:20:07 ESP12E-S1 10.20 9.43 82.50
3987 2019-02-21 17:51:54 ESP12E-S1 10.60 9.76 78.40
3986 2019-02-21 17:23:42 ESP12E-S1 11.10 10.17 73.00
3985 2019-02-21 16:55:30 ESP12E-S1 11.70 10.77 70.60
3984 2019-02-21 16:27:20 ESP12E-S1 12.70 11.79 67.60
3983 2019-02-21 15:59:27 ESP12E-S1 15.70 14.92 61.20
3982 2019-02-21 15:30:47 ESP12E-S1 13.50 12.64 66.50
3981 2019-02-21 15:02:27 ESP12E-S1 13.00 12.13 68.00
3980 2019-02-21 14:34:08 ESP12E-S1 12.30 11.44 70.90
3979 2019-02-21 14:05:48 ESP12E-S1 11.20 10.27 72.70
3978 2019-02-21 13:37:37 ESP12E-S1 12.00 11.08 70.00
3977 2019-02-21 13:09:31 ESP12E-S1 12.40 11.50 69.30
3976 2019-02-21 12:40:58 ESP12E-S1 10.50 9.64 78.10
3975 2019-02-21 12:12:35 ESP12E-S1 9.10 8.22 82.40
3974 2019-02-21 11:44:17 ESP12E-S1 8.60 7.70 83.80
3973 2019-02-21 11:15:54 ESP12E-S1 7.70 6.85 89.20
3972 2019-02-21 10:47:38 ESP12E-S1 7.20 6.36 91.50
3971 2019-02-21 10:19:18 ESP12E-S1 6.70 5.82 91.70
3970 2019-02-21 09:50:57 ESP12E-S1 5.40 4.41 92.60
3969 2019-02-21 09:22:37 ESP12E-S1 5.30 4.36 94.90
3968 2019-02-21 08:54:20 ESP12E-S1 5.00 4.01 94.10
3967 2019-02-21 08:26:00 ESP12E-S1 4.00 2.87 92.50
3966 2019-02-21 07:57:42 ESP12E-S1 3.40 2.17 91.00
3965 2019-02-21 07:29:26 ESP12E-S1 3.40 2.17 90.90
3964 2019-02-21 07:01:11 ESP12E-S1 3.50 2.27 90.60
3963 2019-02-21 06:32:56 ESP12E-S1 3.70 2.49 90.60
3962 2019-02-21 06:04:40 ESP12E-S1 3.80 2.59 90.10
3961 2019-02-21 05:36:25 ESP12E-S1 3.80 2.57 89.50
3960 2019-02-21 05:08:10 ESP12E-S1 3.90 2.67 89.10
3959 2019-02-21 04:39:55 ESP12E-S1 4.00 2.79 89.40
3958 2019-02-21 04:11:40 ESP12E-S1 4.10 2.88 88.60
3957 2019-02-21 03:43:24 ESP12E-S1 4.30 3.06 87.00
3956 2019-02-21 03:15:09 ESP12E-S1 4.50 3.29 87.50
3955 2019-02-21 02:47:00 ESP12E-S1 4.60 3.37 86.20
3954 2019-02-21 02:18:42 ESP12E-S1 4.80 3.58 86.10
3953 2019-02-21 01:50:28 ESP12E-S1 4.90 3.66 84.90
3952 2019-02-21 01:22:15 ESP12E-S1 5.20 3.95 83.20
3951 2019-02-21 00:54:02 ESP12E-S1 5.50 4.28 83.20
3950 2019-02-21 00:25:48 ESP12E-S1 5.70 4.51 83.70
3949 2019-02-20 23:57:31 ESP12E-S1 5.60 4.35 81.90
3948 2019-02-20 23:29:15 ESP12E-S1 5.60 4.34 81.30
3947 2019-02-20 23:01:00 ESP12E-S1 5.70 4.41 79.80
3946 2019-02-20 22:32:47 ESP12E-S1 5.70 4.39 78.90
3945 2019-02-20 22:04:34 ESP12E-S1 6.20 4.89 77.00
3944 2019-02-20 21:36:19 ESP12E-S1 6.40 5.11 77.10
3943 2019-02-20 21:08:06 ESP12E-S1 6.90 5.61 75.20
3942 2019-02-20 20:39:52 ESP12E-S1 7.30 6.04 74.70
3941 2019-02-20 20:11:40 ESP12E-S1 7.70 6.46 74.10
3940 2019-02-20 19:43:32 ESP12E-S1 8.30 7.10 73.30
3939 2019-02-20 19:15:16 ESP12E-S1 8.60 7.38 71.50
3938 2019-02-20 18:47:06 ESP12E-S1 9.10 7.83 67.70
3937 2019-02-20 18:18:51 ESP12E-S1 9.50 8.22 65.50
3936 2019-02-20 17:50:38 ESP12E-S1 10.00 8.67 61.70
3935 2019-02-20 17:22:24 ESP12E-S1 10.40 9.09 60.90
3934 2019-02-20 16:54:10 ESP12E-S1 10.90 9.60 59.70
3933 2019-02-20 16:25:57 ESP12E-S1 11.40 10.15 59.50
3932 2019-02-20 15:58:02 ESP12E-S1 13.00 11.83 56.40
3931 2019-02-20 15:29:38 ESP12E-S1 12.60 11.39 56.50
3930 2019-02-20 15:01:26 ESP12E-S1 13.50 12.34 54.80
3929 2019-02-20 14:33:11 ESP12E-S1 13.40 12.24 55.50
3928 2019-02-20 14:04:54 ESP12E-S1 13.20 12.02 55.50
3927 2019-02-20 13:36:51 ESP12E-S1 14.00 12.89 55.00
3926 2019-02-20 13:08:38 ESP12E-S1 13.90 12.90 59.40
3925 2019-02-20 12:39:57 ESP12E-S1 11.80 10.69 63.30
3924 2019-02-20 12:11:30 ESP12E-S1 11.50 10.40 65.00
3923 2019-02-20 11:43:06 ESP12E-S1 10.30 9.14 67.30
3922 2019-02-20 11:14:42 ESP12E-S1 8.80 7.67 73.90
3921 2019-02-20 10:46:35 ESP12E-S1 8.60 7.46 74.40
3920 2019-02-20 10:18:09 ESP12E-S1 7.20 6.10 81.20
3919 2019-02-20 09:49:37 ESP12E-S1 5.20 4.08 88.40
3918 2019-02-20 09:21:18 ESP12E-S1 4.30 3.19 92.00
3917 2019-02-20 08:52:59 ESP12E-S1 3.60 2.35 89.50
3916 2019-02-20 08:24:42 ESP12E-S1 4.10 2.91 89.60
3915 2019-02-20 07:56:25 ESP12E-S1 2.90 1.54 87.80
3914 2019-02-20 07:28:09 ESP12E-S1 2.70 1.29 86.60
3913 2019-02-20 06:59:53 ESP12E-S1 2.70 1.32 87.90
3912 2019-02-20 06:31:39 ESP12E-S1 2.60 1.20 87.40
3911 2019-02-20 06:03:23 ESP12E-S1 2.50 1.04 85.50
3910 2019-02-20 05:35:07 ESP12E-S1 2.50 1.00 84.00
3909 2019-02-20 05:06:51 ESP12E-S1 2.60 1.12 84.30
3908 2019-02-20 04:38:36 ESP12E-S1 2.70 1.25 85.10
3907 2019-02-20 04:10:23 ESP12E-S1 2.80 1.34 84.30
3906 2019-02-20 03:42:10 ESP12E-S1 3.20 1.71 81.80
3905 2019-02-20 03:13:56 ESP12E-S1 3.50 2.02 81.00
3904 2019-02-20 02:45:40 ESP12E-S1 3.70 2.22 80.30
3903 2019-02-20 02:17:24 ESP12E-S1 3.60 2.14 81.50
3902 2019-02-20 01:49:10 ESP12E-S1 3.70 2.22 80.10
3901 2019-02-20 01:20:55 ESP12E-S1 3.90 2.42 79.30
3900 2019-02-20 00:52:40 ESP12E-S1 4.10 2.64 79.60
3899 2019-02-20 00:24:25 ESP12E-S1 4.30 2.84 78.60
3898 2019-02-19 23:56:11 ESP12E-S1 4.50 3.03 77.60
3897 2019-02-19 23:27:56 ESP12E-S1 4.60 3.14 77.50
3896 2019-02-19 22:59:42 ESP12E-S1 4.80 3.32 76.10
3895 2019-02-19 22:31:28 ESP12E-S1 5.00 3.55 76.40
3894 2019-02-19 22:03:13 ESP12E-S1 5.50 4.03 73.60
3893 2019-02-19 21:35:00 ESP12E-S1 5.80 4.34 73.00
3892 2019-02-19 21:06:46 ESP12E-S1 6.20 4.75 71.70
3891 2019-02-19 20:38:33 ESP12E-S1 6.60 5.10 68.50
3890 2019-02-19 20:10:18 ESP12E-S1 6.90 5.39 66.80
3889 2019-02-19 19:42:04 ESP12E-S1 7.20 5.69 65.50
3888 2019-02-19 19:13:50 ESP12E-S1 7.50 5.97 63.60
3887 2019-02-19 18:45:38 ESP12E-S1 7.90 6.36 62.00
3886 2019-02-19 18:17:29 ESP12E-S1 8.90 7.38 58.70
3885 2019-02-19 17:49:21 ESP12E-S1 9.90 8.38 54.80
3884 2019-02-19 17:21:14 ESP12E-S1 11.00 9.49 51.20
3883 2019-02-19 16:53:16 ESP12E-S1 13.40 12.03 47.40
3882 2019-02-19 16:25:03 ESP12E-S1 16.00 14.83 44.90
3881 2019-02-19 15:56:57 ESP12E-S1 17.80 16.88 47.60
3880 2019-02-19 15:28:39 ESP12E-S1 14.70 13.68 55.60
3879 2019-02-19 15:00:13 ESP12E-S1 12.70 11.64 62.00
3878 2019-02-19 14:31:49 ESP12E-S1 11.80 10.75 65.80
3877 2019-02-19 14:03:36 ESP12E-S1 11.40 10.30 65.30
3876 2019-02-19 13:36:02 ESP12E-S1 13.80 12.92 64.70
3875 2019-02-19 13:07:19 ESP12E-S1 10.40 9.55 78.80
3874 2019-02-19 12:38:50 ESP12E-S1 9.60 8.91 87.90
3873 2019-02-19 12:10:26 ESP12E-S1 7.70 6.90 91.10
3872 2019-02-19 11:42:04 ESP12E-S1 6.70 5.86 93.10
3871 2019-02-19 11:13:43 ESP12E-S1 6.00 5.06 92.20
3870 2019-02-19 10:45:37 ESP12E-S1 5.70 4.73 92.20
3869 2019-02-19 10:17:18 ESP12E-S1 5.40 4.37 90.90
3868 2019-02-19 09:49:02 ESP12E-S1 5.10 4.04 90.80
3867 2019-02-19 09:20:48 ESP12E-S1 5.00 3.83 87.20
3866 2019-02-19 08:52:33 ESP12E-S1 5.00 3.64 80.00
3865 2019-02-19 08:24:16 ESP12E-S1 4.90 3.41 75.40
3864 2019-02-19 07:56:01 ESP12E-S1 4.80 3.27 74.10
3863 2019-02-19 07:27:46 ESP12E-S1 4.60 3.05 74.20
3862 2019-02-19 06:59:31 ESP12E-S1 4.80 3.24 73.00
3861 2019-02-19 06:31:15 ESP12E-S1 4.60 3.02 72.90
3860 2019-02-19 06:02:58 ESP12E-S1 4.40 2.79 72.50
3859 2019-02-19 05:34:43 ESP12E-S1 4.50 2.85 70.70
3858 2019-02-19 05:06:29 ESP12E-S1 4.60 2.95 70.10
3857 2019-02-19 04:38:12 ESP12E-S1 4.50 2.82 69.60
3856 2019-02-19 04:09:56 ESP12E-S1 4.30 2.60 69.30
3855 2019-02-19 03:41:41 ESP12E-S1 4.20 2.47 68.70
3854 2019-02-19 03:13:28 ESP12E-S1 4.30 2.57 68.50
3853 2019-02-19 02:45:13 ESP12E-S1 4.50 2.78 68.00
3852 2019-02-19 02:17:00 ESP12E-S1 4.70 2.97 67.00
3851 2019-02-19 01:48:47 ESP12E-S1 4.90 3.14 65.00
3850 2019-02-19 01:20:33 ESP12E-S1 5.10 3.31 63.10
3849 2019-02-19 00:52:20 ESP12E-S1 5.30 3.50 61.80
3848 2019-02-19 00:24:07 ESP12E-S1 5.60 3.80 60.50
3847 2019-02-18 23:55:54 ESP12E-S1 5.90 4.10 59.50
3846 2019-02-18 23:27:40 ESP12E-S1 6.30 4.50 57.90
3845 2019-02-18 22:59:25 ESP12E-S1 6.60 4.80 57.00
3844 2019-02-18 22:31:10 ESP12E-S1 6.80 5.02 56.70
3843 2019-02-18 22:02:54 ESP12E-S1 6.90 5.15 57.60
3842 2019-02-18 21:34:40 ESP12E-S1 7.30 5.58 57.30
3841 2019-02-18 21:06:26 ESP12E-S1 7.60 5.91 57.30
3840 2019-02-18 20:38:12 ESP12E-S1 7.90 6.22 56.30
3839 2019-02-18 20:10:00 ESP12E-S1 8.40 6.75 55.60
3838 2019-02-18 19:41:48 ESP12E-S1 8.90 7.27 54.50
3837 2019-02-18 19:13:45 ESP12E-S1 9.30 7.70 54.00
3836 2019-02-18 18:45:31 ESP12E-S1 10.10 8.52 51.80
3835 2019-02-18 18:17:21 ESP12E-S1 10.80 9.26 50.60
3834 2019-02-18 17:49:14 ESP12E-S1 12.00 10.51 48.20
3833 2019-02-18 17:21:12 ESP12E-S1 13.80 12.44 46.00
3832 2019-02-18 16:53:15 ESP12E-S1 16.20 14.95 41.10
3831 2019-02-18 16:25:42 ESP12E-S1 21.90 21.07 35.50
3830 2019-02-18 15:57:28 ESP12E-S1 23.20 22.53 36.60
3829 2019-02-18 15:28:42 ESP12E-S1 19.80 18.82 37.70
3828 2019-02-18 15:00:09 ESP12E-S1 15.90 14.60 40.50
3827 2019-02-18 14:31:54 ESP12E-S1 15.70 14.42 41.90
3826 2019-02-18 14:04:00 ESP12E-S1 16.90 15.73 41.40
3825 2019-02-18 13:36:26 ESP12E-S1 17.90 16.80 40.40
3824 2019-02-18 13:07:35 ESP12E-S1 15.10 13.93 48.60
3823 2019-02-18 12:38:51 ESP12E-S1 12.90 11.51 48.50
3822 2019-02-18 12:10:33 ESP12E-S1 12.40 11.01 50.20
3821 2019-02-18 11:42:14 ESP12E-S1 11.60 10.15 51.20
3820 2019-02-18 11:13:57 ESP12E-S1 11.00 9.51 52.00
3819 2019-02-18 10:45:45 ESP12E-S1 10.20 8.66 53.20
3818 2019-02-18 10:17:16 ESP12E-S1 8.10 6.59 62.20
3817 2019-02-18 09:48:44 ESP12E-S1 5.90 4.29 66.80
3816 2019-02-18 09:20:22 ESP12E-S1 4.30 2.71 73.60
3815 2019-02-18 08:52:03 ESP12E-S1 3.40 1.64 70.80
3814 2019-02-18 08:23:47 ESP12E-S1 3.40 1.61 69.50
3813 2019-02-18 07:55:30 ESP12E-S1 3.30 1.48 68.90
3812 2019-02-18 07:27:15 ESP12E-S1 3.30 1.50 69.30
3811 2019-02-18 06:59:01 ESP12E-S1 3.50 1.66 67.20
3810 2019-02-18 06:30:46 ESP12E-S1 3.70 1.85 65.90
3809 2019-02-18 06:02:32 ESP12E-S1 3.90 2.02 64.00
3808 2019-02-18 05:34:17 ESP12E-S1 4.00 2.09 62.50
3807 2019-02-18 05:06:03 ESP12E-S1 4.20 2.26 60.60
3806 2019-02-18 04:37:48 ESP12E-S1 4.40 2.46 59.80
3805 2019-02-18 04:09:34 ESP12E-S1 4.60 2.66 59.20
3804 2019-02-18 03:41:20 ESP12E-S1 4.70 2.75 58.50
3803 2019-02-18 03:13:06 ESP12E-S1 4.90 2.97 58.30
3802 2019-02-18 02:44:53 ESP12E-S1 5.10 3.18 58.10
3801 2019-02-18 02:16:40 ESP12E-S1 5.30 3.39 57.60
3800 2019-02-18 01:48:26 ESP12E-S1 5.50 3.60 57.20
3799 2019-02-18 01:20:15 ESP12E-S1 5.80 3.93 57.10
3798 2019-02-18 00:52:01 ESP12E-S1 6.10 4.26 57.20
3797 2019-02-18 00:23:47 ESP12E-S1 6.30 4.48 57.10
3796 2019-02-17 23:55:34 ESP12E-S1 6.50 4.69 56.80
3795 2019-02-17 23:27:19 ESP12E-S1 6.60 4.80 56.70
3794 2019-02-17 22:59:05 ESP12E-S1 6.80 5.01 56.60
3793 2019-02-17 22:30:50 ESP12E-S1 7.00 5.21 55.60
3792 2019-02-17 22:02:48 ESP12E-S1 7.20 5.44 56.10
3791 2019-02-17 21:34:32 ESP12E-S1 7.60 5.86 55.30
3790 2019-02-17 21:06:19 ESP12E-S1 7.90 6.17 54.40
3789 2019-02-17 20:38:05 ESP12E-S1 8.30 6.59 53.70
3788 2019-02-17 20:09:54 ESP12E-S1 8.80 7.11 52.60
3787 2019-02-17 19:41:42 ESP12E-S1 9.30 7.64 51.80
3786 2019-02-17 19:13:29 ESP12E-S1 9.80 8.16 50.90
3785 2019-02-17 18:45:17 ESP12E-S1 10.40 8.79 49.40
3784 2019-02-17 18:17:06 ESP12E-S1 11.30 9.73 47.50
3783 2019-02-17 17:48:58 ESP12E-S1 12.60 11.14 46.80
3782 2019-02-17 17:20:52 ESP12E-S1 14.20 12.80 43.10
3781 2019-02-17 16:52:56 ESP12E-S1 16.70 15.49 40.90
3780 2019-02-17 16:25:05 ESP12E-S1 21.80 20.99 36.60
3779 2019-02-17 15:56:39 ESP12E-S1 21.20 20.36 37.70
3778 2019-02-17 15:27:59 ESP12E-S1 19.50 18.53 39.40
3777 2019-02-17 14:59:29 ESP12E-S1 15.40 14.13 43.50
3776 2019-02-17 14:31:10 ESP12E-S1 14.60 13.29 44.80
3775 2019-02-17 14:03:07 ESP12E-S1 15.30 14.07 45.30
3774 2019-02-17 13:35:09 ESP12E-S1 15.40 14.25 47.90
3773 2019-02-17 13:06:27 ESP12E-S1 13.10 11.80 51.20
3772 2019-02-17 12:38:04 ESP12E-S1 12.30 10.97 53.20
3771 2019-02-17 12:09:44 ESP12E-S1 11.60 10.21 53.50
3770 2019-02-17 11:41:23 ESP12E-S1 10.80 9.43 57.30
3769 2019-02-17 11:13:08 ESP12E-S1 10.30 8.92 58.70
3768 2019-02-17 10:44:54 ESP12E-S1 9.80 8.54 65.30
3767 2019-02-17 10:16:20 ESP12E-S1 7.70 6.41 72.20
3766 2019-02-17 09:47:53 ESP12E-S1 5.90 4.59 78.20
3765 2019-02-17 09:20:07 ESP12E-S1 4.70 3.39 82.80
3764 2019-02-17 08:51:31 ESP12E-S1 4.00 2.55 80.20
3763 2019-02-17 08:23:14 ESP12E-S1 3.70 2.22 80.10
3762 2019-02-17 07:54:56 ESP12E-S1 3.50 1.96 78.70
3761 2019-02-17 07:26:41 ESP12E-S1 3.50 1.96 78.70
3760 2019-02-17 06:58:25 ESP12E-S1 3.60 2.06 78.20
3759 2019-02-17 06:30:10 ESP12E-S1 3.70 2.17 78.30
3758 2019-02-17 06:01:55 ESP12E-S1 3.80 2.26 77.50
3757 2019-02-17 05:33:40 ESP12E-S1 3.90 2.38 77.80
3756 2019-02-17 05:05:24 ESP12E-S1 4.00 2.49 78.00
3755 2019-02-17 04:37:07 ESP12E-S1 4.10 2.59 77.50
3754 2019-02-17 04:08:51 ESP12E-S1 4.40 2.90 76.60
3753 2019-02-17 03:40:36 ESP12E-S1 4.60 3.08 75.20
3752 2019-02-17 03:12:21 ESP12E-S1 4.80 3.22 72.30
3751 2019-02-17 02:44:07 ESP12E-S1 5.00 3.45 72.60
3750 2019-02-17 02:15:59 ESP12E-S1 5.20 3.69 73.30
3749 2019-02-17 01:47:40 ESP12E-S1 5.30 3.80 73.20
3748 2019-02-17 01:19:26 ESP12E-S1 5.50 4.00 72.40
3747 2019-02-17 00:51:10 ESP12E-S1 5.60 4.09 71.60
3746 2019-02-17 00:22:55 ESP12E-S1 5.80 4.28 70.70
3745 2019-02-16 23:54:39 ESP12E-S1 5.90 4.38 70.20
3744 2019-02-16 23:26:26 ESP12E-S1 6.10 4.58 69.30
3743 2019-02-16 22:58:12 ESP12E-S1 6.40 4.84 66.90
3742 2019-02-16 22:29:58 ESP12E-S1 6.60 5.03 65.70
3741 2019-02-16 22:01:44 ESP12E-S1 6.80 5.23 64.80
3740 2019-02-16 21:33:31 ESP12E-S1 7.10 5.52 63.50
3739 2019-02-16 21:05:17 ESP12E-S1 7.40 5.83 62.50
3738 2019-02-16 20:37:03 ESP12E-S1 7.70 6.13 61.30
3737 2019-02-16 20:08:51 ESP12E-S1 8.10 6.53 59.90
3736 2019-02-16 19:40:37 ESP12E-S1 8.50 6.96 59.40
3735 2019-02-16 19:12:24 ESP12E-S1 9.00 7.49 58.70
3734 2019-02-16 18:44:13 ESP12E-S1 9.60 8.13 58.10
3733 2019-02-16 18:16:02 ESP12E-S1 10.40 8.98 56.70
3732 2019-02-16 17:47:55 ESP12E-S1 11.90 10.54 53.40
3731 2019-02-16 17:19:50 ESP12E-S1 13.50 12.19 49.20
3730 2019-02-16 16:52:00 ESP12E-S1 16.30 15.17 45.50
3729 2019-02-16 16:24:11 ESP12E-S1 21.90 21.17 39.10
3728 2019-02-16 15:55:55 ESP12E-S1 22.90 22.27 39.10
3727 2019-02-16 15:26:53 ESP12E-S1 18.50 17.55 43.90
3726 2019-02-16 14:58:29 ESP12E-S1 15.40 14.18 45.50
3725 2019-02-16 14:30:16 ESP12E-S1 15.30 14.12 47.10
3724 2019-02-16 14:02:29 ESP12E-S1 16.30 15.21 47.00
3723 2019-02-16 13:34:35 ESP12E-S1 16.00 14.83 44.80
3722 2019-02-16 13:05:40 ESP12E-S1 13.00 11.71 51.80
3721 2019-02-16 12:37:14 ESP12E-S1 12.00 10.69 55.10
3720 2019-02-16 12:08:57 ESP12E-S1 11.40 10.06 56.00
3719 2019-02-16 11:40:36 ESP12E-S1 10.70 9.33 57.60
3718 2019-02-16 11:12:20 ESP12E-S1 10.10 8.69 58.40
3717 2019-02-16 10:44:07 ESP12E-S1 9.30 7.88 60.90
3716 2019-02-16 10:15:32 ESP12E-S1 7.50 6.09 68.40
3715 2019-02-16 09:47:02 ESP12E-S1 5.60 4.05 70.10
3714 2019-02-16 09:18:36 ESP12E-S1 3.80 2.18 74.40
3713 2019-02-16 08:50:18 ESP12E-S1 3.20 1.50 73.70
3712 2019-02-16 08:22:02 ESP12E-S1 3.10 1.34 71.70
3711 2019-02-16 07:53:45 ESP12E-S1 3.10 1.30 70.20
3710 2019-02-16 07:25:31 ESP12E-S1 3.20 1.38 69.20
3709 2019-02-16 06:57:15 ESP12E-S1 3.40 1.58 68.40
3708 2019-02-16 06:29:01 ESP12E-S1 3.50 1.70 68.70
3707 2019-02-16 06:00:46 ESP12E-S1 3.90 2.11 67.60
3706 2019-02-16 05:32:32 ESP12E-S1 4.00 2.23 67.90
3705 2019-02-16 05:04:19 ESP12E-S1 4.40 2.64 66.70
3704 2019-02-16 04:36:05 ESP12E-S1 4.60 2.82 65.20
3703 2019-02-16 04:07:51 ESP12E-S1 5.00 3.22 63.80
3702 2019-02-16 03:39:44 ESP12E-S1 5.10 3.33 63.70
3701 2019-02-16 03:11:27 ESP12E-S1 5.20 3.45 64.10
3700 2019-02-16 02:43:14 ESP12E-S1 5.50 3.76 63.20
3699 2019-02-16 02:15:01 ESP12E-S1 5.90 4.16 61.70
3698 2019-02-16 01:46:49 ESP12E-S1 6.30 4.57 60.70
3697 2019-02-16 01:18:36 ESP12E-S1 6.60 4.88 59.90
3696 2019-02-16 00:50:24 ESP12E-S1 7.10 5.42 59.40
3695 2019-02-16 00:22:10 ESP12E-S1 7.50 5.83 58.40
3694 2019-02-15 23:53:54 ESP12E-S1 7.70 6.07 59.10
3693 2019-02-15 23:25:39 ESP12E-S1 7.80 6.18 59.00
3692 2019-02-15 22:57:24 ESP12E-S1 8.00 6.36 57.80
3691 2019-02-15 22:29:09 ESP12E-S1 8.10 6.49 58.30
3690 2019-02-15 22:00:53 ESP12E-S1 8.30 6.68 57.40
3689 2019-02-15 21:32:39 ESP12E-S1 8.60 6.99 56.40
3688 2019-02-15 21:04:25 ESP12E-S1 9.00 7.39 54.90
3687 2019-02-15 20:36:10 ESP12E-S1 9.20 7.57 53.30
3686 2019-02-15 20:07:57 ESP12E-S1 9.50 7.87 52.30
3685 2019-02-15 19:39:43 ESP12E-S1 10.00 8.36 49.80
3684 2019-02-15 19:11:29 ESP12E-S1 10.40 8.77 48.80
3683 2019-02-15 18:43:21 ESP12E-S1 11.10 9.52 48.00
3682 2019-02-15 18:15:08 ESP12E-S1 11.90 10.38 47.10
3681 2019-02-15 17:47:02 ESP12E-S1 13.00 11.56 46.30
3680 2019-02-15 17:18:58 ESP12E-S1 14.60 13.29 45.00
3679 2019-02-15 16:51:06 ESP12E-S1 17.60 16.53 42.60
3678 2019-02-15 16:23:22 ESP12E-S1 23.30 22.74 40.30
3677 2019-02-15 15:55:03 ESP12E-S1 24.30 23.81 39.10
3676 2019-02-15 15:25:49 ESP12E-S1 19.50 18.67 44.70
3675 2019-02-15 14:57:27 ESP12E-S1 16.80 15.83 49.40
3674 2019-02-15 14:29:14 ESP12E-S1 16.90 15.94 49.50
3673 2019-02-15 14:01:23 ESP12E-S1 17.70 16.78 48.00
3672 2019-02-15 13:33:14 ESP12E-S1 16.70 15.77 51.40
3671 2019-02-15 13:04:30 ESP12E-S1 14.60 13.37 48.20
3670 2019-02-15 12:36:06 ESP12E-S1 13.60 12.31 49.70
3669 2019-02-15 12:07:46 ESP12E-S1 12.80 11.35 46.40
3668 2019-02-15 11:39:25 ESP12E-S1 11.90 10.43 49.10
3667 2019-02-15 11:11:10 ESP12E-S1 11.10 9.53 48.40
3666 2019-02-15 10:42:57 ESP12E-S1 10.20 8.62 51.50
3665 2019-02-15 10:14:17 ESP12E-S1 8.10 6.54 60.40
3664 2019-02-15 09:45:51 ESP12E-S1 6.30 4.69 65.20
3663 2019-02-15 09:17:28 ESP12E-S1 4.70 3.01 68.40
3662 2019-02-15 08:49:09 ESP12E-S1 4.00 2.28 69.90
3661 2019-02-15 08:20:53 ESP12E-S1 3.80 2.09 71.10
3660 2019-02-15 07:52:39 ESP12E-S1 3.70 1.99 71.40
3659 2019-02-15 07:24:37 ESP12E-S1 3.60 1.89 71.80
3658 2019-02-15 06:56:18 ESP12E-S1 3.40 1.67 71.60
3657 2019-02-15 06:28:01 ESP12E-S1 3.20 1.48 73.00
3656 2019-02-15 05:59:43 ESP12E-S1 2.80 1.09 74.70
3655 2019-02-15 05:31:28 ESP12E-S1 2.50 0.81 76.70
3654 2019-02-15 05:03:15 ESP12E-S1 2.70 1.02 76.30
3653 2019-02-15 04:35:00 ESP12E-S1 2.80 1.08 74.30
3652 2019-02-15 04:06:46 ESP12E-S1 3.00 1.27 73.20
3651 2019-02-15 03:38:31 ESP12E-S1 3.20 1.43 71.10
3650 2019-02-15 03:10:16 ESP12E-S1 3.30 1.48 68.70
3649 2019-02-15 02:42:02 ESP12E-S1 3.40 1.55 67.10
3648 2019-02-15 02:13:48 ESP12E-S1 3.50 1.63 65.90
3647 2019-02-15 01:45:33 ESP12E-S1 3.60 1.64 62.20
3646 2019-02-15 01:17:20 ESP12E-S1 4.00 2.07 61.80
3645 2019-02-15 00:49:06 ESP12E-S1 4.10 2.08 58.10
3644 2019-02-15 00:20:52 ESP12E-S1 4.30 2.32 58.80
3643 2019-02-14 23:52:37 ESP12E-S1 4.30 2.34 59.70
3642 2019-02-14 23:24:23 ESP12E-S1 4.40 2.65 67.20
3641 2019-02-14 22:56:06 ESP12E-S1 4.30 2.60 69.50
3640 2019-02-14 22:27:51 ESP12E-S1 4.20 2.34 63.70
3639 2019-02-14 21:59:37 ESP12E-S1 4.40 2.43 58.90
3638 2019-02-14 21:31:22 ESP12E-S1 4.50 2.55 59.00
3637 2019-02-14 21:03:08 ESP12E-S1 4.70 2.81 60.50
3636 2019-02-14 20:34:55 ESP12E-S1 5.10 3.38 65.60
3635 2019-02-14 20:06:41 ESP12E-S1 5.30 3.74 70.90
3634 2019-02-14 19:38:27 ESP12E-S1 5.50 4.06 74.70
3633 2019-02-14 19:10:15 ESP12E-S1 6.20 4.84 75.20
3632 2019-02-14 18:42:04 ESP12E-S1 6.70 5.36 74.00
3631 2019-02-14 18:13:55 ESP12E-S1 7.60 6.26 70.50
3630 2019-02-14 17:45:47 ESP12E-S1 8.80 7.50 67.40
3629 2019-02-14 17:17:39 ESP12E-S1 10.00 8.69 62.70
3628 2019-02-14 16:49:39 ESP12E-S1 11.90 10.63 56.90
3627 2019-02-14 16:21:51 ESP12E-S1 16.30 15.22 47.40
3626 2019-02-14 15:53:52 ESP12E-S1 17.90 16.87 42.90
3625 2019-02-14 15:24:46 ESP12E-S1 14.30 13.29 57.70
3624 2019-02-14 14:56:23 ESP12E-S1 11.30 10.19 65.40
3623 2019-02-14 14:28:01 ESP12E-S1 9.90 8.73 68.30
3622 2019-02-14 13:59:53 ESP12E-S1 10.30 9.07 64.40
3621 2019-02-14 13:31:36 ESP12E-S1 10.20 8.85 60.30
3620 2019-02-14 13:03:15 ESP12E-S1 10.20 8.99 65.50
3619 2019-02-14 12:34:53 ESP12E-S1 9.40 8.23 70.20
3618 2019-02-14 12:06:35 ESP12E-S1 8.90 7.65 69.30
3617 2019-02-14 11:38:18 ESP12E-S1 8.60 7.34 69.90
3616 2019-02-14 11:09:54 ESP12E-S1 6.80 5.39 71.00
3615 2019-02-14 10:41:37 ESP12E-S1 5.80 4.40 75.30
3614 2019-02-14 10:12:52 ESP12E-S1 3.00 1.65 87.70
3613 2019-02-14 09:44:30 ESP12E-S1 1.70 0.36 93.30
3612 2019-02-14 09:16:13 ESP12E-S1 1.00 -0.43 92.60
3611 2019-02-14 08:47:56 ESP12E-S1 0.80 -0.66 92.20
3610 2019-02-14 08:19:40 ESP12E-S1 0.60 -0.89 91.70
3609 2019-02-14 07:51:23 ESP12E-S1 0.50 -1.00 91.70
3608 2019-02-14 07:23:08 ESP12E-S1 0.60 -0.88 92.00
3607 2019-02-14 06:54:55 ESP12E-S1 0.70 -0.77 91.90
3606 2019-02-14 06:26:46 ESP12E-S1 0.90 -0.54 92.40
3605 2019-02-14 05:58:30 ESP12E-S1 1.10 -0.33 92.20
3604 2019-02-14 05:30:14 ESP12E-S1 1.10 -0.33 92.00
3603 2019-02-14 05:01:59 ESP12E-S1 1.20 -0.23 91.80
3602 2019-02-14 04:33:45 ESP12E-S1 1.20 -0.24 91.50
3601 2019-02-14 04:05:30 ESP12E-S1 1.30 -0.13 91.30
3600 2019-02-14 03:37:15 ESP12E-S1 1.30 -0.14 91.00
3599 2019-02-14 03:08:59 ESP12E-S1 1.30 -0.13 91.20
3598 2019-02-14 02:40:43 ESP12E-S1 1.30 -0.14 90.90
3597 2019-02-14 02:12:29 ESP12E-S1 1.40 -0.03 91.10
3596 2019-02-14 01:44:13 ESP12E-S1 1.40 -0.02 91.30
3595 2019-02-14 00:47:53 ESP12E-S1 1.60 0.19 90.90
3594 2019-02-13 23:51:33 ESP12E-S1 2.00 0.62 90.60
3593 2019-02-13 23:23:20 ESP12E-S1 2.20 0.84 90.50
3592 2019-02-13 22:55:07 ESP12E-S1 2.50 1.17 90.50
3591 2019-02-13 22:26:53 ESP12E-S1 2.80 1.50 90.50
3590 2019-02-13 21:58:37 ESP12E-S1 2.90 1.61 90.40
3589 2019-02-13 21:30:22 ESP12E-S1 3.00 1.70 89.80
3588 2019-02-13 21:02:09 ESP12E-S1 3.20 1.89 88.70
3587 2019-02-13 20:33:53 ESP12E-S1 3.40 2.10 88.10
3586 2019-02-13 20:05:40 ESP12E-S1 3.50 2.18 87.00
3585 2019-02-13 19:37:25 ESP12E-S1 3.70 2.39 86.80
3584 2019-02-13 19:09:12 ESP12E-S1 4.00 2.71 86.40
3583 2019-02-13 18:41:01 ESP12E-S1 4.60 3.35 85.40
3582 2019-02-13 18:12:49 ESP12E-S1 5.30 4.06 83.30
3581 2019-02-13 17:44:38 ESP12E-S1 6.10 4.89 81.20
3580 2019-02-13 17:16:27 ESP12E-S1 7.00 5.71 74.70
3579 2019-02-13 16:48:18 ESP12E-S1 7.80 6.45 69.50
3578 2019-02-13 16:20:07 ESP12E-S1 9.60 8.36 66.70
3577 2019-02-13 15:51:52 ESP12E-S1 9.50 8.22 65.80
3576 2019-02-13 15:23:29 ESP12E-S1 9.00 7.77 69.60
3575 2019-02-13 14:55:11 ESP12E-S1 8.30 7.01 70.00
3574 2019-02-13 14:26:55 ESP12E-S1 8.20 6.90 69.80
3573 2019-02-13 13:58:41 ESP12E-S1 8.40 6.99 65.00
3572 2019-02-13 13:30:29 ESP12E-S1 8.80 7.59 71.10
3571 2019-02-13 13:02:08 ESP12E-S1 8.30 7.22 78.00
3570 2019-02-13 12:33:49 ESP12E-S1 7.70 6.53 76.80
3569 2019-02-13 12:05:32 ESP12E-S1 6.90 5.73 79.70
3568 2019-02-13 11:37:11 ESP12E-S1 6.30 5.22 85.70
3567 2019-02-13 11:08:53 ESP12E-S1 5.30 4.08 84.20
3566 2019-02-13 10:40:37 ESP12E-S1 4.50 3.35 89.60
3565 2019-02-13 10:11:56 ESP12E-S1 2.70 1.47 93.50
3564 2019-02-13 09:43:34 ESP12E-S1 1.30 0.02 97.10
3563 2019-02-13 09:15:11 ESP12E-S1 0.10 -1.30 97.10
3562 2019-02-13 08:46:55 ESP12E-S1 -0.30 -1.76 96.40
3561 2019-02-13 08:18:40 ESP12E-S1 -0.50 -1.99 96.10
3560 2019-02-13 07:50:25 ESP12E-S1 -0.50 -1.99 96.00
3559 2019-02-13 07:22:13 ESP12E-S1 -0.50 -2.00 95.50
3558 2019-02-13 06:53:59 ESP12E-S1 -0.40 -1.91 94.70
3557 2019-02-13 06:25:46 ESP12E-S1 -0.30 -1.80 94.60
3556 2019-02-13 05:57:33 ESP12E-S1 -0.20 -1.70 94.40
3555 2019-02-13 05:29:19 ESP12E-S1 -0.20 -1.72 93.70
3554 2019-02-13 05:01:05 ESP12E-S1 -0.10 -1.61 93.80
3553 2019-02-13 04:32:51 ESP12E-S1 -0.10 -1.62 93.30
3552 2019-02-13 04:04:38 ESP12E-S1 0.20 -1.30 92.90
3551 2019-02-13 03:36:23 ESP12E-S1 0.30 -1.21 92.10
3550 2019-02-13 03:08:10 ESP12E-S1 0.40 -1.12 91.50
3549 2019-02-13 02:39:55 ESP12E-S1 0.40 -1.13 90.90
3548 2019-02-13 02:11:40 ESP12E-S1 0.50 -1.03 90.70
3547 2019-02-13 01:43:26 ESP12E-S1 0.50 -0.98 92.30
3546 2019-02-13 01:15:12 ESP12E-S1 0.60 -0.83 93.90
3545 2019-02-13 00:46:58 ESP12E-S1 0.70 -0.71 94.40
3544 2019-02-13 00:18:44 ESP12E-S1 0.70 -0.72 94.10
3543 2019-02-12 23:50:31 ESP12E-S1 0.90 -0.49 94.20
3542 2019-02-12 23:22:17 ESP12E-S1 1.10 -0.28 94.10
3541 2019-02-12 22:54:05 ESP12E-S1 1.40 0.04 93.70
3540 2019-02-12 22:25:53 ESP12E-S1 1.70 0.37 93.60
3539 2019-02-12 21:57:40 ESP12E-S1 2.00 0.70 93.50
3538 2019-02-12 21:29:28 ESP12E-S1 2.20 0.93 94.00
3537 2019-02-12 21:01:15 ESP12E-S1 2.50 1.28 94.80
3536 2019-02-12 20:33:01 ESP12E-S1 2.70 1.49 94.50
3535 2019-02-12 20:04:46 ESP12E-S1 3.00 1.83 94.90
3534 2019-02-12 19:36:32 ESP12E-S1 3.10 1.94 94.60
3533 2019-02-12 19:08:19 ESP12E-S1 3.30 2.13 93.70
3532 2019-02-12 18:40:06 ESP12E-S1 3.70 2.54 92.50
3531 2019-02-12 18:11:54 ESP12E-S1 4.20 3.05 90.80
3530 2019-02-12 17:43:41 ESP12E-S1 4.60 3.36 86.10
3529 2019-02-12 17:15:27 ESP12E-S1 4.80 3.54 84.60
3528 2019-02-12 16:47:15 ESP12E-S1 5.20 3.93 82.40
3527 2019-02-12 16:19:06 ESP12E-S1 6.00 4.84 83.60
3526 2019-02-12 15:50:53 ESP12E-S1 5.40 4.29 88.00
3525 2019-02-12 15:22:32 ESP12E-S1 5.10 4.02 90.10
3524 2019-02-12 14:54:16 ESP12E-S1 5.10 4.03 90.40
3523 2019-02-12 14:26:01 ESP12E-S1 5.10 4.05 91.30
3522 2019-02-12 13:57:45 ESP12E-S1 5.20 4.13 90.20
3521 2019-02-12 13:29:28 ESP12E-S1 4.80 3.72 91.40
3520 2019-02-12 13:01:10 ESP12E-S1 4.50 3.46 93.90
3519 2019-02-12 12:32:50 ESP12E-S1 3.80 2.70 94.50
3518 2019-02-12 12:04:33 ESP12E-S1 3.40 2.32 96.50
3517 2019-02-12 11:36:16 ESP12E-S1 3.00 1.90 97.60
3516 2019-02-12 11:08:00 ESP12E-S1 2.90 1.80 97.90
3515 2019-02-12 10:39:44 ESP12E-S1 2.70 1.59 98.40
3514 2019-02-12 10:11:27 ESP12E-S1 2.50 1.39 98.90
3513 2019-02-12 09:43:11 ESP12E-S1 2.40 1.27 98.60
3512 2019-02-12 09:15:06 ESP12E-S1 2.20 1.06 98.90
3511 2019-02-12 08:46:48 ESP12E-S1 2.10 0.96 99.30
3510 2019-02-12 08:18:36 ESP12E-S1 2.10 0.93 98.30
3509 2019-02-12 07:50:23 ESP12E-S1 2.10 0.95 99.00
3508 2019-02-12 07:22:08 ESP12E-S1 2.10 0.96 99.20
3507 2019-02-12 06:53:56 ESP12E-S1 2.10 0.93 98.30
3506 2019-02-12 06:25:41 ESP12E-S1 2.10 0.95 98.80
3505 2019-02-12 05:57:27 ESP12E-S1 2.10 0.95 99.10
3504 2019-02-12 05:29:13 ESP12E-S1 2.10 0.94 98.50
3503 2019-02-12 05:00:57 ESP12E-S1 2.10 0.93 98.10
3502 2019-02-12 04:32:44 ESP12E-S1 2.10 0.94 98.50
3501 2019-02-12 04:04:30 ESP12E-S1 2.00 0.81 97.80
3500 2019-02-12 03:36:16 ESP12E-S1 2.10 0.92 98.00
3499 2019-02-12 03:08:03 ESP12E-S1 2.10 0.94 98.50
3498 2019-02-12 02:39:49 ESP12E-S1 2.20 1.05 98.60
3497 2019-02-12 02:11:41 ESP12E-S1 2.30 1.16 98.60
3496 2019-02-12 01:43:25 ESP12E-S1 2.20 1.04 98.10
3495 2019-02-12 01:15:11 ESP12E-S1 2.30 1.14 97.90
3494 2019-02-12 00:46:56 ESP12E-S1 2.50 1.36 98.00
3493 2019-02-12 00:18:42 ESP12E-S1 2.60 1.51 99.30
3492 2019-02-11 23:50:28 ESP12E-S1 2.70 1.62 99.30
3491 2019-02-11 23:22:14 ESP12E-S1 2.80 1.74 99.70
3490 2019-02-11 22:53:58 ESP12E-S1 2.70 1.63 99.80
3489 2019-02-11 22:25:43 ESP12E-S1 2.80 1.73 99.30
3488 2019-02-11 21:57:29 ESP12E-S1 3.00 1.94 98.90
3487 2019-02-11 21:29:18 ESP12E-S1 3.30 2.27 98.80
3486 2019-02-11 21:01:04 ESP12E-S1 3.50 2.50 99.30
3485 2019-02-11 20:32:50 ESP12E-S1 3.50 2.50 99.40
3484 2019-02-11 20:04:35 ESP12E-S1 3.60 2.61 99.30
3483 2019-02-11 19:36:19 ESP12E-S1 3.60 2.61 99.20
3482 2019-02-11 19:08:04 ESP12E-S1 3.60 2.57 98.00
3481 2019-02-11 18:39:50 ESP12E-S1 3.60 2.62 99.90
3480 2019-02-11 18:11:36 ESP12E-S1 3.70 2.72 99.40
3479 2019-02-11 17:43:23 ESP12E-S1 4.00 3.05 99.40
3478 2019-02-11 17:15:11 ESP12E-S1 4.20 3.26 99.00
3477 2019-02-11 16:46:59 ESP12E-S1 4.40 3.46 98.10
3476 2019-02-11 16:18:48 ESP12E-S1 4.90 3.93 95.30
3475 2019-02-11 15:50:37 ESP12E-S1 5.10 4.07 91.90
3474 2019-02-11 15:22:34 ESP12E-S1 5.80 4.58 82.10
3473 2019-02-11 14:54:17 ESP12E-S1 5.80 4.68 85.80
3472 2019-02-11 14:26:01 ESP12E-S1 5.60 4.37 82.50
3471 2019-02-11 13:57:47 ESP12E-S1 5.90 4.77 85.20
3470 2019-02-11 13:29:27 ESP12E-S1 4.50 3.36 90.30
3469 2019-02-11 13:01:18 ESP12E-S1 4.20 3.07 91.70
3468 2019-02-11 12:33:03 ESP12E-S1 4.30 3.22 93.20
3467 2019-02-11 12:04:48 ESP12E-S1 4.40 3.37 94.60
3466 2019-02-11 11:36:36 ESP12E-S1 4.80 3.86 96.80
3465 2019-02-11 11:08:18 ESP12E-S1 4.00 3.06 99.90
3464 2019-02-11 10:40:01 ESP12E-S1 3.60 2.60 99.10
3463 2019-02-11 10:11:43 ESP12E-S1 3.30 2.29 99.70
3462 2019-02-11 09:43:27 ESP12E-S1 3.00 1.96 99.90
3461 2019-02-11 09:15:11 ESP12E-S1 2.80 1.74 99.90
3460 2019-02-11 08:46:57 ESP12E-S1 2.70 1.63 99.90
3459 2019-02-11 08:18:41 ESP12E-S1 2.60 1.52 99.90
3458 2019-02-11 07:50:26 ESP12E-S1 2.50 1.41 99.90
3457 2019-02-11 07:22:11 ESP12E-S1 2.50 1.41 99.90
3456 2019-02-11 06:53:55 ESP12E-S1 2.40 1.30 99.90
3455 2019-02-11 06:25:41 ESP12E-S1 2.40 1.30 99.90
3454 2019-02-11 05:57:25 ESP12E-S1 2.30 1.19 99.90
3453 2019-02-11 05:29:11 ESP12E-S1 2.30 1.19 99.90
3452 2019-02-11 05:00:56 ESP12E-S1 2.40 1.30 99.90
3451 2019-02-11 04:32:42 ESP12E-S1 2.40 1.30 99.90
3450 2019-02-11 04:04:27 ESP12E-S1 2.60 1.52 99.90
3449 2019-02-11 03:36:13 ESP12E-S1 2.80 1.74 99.90
3448 2019-02-11 03:07:59 ESP12E-S1 2.90 1.85 99.90
3447 2019-02-11 02:39:45 ESP12E-S1 3.00 1.96 99.90
3446 2019-02-11 02:11:32 ESP12E-S1 3.20 2.18 99.90
3445 2019-02-11 01:45:40 ESP12E-S1 3.70 2.73 99.90
3444 2019-02-10 23:37:30 ESP12E-S1 4.40 3.39 95.50
3443 2019-02-10 23:09:37 ESP12E-S1 4.60 3.60 95.30
3442 2019-02-10 22:41:59 ESP12E-S1 4.60 3.66 97.60
3441 2019-02-10 22:13:34 ESP12E-S1 4.60 3.72 99.90
3440 2019-02-10 21:45:24 ESP12E-S1 4.60 3.72 99.90
3439 2019-02-10 21:16:56 ESP12E-S1 4.80 3.94 99.90
3438 2019-02-10 20:48:27 ESP12E-S1 4.90 4.05 99.90
3437 2019-02-10 20:20:35 ESP12E-S1 5.10 4.27 99.90
3436 2019-02-10 19:47:44 ESP12E-S1 5.10 4.27 99.90
3435 2019-02-10 19:18:55 ESP12E-S1 5.10 4.27 99.90
3434 2019-02-10 18:50:42 ESP12E-S1 5.30 4.49 99.90
3433 2019-02-10 18:22:29 ESP12E-S1 5.60 4.82 99.90
3432 2019-02-10 17:54:19 ESP12E-S1 5.80 5.04 99.90
3431 2019-02-10 17:26:08 ESP12E-S1 6.10 5.37 99.90
3430 2019-02-10 16:57:55 ESP12E-S1 6.50 5.81 99.90
3429 2019-02-10 16:29:43 ESP12E-S1 6.80 6.14 99.90
3428 2019-02-10 16:01:29 ESP12E-S1 6.90 6.25 99.90
3427 2019-02-10 15:33:16 ESP12E-S1 7.10 6.47 99.90
3426 2019-02-10 15:05:11 ESP12E-S1 7.40 6.80 99.90
3425 2019-02-10 14:36:55 ESP12E-S1 7.60 7.02 99.90
3424 2019-02-10 14:08:40 ESP12E-S1 7.50 6.91 99.90
3423 2019-02-10 13:40:25 ESP12E-S1 7.60 7.02 99.90
3422 2019-02-10 13:12:08 ESP12E-S1 7.40 6.80 99.90
3421 2019-02-10 12:43:51 ESP12E-S1 7.00 6.36 99.90
3420 2019-02-10 12:15:33 ESP12E-S1 6.50 5.81 99.90
3419 2019-02-10 11:47:17 ESP12E-S1 6.30 5.59 99.90
3418 2019-02-10 11:19:00 ESP12E-S1 6.20 5.48 99.90
3417 2019-02-10 10:50:44 ESP12E-S1 6.00 5.26 99.90
3416 2019-02-10 10:22:28 ESP12E-S1 5.90 5.15 99.90
3415 2019-02-10 09:54:12 ESP12E-S1 5.80 5.04 99.90
3414 2019-02-10 09:25:55 ESP12E-S1 5.60 4.82 99.90
3413 2019-02-10 08:57:39 ESP12E-S1 5.30 4.49 99.90
3412 2019-02-10 08:29:22 ESP12E-S1 5.10 4.27 99.90
3411 2019-02-10 08:01:07 ESP12E-S1 5.00 4.16 99.90
3410 2019-02-10 07:32:51 ESP12E-S1 4.80 3.94 99.90
3409 2019-02-10 07:04:36 ESP12E-S1 4.70 3.83 99.90
3408 2019-02-10 06:36:19 ESP12E-S1 4.70 3.83 99.90
3407 2019-02-10 06:08:03 ESP12E-S1 4.70 3.83 99.90
3406 2019-02-10 05:39:48 ESP12E-S1 4.70 3.83 99.90
3405 2019-02-10 05:11:32 ESP12E-S1 4.70 3.83 99.90
3404 2019-02-10 04:43:22 ESP12E-S1 4.80 3.94 99.90
3403 2019-02-10 04:15:06 ESP12E-S1 4.80 3.93 99.30
3402 2019-02-10 03:46:51 ESP12E-S1 4.80 3.94 99.90
3401 2019-02-10 03:18:37 ESP12E-S1 4.80 3.94 99.90
3400 2019-02-10 02:50:23 ESP12E-S1 4.90 4.05 99.90
3399 2019-02-10 02:22:08 ESP12E-S1 4.90 4.05 99.90
3398 2019-02-10 01:53:53 ESP12E-S1 4.90 4.05 99.90
3397 2019-02-10 01:25:38 ESP12E-S1 5.00 4.16 99.90
3396 2019-02-10 00:57:22 ESP12E-S1 5.00 4.16 99.90
3395 2019-02-10 00:29:07 ESP12E-S1 5.00 4.16 99.90
3394 2019-02-10 00:00:53 ESP12E-S1 5.10 4.27 99.90
3393 2019-02-09 23:32:38 ESP12E-S1 5.20 4.37 99.30
3392 2019-02-09 23:04:25 ESP12E-S1 5.30 4.46 98.60
3391 2019-02-09 22:36:09 ESP12E-S1 5.40 4.56 98.10
3390 2019-02-09 22:07:54 ESP12E-S1 5.50 4.66 97.70
3389 2019-02-09 21:39:41 ESP12E-S1 5.70 4.88 98.00
3388 2019-02-09 21:11:26 ESP12E-S1 5.90 5.10 97.80
3387 2019-02-09 20:43:12 ESP12E-S1 6.00 5.20 97.30
3386 2019-02-09 20:14:58 ESP12E-S1 6.10 5.28 96.20
3385 2019-02-09 19:46:43 ESP12E-S1 6.30 5.48 95.50
3384 2019-02-09 19:18:33 ESP12E-S1 6.50 5.66 94.00
3383 2019-02-09 18:50:19 ESP12E-S1 6.80 5.98 93.80
3382 2019-02-09 18:22:04 ESP12E-S1 6.80 6.01 94.70
3381 2019-02-09 17:53:50 ESP12E-S1 6.90 6.14 95.60
3380 2019-02-09 17:25:35 ESP12E-S1 7.10 6.30 93.20
3379 2019-02-09 16:57:23 ESP12E-S1 7.50 6.68 90.80
3378 2019-02-09 16:29:08 ESP12E-S1 7.80 7.02 91.30
3377 2019-02-09 16:01:02 ESP12E-S1 8.20 7.23 82.70
3376 2019-02-09 15:32:50 ESP12E-S1 8.30 7.36 83.10
3375 2019-02-09 15:04:36 ESP12E-S1 8.60 7.73 84.90
3374 2019-02-09 14:36:19 ESP12E-S1 8.20 7.37 87.90
3373 2019-02-09 14:08:02 ESP12E-S1 8.20 7.39 88.80
3372 2019-02-09 13:39:44 ESP12E-S1 7.80 6.97 89.30
3371 2019-02-09 13:11:30 ESP12E-S1 7.70 6.83 88.10
3370 2019-02-09 12:43:22 ESP12E-S1 7.40 6.62 92.90
3369 2019-02-09 12:15:03 ESP12E-S1 7.20 6.42 93.50
3368 2019-02-09 11:46:49 ESP12E-S1 7.20 6.47 95.50
3367 2019-02-09 11:18:29 ESP12E-S1 6.60 5.92 99.90
3366 2019-02-09 10:50:13 ESP12E-S1 6.00 5.26 99.90
3365 2019-02-09 10:21:58 ESP12E-S1 5.70 4.93 99.90
3364 2019-02-09 09:53:40 ESP12E-S1 5.40 4.60 99.90
3363 2019-02-09 09:25:23 ESP12E-S1 5.00 4.16 99.90
3362 2019-02-09 08:57:07 ESP12E-S1 4.90 4.05 99.90
3361 2019-02-09 08:28:51 ESP12E-S1 4.80 3.94 99.90
3360 2019-02-09 08:00:37 ESP12E-S1 4.80 3.94 99.90
3359 2019-02-09 07:32:23 ESP12E-S1 4.90 4.05 99.90
3358 2019-02-09 07:04:09 ESP12E-S1 4.90 4.05 99.90
3357 2019-02-09 06:35:54 ESP12E-S1 4.90 4.05 99.90
3356 2019-02-09 06:07:38 ESP12E-S1 4.80 3.94 99.90
3355 2019-02-09 05:39:33 ESP12E-S1 4.80 3.94 99.90
3354 2019-02-09 05:11:14 ESP12E-S1 4.70 3.83 99.90
3353 2019-02-09 04:42:57 ESP12E-S1 4.50 3.61 99.90
3352 2019-02-09 04:14:42 ESP12E-S1 4.40 3.50 99.90
3351 2019-02-09 03:46:28 ESP12E-S1 4.40 3.50 99.90
3350 2019-02-09 03:18:22 ESP12E-S1 4.50 3.61 99.90
3349 2019-02-09 02:50:14 ESP12E-S1 4.60 3.72 99.90
3348 2019-02-09 02:21:57 ESP12E-S1 4.70 3.81 99.00
3347 2019-02-09 01:53:52 ESP12E-S1 4.90 3.99 97.30
3346 2019-02-09 01:25:35 ESP12E-S1 5.00 4.07 96.20
3345 2019-02-09 00:57:20 ESP12E-S1 5.10 4.18 96.40
3344 2019-02-09 00:29:05 ESP12E-S1 5.20 4.29 96.40
3343 2019-02-09 00:00:49 ESP12E-S1 5.30 4.42 97.10
3342 2019-02-08 23:32:36 ESP12E-S1 5.40 4.53 97.20
3341 2019-02-08 23:04:21 ESP12E-S1 5.40 4.54 97.60
3340 2019-02-08 22:36:05 ESP12E-S1 5.50 4.67 98.10
3339 2019-02-08 22:07:50 ESP12E-S1 5.60 4.78 98.40
3338 2019-02-08 21:39:36 ESP12E-S1 5.60 4.78 98.10
3337 2019-02-08 21:11:20 ESP12E-S1 5.60 4.78 98.10
3336 2019-02-08 20:43:06 ESP12E-S1 5.70 4.89 98.40
3335 2019-02-08 20:14:51 ESP12E-S1 5.60 4.81 99.20
3334 2019-02-08 19:46:37 ESP12E-S1 5.70 4.92 99.20
3333 2019-02-08 19:18:22 ESP12E-S1 5.80 5.02 98.80
3332 2019-02-08 18:50:07 ESP12E-S1 5.80 5.02 99.10
3331 2019-02-08 18:21:51 ESP12E-S1 5.80 5.04 99.90
3330 2019-02-08 17:53:37 ESP12E-S1 5.90 5.15 99.90
3329 2019-02-08 17:25:22 ESP12E-S1 6.00 5.26 99.90
3328 2019-02-08 16:57:08 ESP12E-S1 5.90 5.15 99.90
3327 2019-02-08 16:28:59 ESP12E-S1 5.80 5.04 99.90
3326 2019-02-08 16:00:43 ESP12E-S1 5.70 4.93 99.90
3325 2019-02-08 15:32:28 ESP12E-S1 5.60 4.82 99.90
3324 2019-02-08 15:04:16 ESP12E-S1 5.60 4.82 99.90
3323 2019-02-08 14:35:58 ESP12E-S1 5.40 4.60 99.90
3322 2019-02-08 14:07:40 ESP12E-S1 4.90 4.05 99.90
3321 2019-02-08 13:39:23 ESP12E-S1 4.70 3.83 99.90
3320 2019-02-08 13:11:07 ESP12E-S1 4.50 3.61 99.90
3319 2019-02-08 12:42:50 ESP12E-S1 4.30 3.39 99.90
3318 2019-02-08 12:14:33 ESP12E-S1 4.10 3.17 99.90
3317 2019-02-08 11:46:16 ESP12E-S1 3.80 2.84 99.90
3316 2019-02-08 11:18:01 ESP12E-S1 3.70 2.73 99.90
3315 2019-02-08 10:49:46 ESP12E-S1 3.60 2.62 99.90
3314 2019-02-08 10:21:32 ESP12E-S1 3.50 2.51 99.90
3313 2019-02-08 09:53:34 ESP12E-S1 3.40 2.40 99.90
3312 2019-02-08 09:25:11 ESP12E-S1 3.30 2.29 99.90
3311 2019-02-08 08:56:56 ESP12E-S1 3.10 2.07 99.90
3310 2019-02-08 08:28:40 ESP12E-S1 3.00 1.96 99.90
3309 2019-02-08 08:00:26 ESP12E-S1 2.90 1.85 99.90
3308 2019-02-08 07:32:10 ESP12E-S1 2.80 1.74 99.90
3307 2019-02-08 07:03:55 ESP12E-S1 2.80 1.74 99.90
3306 2019-02-08 06:35:40 ESP12E-S1 2.70 1.63 99.90
3305 2019-02-08 06:07:24 ESP12E-S1 2.70 1.63 99.90
3304 2019-02-08 05:39:08 ESP12E-S1 2.70 1.63 99.90
3303 2019-02-08 05:11:01 ESP12E-S1 2.70 1.63 99.90
3302 2019-02-08 04:42:42 ESP12E-S1 2.70 1.63 99.90
3301 2019-02-08 04:14:27 ESP12E-S1 2.70 1.63 99.90
3300 2019-02-08 03:46:13 ESP12E-S1 2.70 1.63 99.90
3299 2019-02-08 03:17:58 ESP12E-S1 2.60 1.52 99.90
3298 2019-02-08 02:49:43 ESP12E-S1 2.60 1.52 99.90
3297 2019-02-08 02:21:28 ESP12E-S1 2.60 1.52 99.90
3296 2019-02-08 01:53:11 ESP12E-S1 2.50 1.41 99.90
3295 2019-02-08 01:24:55 ESP12E-S1 2.50 1.41 99.90
3294 2019-02-08 00:56:39 ESP12E-S1 2.50 1.41 99.90
3293 2019-02-08 00:28:24 ESP12E-S1 2.50 1.41 99.90
3292 2019-02-08 00:00:08 ESP12E-S1 2.50 1.41 99.90
3291 2019-02-07 23:31:56 ESP12E-S1 2.60 1.52 99.90
3290 2019-02-07 23:03:42 ESP12E-S1 2.70 1.63 99.90
3289 2019-02-07 22:35:26 ESP12E-S1 2.60 1.52 99.90
3288 2019-02-07 22:07:11 ESP12E-S1 2.50 1.41 99.90
3287 2019-02-07 21:38:55 ESP12E-S1 2.50 1.41 99.90
3286 2019-02-07 21:10:40 ESP12E-S1 2.50 1.41 99.90
3285 2019-02-07 20:42:24 ESP12E-S1 2.40 1.30 99.90
3284 2019-02-07 20:14:10 ESP12E-S1 2.50 1.41 99.90
3283 2019-02-07 19:45:57 ESP12E-S1 2.50 1.41 99.90
3282 2019-02-07 19:17:43 ESP12E-S1 2.70 1.63 99.90
3281 2019-02-07 18:49:30 ESP12E-S1 2.90 1.85 99.90
3280 2019-02-07 18:21:15 ESP12E-S1 3.10 2.07 99.90
3279 2019-02-07 17:53:00 ESP12E-S1 3.00 1.96 99.90
3278 2019-02-07 17:24:44 ESP12E-S1 2.90 1.85 99.90
3277 2019-02-07 16:56:28 ESP12E-S1 2.70 1.63 99.90
3276 2019-02-07 16:28:11 ESP12E-S1 2.60 1.52 99.90
3275 2019-02-07 15:59:55 ESP12E-S1 2.50 1.41 99.90
3274 2019-02-07 15:31:40 ESP12E-S1 2.40 1.30 99.90
3273 2019-02-07 15:03:23 ESP12E-S1 2.00 0.86 99.90
3272 2019-02-07 14:35:06 ESP12E-S1 1.70 0.53 99.90
3271 2019-02-07 14:06:56 ESP12E-S1 1.50 0.31 99.90
3270 2019-02-07 13:38:39 ESP12E-S1 1.30 0.09 99.90
3269 2019-02-07 13:10:30 ESP12E-S1 1.10 -0.13 99.90
3268 2019-02-07 11:17:35 ESP12E-S1 1.90 0.75 99.90
3267 2019-02-07 10:49:21 ESP12E-S1 0.80 -0.48 98.90
3266 2019-02-07 10:21:06 ESP12E-S1 0.70 -0.63 97.50
3265 2019-02-07 09:52:50 ESP12E-S1 0.60 -0.76 96.80
3264 2019-02-07 09:24:36 ESP12E-S1 0.60 -0.80 95.20
3263 2019-02-07 08:56:29 ESP12E-S1 0.60 -0.81 94.70
3262 2019-02-07 08:28:11 ESP12E-S1 0.60 -0.81 94.80
3261 2019-02-07 07:59:55 ESP12E-S1 0.50 -0.95 93.60
3260 2019-02-07 07:31:43 ESP12E-S1 0.60 -0.86 93.00
3259 2019-02-07 07:03:28 ESP12E-S1 0.70 -0.75 92.80
3258 2019-02-07 06:35:13 ESP12E-S1 0.70 -0.77 92.00
3257 2019-02-07 06:06:59 ESP12E-S1 0.90 -0.56 91.70
3256 2019-02-07 05:38:44 ESP12E-S1 1.00 -0.44 92.10
3255 2019-02-07 05:10:31 ESP12E-S1 1.00 -0.46 91.50
3254 2019-02-07 04:42:16 ESP12E-S1 1.10 -0.35 91.30
3253 2019-02-07 04:14:01 ESP12E-S1 1.10 -0.35 91.30
3252 2019-02-07 03:45:46 ESP12E-S1 1.10 -0.35 91.30
3251 2019-02-07 03:17:30 ESP12E-S1 1.00 -0.46 91.50
3250 2019-02-07 02:49:14 ESP12E-S1 0.90 -0.54 92.40
3249 2019-02-07 02:20:59 ESP12E-S1 0.80 -0.64 92.80
3248 2019-02-07 01:52:43 ESP12E-S1 0.70 -0.75 92.90
3247 2019-02-07 01:24:28 ESP12E-S1 0.60 -0.87 92.50
3246 2019-02-07 00:56:13 ESP12E-S1 0.60 -0.87 92.60
3245 2019-02-07 00:28:00 ESP12E-S1 0.50 -0.99 92.00
3244 2019-02-06 23:59:45 ESP12E-S1 0.60 -0.90 91.50
3243 2019-02-06 23:31:31 ESP12E-S1 0.80 -0.69 91.10
3242 2019-02-06 23:03:16 ESP12E-S1 0.80 -0.70 90.60
3241 2019-02-06 22:35:02 ESP12E-S1 1.00 -0.50 89.80
3240 2019-02-06 22:06:49 ESP12E-S1 1.20 -0.32 88.20
3239 2019-02-06 21:38:35 ESP12E-S1 1.40 -0.14 86.70
3238 2019-02-06 21:10:22 ESP12E-S1 1.60 0.04 85.20
3237 2019-02-06 20:42:10 ESP12E-S1 1.90 0.32 83.40
3236 2019-02-06 20:13:57 ESP12E-S1 2.10 0.51 82.00
3235 2019-02-06 19:45:43 ESP12E-S1 2.30 0.71 81.20
3234 2019-02-06 18:49:28 ESP12E-S1 2.90 1.39 82.00
3233 2019-02-06 18:21:16 ESP12E-S1 3.20 1.74 82.90
3232 2019-02-06 17:53:05 ESP12E-S1 4.00 2.60 82.30
3231 2019-02-06 17:24:55 ESP12E-S1 5.00 3.64 80.00
3230 2019-02-06 16:56:45 ESP12E-S1 5.80 4.39 75.00
3229 2019-02-06 16:28:37 ESP12E-S1 6.80 5.38 70.60
3228 2019-02-06 16:00:22 ESP12E-S1 7.50 6.15 70.60
3227 2019-02-06 15:32:04 ESP12E-S1 7.30 5.94 71.20
3226 2019-02-06 15:03:48 ESP12E-S1 6.70 5.31 72.20
3225 2019-02-06 14:35:31 ESP12E-S1 6.70 5.28 71.00
3224 2019-02-06 14:07:11 ESP12E-S1 5.80 4.40 75.10
3223 2019-02-06 13:38:56 ESP12E-S1 5.60 4.15 73.90
3222 2019-02-06 13:10:38 ESP12E-S1 5.60 4.20 76.10
3221 2019-02-06 12:42:20 ESP12E-S1 4.90 3.51 78.90
3220 2019-02-06 12:14:01 ESP12E-S1 4.20 2.83 82.70
3219 2019-02-06 11:45:44 ESP12E-S1 3.70 2.30 83.30
3218 2019-02-06 11:17:30 ESP12E-S1 2.90 1.54 87.70
3217 2019-02-06 10:49:13 ESP12E-S1 1.90 0.55 92.00
3216 2019-02-06 10:20:51 ESP12E-S1 0.80 -0.63 93.20
3215 2019-02-06 09:52:32 ESP12E-S1 0.50 -0.94 94.00
3214 2019-02-06 09:24:15 ESP12E-S1 0.20 -1.26 94.40
3213 2019-02-06 08:56:00 ESP12E-S1 -0.10 -1.60 93.90
3212 2019-02-06 08:27:45 ESP12E-S1 -0.30 -1.82 94.10
3211 2019-02-06 07:59:31 ESP12E-S1 -0.30 -1.82 93.90
3210 2019-02-06 07:31:16 ESP12E-S1 -0.40 -1.94 93.80
3209 2019-02-06 07:03:01 ESP12E-S1 -0.30 -1.83 93.50
3208 2019-02-06 06:34:47 ESP12E-S1 -0.30 -1.84 93.30
3207 2019-02-06 06:06:34 ESP12E-S1 -0.20 -1.73 93.20
3206 2019-02-06 05:38:20 ESP12E-S1 -0.10 -1.62 93.20
3205 2019-02-06 05:10:06 ESP12E-S1 0.00 -1.50 93.50
3204 2019-02-06 04:41:53 ESP12E-S1 0.10 -1.39 93.60
3203 2019-02-06 04:13:39 ESP12E-S1 0.20 -1.27 94.00
3202 2019-02-06 03:45:25 ESP12E-S1 0.40 -1.04 94.20
3201 2019-02-06 03:17:12 ESP12E-S1 0.50 -0.93 94.20
3200 2019-02-06 02:48:58 ESP12E-S1 0.70 -0.71 94.30
3199 2019-02-06 02:20:45 ESP12E-S1 0.80 -0.60 94.50
3198 2019-02-06 01:52:31 ESP12E-S1 1.00 -0.38 94.30
3197 2019-02-06 01:24:19 ESP12E-S1 1.30 -0.05 94.30
3196 2019-02-06 00:56:13 ESP12E-S1 1.50 0.17 94.20
3195 2019-02-06 00:27:56 ESP12E-S1 1.80 0.50 94.30
3194 2019-02-05 23:59:45 ESP12E-S1 2.30 1.05 94.20
3193 2019-02-05 23:31:32 ESP12E-S1 2.70 1.50 94.80
3192 2019-02-05 23:03:26 ESP12E-S1 2.80 1.61 94.60
3191 2019-02-05 22:35:15 ESP12E-S1 2.80 1.60 94.40
3190 2019-02-05 22:07:02 ESP12E-S1 2.80 1.60 94.30
3189 2019-02-05 21:38:58 ESP12E-S1 2.80 1.58 93.80
3188 2019-02-05 21:10:39 ESP12E-S1 2.80 1.56 92.80
3187 2019-02-05 20:42:26 ESP12E-S1 3.00 1.76 91.90
3186 2019-02-05 20:14:21 ESP12E-S1 3.10 1.87 91.90
3185 2019-02-05 19:46:09 ESP12E-S1 3.20 1.94 90.70
3184 2019-02-05 19:18:02 ESP12E-S1 3.20 1.95 91.10
3183 2019-02-05 18:49:45 ESP12E-S1 3.30 2.05 90.40
3182 2019-02-05 18:21:31 ESP12E-S1 3.40 2.12 89.20
3181 2019-02-05 17:53:18 ESP12E-S1 3.50 2.20 87.90
3180 2019-02-05 17:25:03 ESP12E-S1 3.60 2.28 86.70
3179 2019-02-05 16:56:50 ESP12E-S1 3.80 2.47 85.70
3178 2019-02-05 16:28:37 ESP12E-S1 4.00 2.70 86.10
3177 2019-02-05 16:00:25 ESP12E-S1 4.20 2.95 87.20
3176 2019-02-05 15:32:09 ESP12E-S1 4.20 2.98 88.20
3175 2019-02-05 15:03:57 ESP12E-S1 4.30 2.96 83.40
3174 2019-02-05 14:35:44 ESP12E-S1 4.70 3.33 80.70
3173 2019-02-05 14:07:29 ESP12E-S1 4.90 3.60 82.50
3172 2019-02-05 13:39:15 ESP12E-S1 5.00 3.68 81.40
3171 2019-02-05 13:11:02 ESP12E-S1 5.10 3.74 79.50
3170 2019-02-05 12:42:44 ESP12E-S1 4.70 3.38 82.60
3169 2019-02-05 12:14:26 ESP12E-S1 4.00 2.60 82.10
3168 2019-02-05 11:46:10 ESP12E-S1 3.20 1.78 84.30
3167 2019-02-05 11:17:57 ESP12E-S1 2.80 1.38 86.00
3166 2019-02-05 10:49:39 ESP12E-S1 2.40 0.95 86.20
3165 2019-02-05 10:21:26 ESP12E-S1 2.00 0.59 89.40
3164 2019-02-05 09:53:07 ESP12E-S1 1.70 0.29 90.60
3163 2019-02-05 09:24:52 ESP12E-S1 1.40 -0.02 91.50
3162 2019-02-05 08:56:37 ESP12E-S1 1.20 -0.19 93.10
3161 2019-02-05 08:28:23 ESP12E-S1 1.00 -0.38 94.30
3160 2019-02-05 08:00:18 ESP12E-S1 0.90 -0.50 93.90
3159 2019-02-05 07:32:02 ESP12E-S1 1.00 -0.41 93.30
3158 2019-02-05 07:03:48 ESP12E-S1 1.10 -0.31 92.70
3157 2019-02-05 06:35:33 ESP12E-S1 1.10 -0.31 92.80
3156 2019-02-05 06:07:19 ESP12E-S1 1.10 -0.32 92.30
3155 2019-02-05 05:39:04 ESP12E-S1 1.00 -0.41 93.30
3154 2019-02-05 05:10:50 ESP12E-S1 1.00 -0.43 92.30
3153 2019-02-05 04:42:35 ESP12E-S1 1.00 -0.44 92.00
3152 2019-02-05 04:14:20 ESP12E-S1 1.00 -0.43 92.30
3151 2019-02-05 03:46:05 ESP12E-S1 1.00 -0.44 91.90
3150 2019-02-05 03:17:52 ESP12E-S1 1.00 -0.45 91.60
3149 2019-02-05 02:49:38 ESP12E-S1 1.10 -0.35 91.30
3148 2019-02-05 02:21:25 ESP12E-S1 1.10 -0.36 90.80
3147 2019-02-05 01:53:11 ESP12E-S1 1.20 -0.22 91.90
3146 2019-02-05 01:25:00 ESP12E-S1 1.20 -0.25 91.10
3145 2019-02-05 00:56:46 ESP12E-S1 1.40 -0.10 88.30
3144 2019-02-05 00:28:31 ESP12E-S1 1.40 -0.09 88.80
3143 2019-02-05 00:00:18 ESP12E-S1 1.50 0.01 88.20
3142 2019-02-04 23:32:02 ESP12E-S1 1.40 -0.14 86.90
3141 2019-02-04 23:03:48 ESP12E-S1 1.30 -0.21 88.40
3140 2019-02-04 22:35:33 ESP12E-S1 1.10 -0.41 89.00
3139 2019-02-04 22:07:19 ESP12E-S1 1.00 -0.44 92.10
3138 2019-02-04 21:39:04 ESP12E-S1 0.90 -0.55 92.00
3137 2019-02-04 21:10:50 ESP12E-S1 0.90 -0.55 92.10
3136 2019-02-04 20:42:38 ESP12E-S1 1.10 -0.35 91.20
3135 2019-02-04 20:14:26 ESP12E-S1 1.30 -0.17 89.90
3134 2019-02-04 19:46:13 ESP12E-S1 1.50 0.03 89.10
3133 2019-02-04 19:18:13 ESP12E-S1 1.90 0.46 88.60
3132 2019-02-04 18:49:57 ESP12E-S1 2.20 0.71 85.50
3131 2019-02-04 18:21:44 ESP12E-S1 2.40 0.95 86.40
3130 2019-02-04 17:53:39 ESP12E-S1 2.70 1.14 81.00
3129 2019-02-04 17:25:25 ESP12E-S1 3.00 1.40 78.20
3128 2019-02-04 16:57:11 ESP12E-S1 3.30 1.76 79.50
3127 2019-02-04 16:29:11 ESP12E-S1 3.60 2.06 78.20
3126 2019-02-04 16:01:04 ESP12E-S1 4.10 2.52 75.00
3125 2019-02-04 15:32:48 ESP12E-S1 4.50 3.00 76.20
3124 2019-02-04 15:04:37 ESP12E-S1 5.10 3.61 74.30
3123 2019-02-04 14:36:22 ESP12E-S1 5.30 4.01 81.20
3122 2019-02-04 14:08:04 ESP12E-S1 4.60 3.33 85.00
3121 2019-02-04 13:39:49 ESP12E-S1 4.40 3.22 89.20
3120 2019-02-04 13:11:31 ESP12E-S1 4.00 2.80 89.60
3119 2019-02-04 12:43:16 ESP12E-S1 3.80 2.57 89.50
3118 2019-02-04 12:15:00 ESP12E-S1 3.70 2.49 90.50
3117 2019-02-04 11:46:45 ESP12E-S1 3.40 2.18 91.30
3116 2019-02-04 11:18:26 ESP12E-S1 2.60 1.37 93.90
3115 2019-02-04 10:50:16 ESP12E-S1 2.00 0.75 95.40
3114 2019-02-04 10:21:55 ESP12E-S1 0.90 -0.37 98.90
3113 2019-02-04 09:53:33 ESP12E-S1 0.00 -1.34 99.90
3112 2019-02-04 09:25:12 ESP12E-S1 -0.90 -2.33 99.90
3111 2019-02-04 08:56:55 ESP12E-S1 -1.70 -3.22 99.20
3110 2019-02-04 08:28:40 ESP12E-S1 -1.80 -3.36 98.40
3109 2019-02-04 08:00:28 ESP12E-S1 -1.60 -3.14 98.30
3108 2019-02-04 07:32:14 ESP12E-S1 -1.60 -3.14 98.30
3107 2019-02-04 07:04:02 ESP12E-S1 -1.40 -2.92 98.40
3106 2019-02-04 06:35:49 ESP12E-S1 -1.30 -2.79 99.00
3105 2019-02-04 06:07:36 ESP12E-S1 -1.20 -2.68 98.80
3104 2019-02-04 05:39:25 ESP12E-S1 -1.00 -2.46 98.80
3103 2019-02-04 05:11:12 ESP12E-S1 -0.80 -2.24 98.80
3102 2019-02-04 04:43:00 ESP12E-S1 -0.60 -2.01 99.30
3101 2019-02-04 04:14:47 ESP12E-S1 -0.50 -1.92 98.60
3100 2019-02-04 03:46:42 ESP12E-S1 -0.30 -1.69 98.90
3099 2019-02-04 03:18:26 ESP12E-S1 -0.10 -1.46 99.50
3098 2019-02-04 02:50:12 ESP12E-S1 -0.10 -1.46 99.40
3097 2019-02-04 02:21:57 ESP12E-S1 -0.10 -1.45 99.60
3096 2019-02-04 01:53:44 ESP12E-S1 0.00 -1.35 99.40
3095 2019-02-04 01:25:30 ESP12E-S1 0.00 -1.34 99.60
3094 2019-02-04 00:57:15 ESP12E-S1 0.00 -1.34 99.90
3093 2019-02-04 00:29:00 ESP12E-S1 -0.20 -1.56 99.80
3092 2019-02-04 00:00:47 ESP12E-S1 -0.10 -1.47 99.10
3091 2019-02-03 23:32:35 ESP12E-S1 0.10 -1.25 98.90
3090 2019-02-03 23:04:21 ESP12E-S1 0.20 -1.15 98.70
3089 2019-02-03 22:36:23 ESP12E-S1 0.50 -0.83 98.30
3088 2019-02-03 22:08:10 ESP12E-S1 1.00 -0.28 98.20
3087 2019-02-03 21:39:57 ESP12E-S1 1.20 -0.07 97.70
3086 2019-02-03 21:11:44 ESP12E-S1 1.40 0.15 98.00
3085 2019-02-03 20:43:31 ESP12E-S1 1.50 0.24 97.10
3084 2019-02-03 20:15:16 ESP12E-S1 1.50 0.21 96.10
3083 2019-02-03 19:47:01 ESP12E-S1 1.50 0.20 95.60
3082 2019-02-03 19:18:48 ESP12E-S1 1.70 0.36 93.40
3081 2019-02-03 18:50:34 ESP12E-S1 1.80 0.45 92.60
3080 2019-02-03 18:22:20 ESP12E-S1 1.90 0.54 91.80
3079 2019-02-03 17:54:07 ESP12E-S1 2.10 0.73 90.40
3078 2019-02-03 17:25:53 ESP12E-S1 2.20 0.84 90.40
3077 2019-02-03 16:57:40 ESP12E-S1 2.40 1.09 91.60
3076 2019-02-03 16:29:28 ESP12E-S1 2.60 1.32 91.90
3075 2019-02-03 16:01:14 ESP12E-S1 2.80 1.55 92.30
3074 2019-02-03 15:33:00 ESP12E-S1 2.70 1.45 93.00
3073 2019-02-03 15:04:45 ESP12E-S1 2.80 1.55 92.30
3072 2019-02-03 14:36:30 ESP12E-S1 2.60 1.39 94.60
3071 2019-02-03 14:08:16 ESP12E-S1 2.50 1.30 95.70
3070 2019-02-03 13:40:02 ESP12E-S1 2.30 1.11 96.70
3069 2019-02-03 13:11:47 ESP12E-S1 2.30 1.15 98.30
3068 2019-02-03 12:43:38 ESP12E-S1 2.00 0.82 98.10
3067 2019-02-03 12:15:20 ESP12E-S1 1.90 0.72 98.50
3066 2019-02-03 11:47:07 ESP12E-S1 1.80 0.61 98.50
3065 2019-02-03 11:18:53 ESP12E-S1 1.90 0.69 97.30
3064 2019-02-03 10:50:38 ESP12E-S1 1.60 0.36 97.40
3063 2019-02-03 10:22:23 ESP12E-S1 1.50 0.26 97.90
3062 2019-02-03 09:54:08 ESP12E-S1 1.30 0.02 97.20
3061 2019-02-03 09:25:54 ESP12E-S1 1.20 -0.09 97.00
3060 2019-02-03 08:57:38 ESP12E-S1 1.00 -0.31 97.10
3059 2019-02-03 08:29:24 ESP12E-S1 1.10 -0.21 96.80
3058 2019-02-03 08:01:10 ESP12E-S1 1.20 -0.10 96.70
3057 2019-02-03 07:32:57 ESP12E-S1 1.20 -0.09 97.20
3056 2019-02-03 07:04:42 ESP12E-S1 1.20 -0.06 98.40
3055 2019-02-03 06:36:29 ESP12E-S1 1.40 0.20 99.60
3054 2019-02-03 06:08:15 ESP12E-S1 1.40 0.20 99.90
3053 2019-02-03 05:40:01 ESP12E-S1 1.50 0.31 99.90
3052 2019-02-03 05:11:46 ESP12E-S1 1.60 0.42 99.90
3051 2019-02-03 04:43:42 ESP12E-S1 1.70 0.53 99.90
3050 2019-02-03 04:15:26 ESP12E-S1 1.70 0.53 99.90
3049 2019-02-03 03:47:13 ESP12E-S1 1.90 0.75 99.90
3048 2019-02-03 03:18:59 ESP12E-S1 1.90 0.75 99.90
3047 2019-02-03 02:50:46 ESP12E-S1 1.90 0.75 99.90
3046 2019-02-03 02:22:31 ESP12E-S1 1.90 0.75 99.90
3045 2019-02-03 01:54:17 ESP12E-S1 1.90 0.75 99.90
3044 2019-02-03 01:26:03 ESP12E-S1 1.90 0.75 99.90
3043 2019-02-03 00:57:48 ESP12E-S1 1.90 0.75 99.90
3042 2019-02-03 00:29:33 ESP12E-S1 1.90 0.75 99.90
3041 2019-02-03 00:01:19 ESP12E-S1 2.00 0.86 99.90
3040 2019-02-02 23:33:05 ESP12E-S1 2.20 1.08 99.90
3039 2019-02-02 23:04:50 ESP12E-S1 2.20 1.08 99.90
3038 2019-02-02 22:36:35 ESP12E-S1 2.30 1.19 99.90
3037 2019-02-02 22:08:22 ESP12E-S1 2.30 1.19 99.90
3036 2019-02-02 21:40:07 ESP12E-S1 2.40 1.30 99.90
3035 2019-02-02 21:11:52 ESP12E-S1 2.40 1.30 99.90
3034 2019-02-02 20:43:37 ESP12E-S1 2.40 1.30 99.90
3033 2019-02-02 20:15:24 ESP12E-S1 2.40 1.30 99.90
3032 2019-02-02 19:47:09 ESP12E-S1 2.40 1.30 99.90
3031 2019-02-02 19:18:54 ESP12E-S1 2.50 1.41 99.90
3030 2019-02-02 18:50:39 ESP12E-S1 2.40 1.30 99.90
3029 2019-02-02 18:22:24 ESP12E-S1 2.50 1.41 99.90
3028 2019-02-02 17:54:19 ESP12E-S1 2.60 1.52 99.90
3027 2019-02-02 17:26:02 ESP12E-S1 2.60 1.52 99.90
3026 2019-02-02 16:57:48 ESP12E-S1 2.70 1.63 99.90
3025 2019-02-02 16:29:44 ESP12E-S1 2.80 1.74 99.90
3024 2019-02-02 16:01:29 ESP12E-S1 2.90 1.85 99.90
3023 2019-02-02 15:33:15 ESP12E-S1 2.90 1.85 99.90
3022 2019-02-02 15:05:00 ESP12E-S1 2.90 1.85 99.90
3021 2019-02-02 14:36:46 ESP12E-S1 2.90 1.85 99.90
3020 2019-02-02 14:08:30 ESP12E-S1 2.60 1.52 99.90
3019 2019-02-02 13:40:17 ESP12E-S1 2.50 1.41 99.90
3018 2019-02-02 13:12:10 ESP12E-S1 2.40 1.30 99.90
3017 2019-02-02 12:43:55 ESP12E-S1 2.30 1.19 99.90
3016 2019-02-02 12:15:40 ESP12E-S1 2.20 1.08 99.90
3015 2019-02-02 11:47:27 ESP12E-S1 2.20 1.08 99.90
3014 2019-02-02 11:19:14 ESP12E-S1 2.10 0.97 99.90
3013 2019-02-02 10:51:00 ESP12E-S1 2.00 0.86 99.90
3012 2019-02-02 10:22:55 ESP12E-S1 1.80 0.64 99.90
3011 2019-02-02 09:54:38 ESP12E-S1 1.70 0.53 99.90
3010 2019-02-02 09:26:24 ESP12E-S1 1.70 0.53 99.90
3009 2019-02-02 08:58:18 ESP12E-S1 1.70 0.53 99.90
3008 2019-02-02 08:30:03 ESP12E-S1 1.60 0.42 99.90
3007 2019-02-02 08:01:49 ESP12E-S1 1.70 0.53 99.90
3006 2019-02-02 07:33:33 ESP12E-S1 1.70 0.53 99.90
3005 2019-02-02 07:05:18 ESP12E-S1 1.70 0.53 99.90
3004 2019-02-02 06:37:03 ESP12E-S1 1.70 0.53 99.90
3003 2019-02-02 06:08:50 ESP12E-S1 1.70 0.53 99.90
3002 2019-02-02 05:40:37 ESP12E-S1 1.70 0.53 99.90
3001 2019-02-02 05:12:24 ESP12E-S1 1.80 0.64 99.90
3000 2019-02-02 04:44:09 ESP12E-S1 1.80 0.64 99.90
2999 2019-02-02 04:15:54 ESP12E-S1 1.80 0.64 99.90
2998 2019-02-02 03:47:40 ESP12E-S1 1.90 0.75 99.90
2997 2019-02-02 03:19:26 ESP12E-S1 1.90 0.75 99.90
2996 2019-02-02 02:51:12 ESP12E-S1 2.00 0.86 99.90
2995 2019-02-02 02:22:58 ESP12E-S1 2.00 0.86 99.90
2994 2019-02-02 01:54:43 ESP12E-S1 2.10 0.97 99.90
2993 2019-02-02 01:26:30 ESP12E-S1 2.10 0.97 99.90
2992 2019-02-02 00:58:17 ESP12E-S1 2.00 0.86 99.90
2991 2019-02-02 00:30:02 ESP12E-S1 2.00 0.86 99.90
2990 2019-02-02 00:01:47 ESP12E-S1 2.10 0.97 99.90
2989 2019-02-01 23:33:33 ESP12E-S1 2.10 0.97 99.90
2988 2019-02-01 23:05:18 ESP12E-S1 2.00 0.86 99.90
2987 2019-02-01 22:37:05 ESP12E-S1 2.00 0.86 99.90
2986 2019-02-01 22:08:53 ESP12E-S1 2.10 0.97 99.90
2985 2019-02-01 21:40:37 ESP12E-S1 2.10 0.97 99.90
2984 2019-02-01 21:12:22 ESP12E-S1 2.00 0.86 99.90
2983 2019-02-01 20:44:12 ESP12E-S1 2.10 0.97 99.90
2982 2019-02-01 20:15:58 ESP12E-S1 2.10 0.97 99.90
2981 2019-02-01 19:47:43 ESP12E-S1 2.00 0.86 99.90
2980 2019-02-01 19:19:29 ESP12E-S1 2.00 0.86 99.90
2979 2019-02-01 18:51:14 ESP12E-S1 2.00 0.86 99.90
2978 2019-02-01 18:23:03 ESP12E-S1 2.00 0.86 99.90
2977 2019-02-01 17:54:49 ESP12E-S1 2.10 0.97 99.90
2976 2019-02-01 17:26:35 ESP12E-S1 2.20 1.08 99.90
2975 2019-02-01 16:58:22 ESP12E-S1 2.40 1.30 99.90
2974 2019-02-01 16:30:07 ESP12E-S1 2.60 1.52 99.90
2973 2019-02-01 16:01:53 ESP12E-S1 2.70 1.63 99.90
2972 2019-02-01 15:33:49 ESP12E-S1 2.70 1.63 99.90
2971 2019-02-01 15:05:32 ESP12E-S1 2.70 1.63 99.90
2970 2019-02-01 14:37:17 ESP12E-S1 2.60 1.52 99.90
2969 2019-02-01 14:09:02 ESP12E-S1 2.60 1.52 99.90
2968 2019-02-01 13:40:55 ESP12E-S1 2.50 1.41 99.90
2967 2019-02-01 13:12:37 ESP12E-S1 2.40 1.30 99.90
2966 2019-02-01 12:44:21 ESP12E-S1 2.20 1.08 99.90
2965 2019-02-01 12:16:07 ESP12E-S1 1.90 0.75 99.90
2964 2019-02-01 11:47:58 ESP12E-S1 1.60 0.42 99.90
2963 2019-02-01 11:19:40 ESP12E-S1 1.40 0.20 99.90
2962 2019-02-01 10:51:26 ESP12E-S1 1.30 0.09 99.90
2961 2019-02-01 10:23:09 ESP12E-S1 1.00 -0.24 99.90
2960 2019-02-01 09:54:54 ESP12E-S1 0.80 -0.46 99.90
2959 2019-02-01 09:26:39 ESP12E-S1 0.60 -0.68 99.90
2958 2019-02-01 08:58:25 ESP12E-S1 0.50 -0.79 99.90
2957 2019-02-01 08:30:11 ESP12E-S1 0.40 -0.90 99.90
2956 2019-02-01 08:01:56 ESP12E-S1 0.30 -1.01 99.90
2955 2019-02-01 07:33:41 ESP12E-S1 0.20 -1.12 99.90
2954 2019-02-01 07:05:27 ESP12E-S1 0.10 -1.23 99.90
2953 2019-02-01 06:37:13 ESP12E-S1 -0.10 -1.45 99.90
2952 2019-02-01 06:08:57 ESP12E-S1 -0.10 -1.45 99.90
2951 2019-02-01 05:40:44 ESP12E-S1 -0.20 -1.56 99.90
2950 2019-02-01 05:12:29 ESP12E-S1 -0.30 -1.67 99.90
2949 2019-02-01 04:44:15 ESP12E-S1 -0.40 -1.78 99.90
2948 2019-02-01 04:16:00 ESP12E-S1 -0.50 -1.89 99.90
2947 2019-02-01 03:47:47 ESP12E-S1 -0.50 -1.89 99.90
2946 2019-02-01 03:19:34 ESP12E-S1 -0.50 -1.89 99.90
2945 2019-02-01 02:51:20 ESP12E-S1 -0.50 -1.89 99.90
2944 2019-02-01 02:23:06 ESP12E-S1 -0.50 -1.90 99.50
2943 2019-02-01 01:54:53 ESP12E-S1 -0.50 -1.92 98.70
2942 2019-02-01 01:26:44 ESP12E-S1 -0.50 -1.94 98.00
2941 2019-02-01 00:58:27 ESP12E-S1 -0.60 -2.04 98.20
2940 2019-02-01 00:30:13 ESP12E-S1 -0.70 -2.15 98.30
2939 2019-02-01 00:01:59 ESP12E-S1 -0.70 -2.14 98.50
2938 2019-01-31 23:33:44 ESP12E-S1 -0.80 -2.25 98.70
2937 2019-01-31 23:05:31 ESP12E-S1 -0.90 -2.36 98.60
2936 2019-01-31 22:37:17 ESP12E-S1 -1.00 -2.46 98.80
2935 2019-01-31 22:09:04 ESP12E-S1 -1.00 -2.46 99.10
2934 2019-01-31 21:40:50 ESP12E-S1 -1.10 -2.57 99.10
2933 2019-01-31 21:12:37 ESP12E-S1 -1.10 -2.57 99.00
2932 2019-01-31 20:44:30 ESP12E-S1 -1.10 -2.55 99.70
2931 2019-01-31 20:16:15 ESP12E-S1 -1.00 -2.45 99.30
2930 2019-01-31 19:48:02 ESP12E-S1 -0.90 -2.34 99.30
2929 2019-01-31 19:19:51 ESP12E-S1 -0.70 -2.12 99.20
2928 2019-01-31 18:51:39 ESP12E-S1 -0.40 -1.78 99.90
2927 2019-01-31 18:23:28 ESP12E-S1 -0.20 -1.56 99.90
2926 2019-01-31 17:55:15 ESP12E-S1 0.00 -1.34 99.90
2925 2019-01-31 17:27:01 ESP12E-S1 0.10 -1.23 99.90
2924 2019-01-31 16:58:48 ESP12E-S1 0.10 -1.23 99.90
2923 2019-01-31 16:30:34 ESP12E-S1 0.10 -1.23 99.90
2922 2019-01-31 16:02:20 ESP12E-S1 0.10 -1.23 99.90
2921 2019-01-31 15:34:07 ESP12E-S1 0.10 -1.23 99.90
2920 2019-01-31 15:05:53 ESP12E-S1 0.00 -1.34 99.90
2919 2019-01-31 14:37:39 ESP12E-S1 -0.10 -1.45 99.90
2918 2019-01-31 14:09:25 ESP12E-S1 -0.10 -1.45 99.90
2917 2019-01-31 13:41:11 ESP12E-S1 -0.30 -1.67 99.90
2916 2019-01-31 13:12:58 ESP12E-S1 -0.40 -1.78 99.90
2915 2019-01-31 12:44:45 ESP12E-S1 -0.40 -1.78 99.90
2914 2019-01-31 12:16:30 ESP12E-S1 -0.40 -1.78 99.90
2913 2019-01-31 11:48:24 ESP12E-S1 -0.30 -1.67 99.90
2912 2019-01-31 11:20:08 ESP12E-S1 -0.30 -1.67 99.90
2911 2019-01-31 10:51:53 ESP12E-S1 -0.50 -1.89 99.90
2910 2019-01-31 10:23:38 ESP12E-S1 -0.70 -2.11 99.90
2909 2019-01-31 09:55:25 ESP12E-S1 -0.70 -2.11 99.90
2908 2019-01-31 09:27:14 ESP12E-S1 -0.70 -2.12 99.50
2907 2019-01-31 08:58:58 ESP12E-S1 -0.80 -2.24 98.80
2906 2019-01-31 08:30:44 ESP12E-S1 -0.80 -2.28 97.50
2905 2019-01-31 08:02:31 ESP12E-S1 -0.80 -2.29 97.10
2904 2019-01-31 07:34:18 ESP12E-S1 -0.80 -2.27 98.00
2903 2019-01-31 07:06:05 ESP12E-S1 -0.70 -2.13 98.80
2902 2019-01-31 06:37:54 ESP12E-S1 -0.70 -2.11 99.90
2901 2019-01-31 06:09:43 ESP12E-S1 -0.80 -2.22 99.90
2900 2019-01-31 05:41:28 ESP12E-S1 -0.90 -2.33 99.90
2899 2019-01-31 05:13:15 ESP12E-S1 -0.90 -2.33 99.90
2898 2019-01-31 04:45:03 ESP12E-S1 -1.00 -2.44 99.90
2897 2019-01-31 04:16:48 ESP12E-S1 -1.10 -2.55 99.90
2896 2019-01-31 03:48:35 ESP12E-S1 -1.30 -2.77 99.90
2895 2019-01-31 03:20:20 ESP12E-S1 -1.50 -2.99 99.90
2894 2019-01-31 02:52:05 ESP12E-S1 -1.60 -3.10 99.80
2893 2019-01-31 02:23:51 ESP12E-S1 -1.90 -3.47 98.40
2892 2019-01-31 01:55:39 ESP12E-S1 -1.60 -3.14 98.10
2891 2019-01-31 01:27:25 ESP12E-S1 -1.40 -2.90 99.00
2890 2019-01-31 00:59:15 ESP12E-S1 -1.20 -2.67 99.50
2889 2019-01-31 00:31:02 ESP12E-S1 -0.90 -2.33 99.90
2888 2019-01-31 00:02:51 ESP12E-S1 -0.50 -1.89 99.90
2887 2019-01-30 23:34:37 ESP12E-S1 -0.40 -1.78 99.90
2886 2019-01-30 23:06:25 ESP12E-S1 -0.30 -1.67 99.90
2885 2019-01-30 22:38:15 ESP12E-S1 -0.30 -1.67 99.90
2884 2019-01-30 22:10:03 ESP12E-S1 -0.20 -1.56 99.90
2883 2019-01-30 21:41:49 ESP12E-S1 -0.20 -1.56 99.90
2882 2019-01-30 21:13:36 ESP12E-S1 -0.10 -1.45 99.90
2881 2019-01-30 20:45:22 ESP12E-S1 -0.10 -1.45 99.90
2880 2019-01-30 20:17:08 ESP12E-S1 -0.20 -1.56 99.90
2879 2019-01-30 19:48:54 ESP12E-S1 -0.10 -1.45 99.90
2878 2019-01-30 19:20:41 ESP12E-S1 -0.10 -1.45 99.90
2877 2019-01-30 18:52:26 ESP12E-S1 -0.10 -1.45 99.90
2876 2019-01-30 18:24:13 ESP12E-S1 0.00 -1.34 99.90
2875 2019-01-30 17:56:02 ESP12E-S1 0.10 -1.23 99.90
2874 2019-01-30 17:27:47 ESP12E-S1 0.10 -1.23 99.90
2873 2019-01-30 16:59:34 ESP12E-S1 0.20 -1.12 99.90
2872 2019-01-30 16:31:22 ESP12E-S1 0.30 -1.01 99.90
2871 2019-01-30 16:03:09 ESP12E-S1 0.30 -1.01 99.90
2870 2019-01-30 15:34:56 ESP12E-S1 0.40 -0.90 99.90
2869 2019-01-30 15:06:41 ESP12E-S1 0.30 -1.01 99.90
2868 2019-01-30 14:38:27 ESP12E-S1 0.40 -0.90 99.80
2867 2019-01-30 14:10:12 ESP12E-S1 0.20 -1.14 99.10
2866 2019-01-30 13:41:58 ESP12E-S1 0.00 -1.36 98.80
2865 2019-01-30 13:13:44 ESP12E-S1 -0.20 -1.60 98.10
2864 2019-01-30 12:45:30 ESP12E-S1 -0.30 -1.71 98.20
2863 2019-01-30 12:17:15 ESP12E-S1 -0.40 -1.82 98.10
2862 2019-01-30 11:49:00 ESP12E-S1 -0.50 -1.93 98.30
2861 2019-01-30 11:20:46 ESP12E-S1 -0.60 -2.04 98.10
2860 2019-01-30 10:52:31 ESP12E-S1 -0.80 -2.26 98.30
2859 2019-01-30 10:24:17 ESP12E-S1 -0.80 -2.26 98.20
2858 2019-01-30 09:56:20 ESP12E-S1 -0.90 -2.38 98.00
2857 2019-01-30 09:28:01 ESP12E-S1 -1.00 -2.47 98.50
2856 2019-01-30 08:59:47 ESP12E-S1 -1.00 -2.49 98.00
2855 2019-01-30 08:31:33 ESP12E-S1 -0.90 -2.38 97.80
2854 2019-01-30 08:03:20 ESP12E-S1 -0.80 -2.29 97.00
2853 2019-01-30 07:35:07 ESP12E-S1 -0.80 -2.34 95.30
2852 2019-01-30 07:06:53 ESP12E-S1 -0.80 -2.38 93.60
2851 2019-01-30 06:38:41 ESP12E-S1 -0.80 -2.38 93.50
2850 2019-01-30 06:10:28 ESP12E-S1 -0.90 -2.49 93.50
2849 2019-01-30 05:42:14 ESP12E-S1 -0.90 -2.49 93.60
2848 2019-01-30 05:14:00 ESP12E-S1 -1.00 -2.59 94.00
2847 2019-01-30 04:45:46 ESP12E-S1 -1.00 -2.58 94.40
2846 2019-01-30 04:17:32 ESP12E-S1 -1.00 -2.58 94.20
2845 2019-01-30 03:49:18 ESP12E-S1 -1.00 -2.57 94.70
2844 2019-01-30 03:21:07 ESP12E-S1 -0.90 -2.45 95.10
2843 2019-01-30 02:52:52 ESP12E-S1 -0.80 -2.33 95.60
2842 2019-01-30 02:24:39 ESP12E-S1 -0.70 -2.20 96.30
2841 2019-01-30 01:56:28 ESP12E-S1 -0.70 -2.20 96.30
2840 2019-01-30 01:28:15 ESP12E-S1 -0.60 -2.07 96.90
2839 2019-01-30 01:00:01 ESP12E-S1 -0.60 -2.06 97.40
2838 2019-01-30 00:31:47 ESP12E-S1 -0.40 -1.84 97.60
2837 2019-01-30 00:03:33 ESP12E-S1 -0.30 -1.72 97.80
2836 2019-01-29 23:35:19 ESP12E-S1 -0.20 -1.61 98.00
2835 2019-01-29 23:07:05 ESP12E-S1 -0.10 -1.49 98.30
2834 2019-01-29 22:38:51 ESP12E-S1 -0.10 -1.49 98.10
2833 2019-01-29 22:10:37 ESP12E-S1 0.00 -1.39 97.80
2832 2019-01-29 21:42:26 ESP12E-S1 0.10 -1.29 97.60
2831 2019-01-29 21:14:13 ESP12E-S1 0.30 -1.08 97.10
2830 2019-01-29 20:45:59 ESP12E-S1 0.50 -0.87 96.80
2829 2019-01-29 20:17:45 ESP12E-S1 0.60 -0.77 96.20
2828 2019-01-29 19:49:33 ESP12E-S1 0.80 -0.57 95.70
2827 2019-01-29 19:21:26 ESP12E-S1 1.20 -0.14 95.20
2826 2019-01-29 18:55:02 ESP12E-S1 1.50 0.20 95.60
2825 2019-01-29 18:08:58 ESP12E-S1 1.40 0.02 92.90
2824 2019-01-29 17:40:45 ESP12E-S1 1.50 0.20 95.40
2823 2019-01-29 17:12:33 ESP12E-S1 1.70 0.47 97.40
2822 2019-01-29 16:44:21 ESP12E-S1 1.90 0.68 97.00
2821 2019-01-29 16:16:09 ESP12E-S1 2.00 0.77 96.40
2820 2019-01-29 15:47:57 ESP12E-S1 2.20 0.93 93.90
2819 2019-01-29 15:19:53 ESP12E-S1 2.30 1.07 95.00
2818 2019-01-29 14:51:36 ESP12E-S1 2.20 1.01 97.20
2817 2019-01-29 14:23:22 ESP12E-S1 1.90 0.67 96.50
2816 2019-01-29 13:55:09 ESP12E-S1 2.00 0.80 97.30
2815 2019-01-29 13:26:52 ESP12E-S1 1.40 0.20 99.70
2814 2019-01-29 12:58:38 ESP12E-S1 1.30 0.09 99.90
2813 2019-01-29 12:30:24 ESP12E-S1 1.20 -0.02 99.70
2812 2019-01-29 12:02:16 ESP12E-S1 1.10 -0.15 99.10
2811 2019-01-29 11:34:01 ESP12E-S1 1.20 -0.06 98.40
2810 2019-01-29 11:05:49 ESP12E-S1 1.30 0.07 98.90
2809 2019-01-29 10:37:46 ESP12E-S1 1.30 0.08 99.50
2808 2019-01-29 10:09:25 ESP12E-S1 0.80 -0.46 99.90
2807 2019-01-29 09:41:19 ESP12E-S1 0.50 -0.79 99.90
2806 2019-01-29 09:13:11 ESP12E-S1 0.30 -1.01 99.90
2805 2019-01-29 08:44:55 ESP12E-S1 0.10 -1.23 99.90
2804 2019-01-29 08:16:44 ESP12E-S1 0.10 -1.23 99.90
2803 2019-01-29 07:48:31 ESP12E-S1 0.20 -1.12 99.90
2802 2019-01-29 07:20:18 ESP12E-S1 0.30 -1.01 99.90
2801 2019-01-29 06:52:05 ESP12E-S1 0.30 -1.01 99.90
2800 2019-01-29 06:23:52 ESP12E-S1 0.40 -0.90 99.90
2799 2019-01-29 05:55:39 ESP12E-S1 0.50 -0.79 99.90
2798 2019-01-29 05:27:26 ESP12E-S1 0.50 -0.79 99.90
2797 2019-01-29 04:59:13 ESP12E-S1 0.50 -0.79 99.90
2796 2019-01-29 04:31:00 ESP12E-S1 0.60 -0.68 99.90
2795 2019-01-29 04:03:03 ESP12E-S1 0.60 -0.68 99.90
2794 2019-01-29 03:34:46 ESP12E-S1 0.60 -0.68 99.90
2793 2019-01-29 03:06:50 ESP12E-S1 0.70 -0.57 99.90
2792 2019-01-29 02:38:33 ESP12E-S1 0.80 -0.46 99.90
2791 2019-01-29 02:10:20 ESP12E-S1 0.90 -0.35 99.90
2790 2019-01-29 01:42:08 ESP12E-S1 0.90 -0.35 99.90
2789 2019-01-29 01:13:56 ESP12E-S1 0.90 -0.35 99.90
2788 2019-01-29 00:45:44 ESP12E-S1 1.00 -0.24 99.90
2787 2019-01-29 00:17:33 ESP12E-S1 1.00 -0.24 99.90
2786 2019-01-28 23:49:30 ESP12E-S1 1.00 -0.24 99.90
2785 2019-01-28 23:21:25 ESP12E-S1 1.00 -0.24 99.90
2784 2019-01-28 22:53:09 ESP12E-S1 1.10 -0.13 99.90
2783 2019-01-28 22:24:56 ESP12E-S1 1.10 -0.13 99.90
2782 2019-01-28 21:56:42 ESP12E-S1 1.10 -0.13 99.90
2781 2019-01-28 21:28:28 ESP12E-S1 1.00 -0.24 99.60
2780 2019-01-28 21:00:15 ESP12E-S1 1.10 -0.13 99.90
2779 2019-01-28 20:32:05 ESP12E-S1 1.10 -0.13 99.90
2778 2019-01-28 20:03:50 ESP12E-S1 1.20 -0.02 99.90
2777 2019-01-28 19:35:35 ESP12E-S1 1.30 0.09 99.90
2776 2019-01-28 19:07:21 ESP12E-S1 1.30 0.09 99.90
2775 2019-01-28 18:39:07 ESP12E-S1 1.30 0.09 99.90
2774 2019-01-28 18:10:55 ESP12E-S1 1.40 0.20 99.90
2773 2019-01-28 17:42:41 ESP12E-S1 1.40 0.20 99.90
2772 2019-01-28 17:14:28 ESP12E-S1 1.50 0.31 99.90
2771 2019-01-28 16:46:14 ESP12E-S1 1.60 0.42 99.90
2770 2019-01-28 16:18:00 ESP12E-S1 1.60 0.42 99.90
2769 2019-01-28 15:49:47 ESP12E-S1 1.60 0.42 99.90
2768 2019-01-28 15:21:32 ESP12E-S1 1.60 0.42 99.90
2767 2019-01-28 14:53:17 ESP12E-S1 1.40 0.20 99.90
2766 2019-01-28 14:25:04 ESP12E-S1 1.30 0.09 99.90
2765 2019-01-28 13:56:50 ESP12E-S1 1.30 0.09 99.90
2764 2019-01-28 13:28:36 ESP12E-S1 1.10 -0.13 99.90
2763 2019-01-28 13:00:30 ESP12E-S1 0.80 -0.46 99.90
2762 2019-01-28 12:32:19 ESP12E-S1 0.70 -0.57 99.90
2761 2019-01-28 12:04:37 ESP12E-S1 0.60 -0.68 99.90
2760 2019-01-28 11:36:17 ESP12E-S1 0.60 -0.68 99.90
2759 2019-01-28 11:07:30 ESP12E-S1 0.50 -0.79 99.90
2758 2019-01-28 10:39:16 ESP12E-S1 0.50 -0.79 99.90
2757 2019-01-28 10:11:02 ESP12E-S1 0.50 -0.79 99.90
2756 2019-01-28 09:42:47 ESP12E-S1 0.60 -0.68 99.90
2755 2019-01-28 09:14:34 ESP12E-S1 0.60 -0.68 99.90
2754 2019-01-28 08:46:20 ESP12E-S1 0.60 -0.68 99.90
2753 2019-01-28 08:18:07 ESP12E-S1 0.60 -0.68 99.90
2752 2019-01-28 07:49:54 ESP12E-S1 0.70 -0.57 99.90
2751 2019-01-28 07:21:41 ESP12E-S1 0.80 -0.46 99.90
2750 2019-01-28 06:53:29 ESP12E-S1 0.80 -0.46 99.90
2749 2019-01-28 06:25:14 ESP12E-S1 0.90 -0.35 99.90
2748 2019-01-28 05:57:04 ESP12E-S1 0.90 -0.35 99.90
2747 2019-01-28 05:28:50 ESP12E-S1 1.00 -0.24 99.90
2746 2019-01-28 05:00:38 ESP12E-S1 1.20 -0.02 99.90
2745 2019-01-28 04:32:25 ESP12E-S1 1.20 -0.02 99.90
2744 2019-01-28 04:04:12 ESP12E-S1 1.20 -0.02 99.90
2743 2019-01-28 03:36:00 ESP12E-S1 1.20 -0.02 99.90
2742 2019-01-28 03:07:46 ESP12E-S1 1.20 -0.02 99.90
2741 2019-01-28 02:39:34 ESP12E-S1 1.20 -0.02 99.90
2740 2019-01-28 02:11:20 ESP12E-S1 1.20 -0.02 99.90
2739 2019-01-28 01:43:07 ESP12E-S1 1.30 0.09 99.90
2738 2019-01-28 01:14:53 ESP12E-S1 1.40 0.20 99.90
2737 2019-01-28 00:46:41 ESP12E-S1 1.40 0.20 99.90
2736 2019-01-28 00:18:28 ESP12E-S1 1.40 0.20 99.90
2735 2019-01-27 23:50:15 ESP12E-S1 1.40 0.20 99.90
2734 2019-01-27 23:22:01 ESP12E-S1 1.60 0.42 99.90
2733 2019-01-27 22:53:49 ESP12E-S1 1.70 0.53 99.90
2732 2019-01-27 22:25:35 ESP12E-S1 1.70 0.53 99.90
2731 2019-01-27 21:57:22 ESP12E-S1 1.80 0.64 99.90
2730 2019-01-27 21:29:11 ESP12E-S1 2.20 1.08 99.90
2729 2019-01-27 21:00:58 ESP12E-S1 2.60 1.52 99.90
2728 2019-01-27 20:32:43 ESP12E-S1 2.70 1.63 99.90
2727 2019-01-27 20:04:31 ESP12E-S1 3.00 1.96 99.90
2726 2019-01-27 19:36:22 ESP12E-S1 3.70 2.73 99.90
2725 2019-01-27 19:08:08 ESP12E-S1 4.20 3.28 99.90
2724 2019-01-27 18:39:57 ESP12E-S1 4.40 3.50 99.90
2723 2019-01-27 18:11:44 ESP12E-S1 4.40 3.50 99.90
2722 2019-01-27 17:43:30 ESP12E-S1 4.40 3.50 99.90
2721 2019-01-27 17:15:17 ESP12E-S1 4.50 3.61 99.90
2720 2019-01-27 16:47:04 ESP12E-S1 4.60 3.72 99.90
2719 2019-01-27 16:18:51 ESP12E-S1 4.70 3.83 99.90
2718 2019-01-27 15:50:38 ESP12E-S1 4.70 3.83 99.90
2717 2019-01-27 15:22:26 ESP12E-S1 4.70 3.83 99.90
2716 2019-01-27 14:54:12 ESP12E-S1 4.80 3.94 99.90
2715 2019-01-27 14:26:00 ESP12E-S1 4.80 3.94 99.90
2714 2019-01-27 13:57:48 ESP12E-S1 4.90 4.05 99.90
2713 2019-01-27 13:29:34 ESP12E-S1 4.90 4.05 99.90
2712 2019-01-27 13:01:20 ESP12E-S1 5.00 4.16 99.90
2711 2019-01-27 12:33:08 ESP12E-S1 5.50 4.71 99.90
2710 2019-01-27 12:04:51 ESP12E-S1 5.60 4.82 99.90
2709 2019-01-27 11:36:31 ESP12E-S1 4.40 3.50 99.90
2708 2019-01-27 11:08:15 ESP12E-S1 3.90 2.95 99.90
2707 2019-01-27 10:39:59 ESP12E-S1 3.50 2.51 99.90
2706 2019-01-27 10:11:44 ESP12E-S1 3.40 2.40 99.90
2705 2019-01-27 09:43:29 ESP12E-S1 3.30 2.29 99.90
2704 2019-01-27 09:15:14 ESP12E-S1 3.20 2.18 99.90
2703 2019-01-27 08:46:59 ESP12E-S1 3.10 2.07 99.90
2702 2019-01-27 08:18:45 ESP12E-S1 3.00 1.96 99.90
2701 2019-01-27 07:50:29 ESP12E-S1 3.00 1.96 99.90
2700 2019-01-27 07:22:16 ESP12E-S1 3.00 1.96 99.90
2699 2019-01-27 06:54:01 ESP12E-S1 3.00 1.96 99.90
2698 2019-01-27 06:25:48 ESP12E-S1 3.00 1.96 99.90
2697 2019-01-27 05:57:34 ESP12E-S1 2.90 1.85 99.90
2696 2019-01-27 05:29:19 ESP12E-S1 2.90 1.85 99.90
2695 2019-01-27 05:01:06 ESP12E-S1 2.90 1.85 99.90
2694 2019-01-27 04:32:54 ESP12E-S1 2.80 1.74 99.90
2693 2019-01-27 04:04:40 ESP12E-S1 2.90 1.85 99.90
2692 2019-01-27 03:36:26 ESP12E-S1 2.80 1.74 99.90
2691 2019-01-27 03:08:10 ESP12E-S1 2.70 1.63 99.90
2690 2019-01-27 02:39:56 ESP12E-S1 2.60 1.52 99.90
2689 2019-01-27 02:11:42 ESP12E-S1 2.50 1.41 99.90
2688 2019-01-27 01:43:28 ESP12E-S1 2.50 1.41 99.90
2687 2019-01-27 01:15:14 ESP12E-S1 2.50 1.41 99.90
2686 2019-01-27 00:47:00 ESP12E-S1 2.50 1.41 99.90
2685 2019-01-27 00:18:46 ESP12E-S1 2.50 1.41 99.90
2684 2019-01-26 23:50:38 ESP12E-S1 2.40 1.30 99.90
2683 2019-01-26 23:22:24 ESP12E-S1 2.50 1.41 99.90
2682 2019-01-26 22:54:09 ESP12E-S1 2.60 1.52 99.90
2681 2019-01-26 22:25:55 ESP12E-S1 2.60 1.52 99.90
2680 2019-01-26 21:57:40 ESP12E-S1 2.60 1.52 99.90
2679 2019-01-26 21:29:26 ESP12E-S1 2.60 1.52 99.90
2678 2019-01-26 21:01:19 ESP12E-S1 2.60 1.52 99.90
2677 2019-01-26 20:33:03 ESP12E-S1 2.50 1.41 99.90
2676 2019-01-26 20:04:48 ESP12E-S1 2.50 1.41 99.90
2675 2019-01-26 19:36:34 ESP12E-S1 2.50 1.41 99.90
2674 2019-01-26 19:08:19 ESP12E-S1 2.50 1.41 99.90
2673 2019-01-26 18:40:05 ESP12E-S1 2.60 1.52 99.90
2672 2019-01-26 18:11:52 ESP12E-S1 2.60 1.52 99.90
2671 2019-01-26 17:43:39 ESP12E-S1 2.70 1.63 99.90
2670 2019-01-26 17:15:26 ESP12E-S1 2.80 1.74 99.90
2669 2019-01-26 16:47:11 ESP12E-S1 2.90 1.85 99.90
2668 2019-01-26 16:18:57 ESP12E-S1 2.90 1.85 99.90
2667 2019-01-26 15:50:43 ESP12E-S1 3.00 1.96 99.90
2666 2019-01-26 15:22:31 ESP12E-S1 3.10 2.07 99.90
2665 2019-01-26 14:54:42 ESP12E-S1 3.20 2.18 99.90
2664 2019-01-26 14:26:17 ESP12E-S1 2.90 1.85 99.90
2663 2019-01-26 13:58:10 ESP12E-S1 2.80 1.74 99.90
2662 2019-01-26 13:30:12 ESP12E-S1 2.70 1.63 99.90
2661 2019-01-26 13:00:05 ESP12E-S1 2.60 1.52 99.90
2660 2019-01-26 12:31:50 ESP12E-S1 2.50 1.41 99.90
2659 2019-01-26 12:03:45 ESP12E-S1 2.10 0.97 99.90
2658 2019-01-26 11:35:27 ESP12E-S1 1.60 0.42 99.90
2657 2019-01-26 11:07:14 ESP12E-S1 1.40 0.20 99.90
2656 2019-01-26 10:39:01 ESP12E-S1 1.20 -0.02 99.90
2655 2019-01-26 10:10:46 ESP12E-S1 1.10 -0.13 99.90
2654 2019-01-26 09:42:33 ESP12E-S1 1.00 -0.24 99.90
2653 2019-01-26 09:14:20 ESP12E-S1 0.90 -0.35 99.90
2652 2019-01-26 08:46:07 ESP12E-S1 0.80 -0.46 99.90
2651 2019-01-26 08:17:54 ESP12E-S1 0.90 -0.35 99.90
2650 2019-01-26 07:49:47 ESP12E-S1 0.70 -0.57 99.90
2649 2019-01-26 07:21:31 ESP12E-S1 0.60 -0.68 99.90
2648 2019-01-26 06:53:18 ESP12E-S1 0.50 -0.79 99.90
2647 2019-01-26 06:25:04 ESP12E-S1 0.40 -0.90 99.90
2646 2019-01-26 05:56:51 ESP12E-S1 0.30 -1.01 99.90
2645 2019-01-26 05:28:38 ESP12E-S1 0.20 -1.12 99.90
2644 2019-01-26 05:00:25 ESP12E-S1 0.10 -1.23 99.90
2643 2019-01-26 04:32:11 ESP12E-S1 0.00 -1.34 99.90
2642 2019-01-26 04:03:57 ESP12E-S1 0.00 -1.34 99.90
2641 2019-01-26 03:35:42 ESP12E-S1 -0.10 -1.45 99.90
2640 2019-01-26 03:07:28 ESP12E-S1 -0.20 -1.56 99.90
2639 2019-01-26 02:39:12 ESP12E-S1 -0.20 -1.56 99.90
2638 2019-01-26 02:11:02 ESP12E-S1 -0.40 -1.78 99.90
2637 2019-01-26 01:42:47 ESP12E-S1 -0.50 -1.89 99.90
2636 2019-01-26 01:14:33 ESP12E-S1 -0.60 -2.00 99.90
2635 2019-01-26 00:46:19 ESP12E-S1 -0.80 -2.22 99.90
2634 2019-01-26 00:18:05 ESP12E-S1 -0.90 -2.33 99.90
2633 2019-01-25 23:49:51 ESP12E-S1 -0.90 -2.33 99.90
2632 2019-01-25 23:21:36 ESP12E-S1 -1.00 -2.44 99.90
2631 2019-01-25 22:53:24 ESP12E-S1 -1.00 -2.44 99.90
2630 2019-01-25 22:25:11 ESP12E-S1 -1.00 -2.44 99.90
2629 2019-01-25 21:56:58 ESP12E-S1 -1.00 -2.44 99.70
2628 2019-01-25 21:28:45 ESP12E-S1 -0.90 -2.35 98.80
2627 2019-01-25 21:00:32 ESP12E-S1 -0.80 -2.27 98.00
2626 2019-01-25 20:32:20 ESP12E-S1 -0.60 -2.09 96.40
2625 2019-01-25 20:04:08 ESP12E-S1 -0.50 -2.02 94.90
2624 2019-01-25 19:35:54 ESP12E-S1 -0.60 -2.14 94.40
2623 2019-01-25 19:07:40 ESP12E-S1 -0.70 -2.27 93.80
2622 2019-01-25 18:39:26 ESP12E-S1 -0.80 -2.39 93.40
2621 2019-01-25 18:11:12 ESP12E-S1 -0.90 -2.50 93.10
2620 2019-01-25 17:42:58 ESP12E-S1 -0.90 -2.51 93.00
2619 2019-01-25 17:14:44 ESP12E-S1 -1.00 -2.61 93.40
2618 2019-01-25 16:46:31 ESP12E-S1 -0.90 -2.50 93.20
2617 2019-01-25 16:18:18 ESP12E-S1 -0.80 -2.39 93.20
2616 2019-01-25 15:50:05 ESP12E-S1 -0.80 -2.39 93.40
2615 2019-01-25 15:22:00 ESP12E-S1 -0.80 -2.39 93.10
2614 2019-01-25 14:53:52 ESP12E-S1 -1.00 -2.60 93.50
2613 2019-01-25 14:25:36 ESP12E-S1 -1.20 -2.83 93.10
2612 2019-01-25 13:57:23 ESP12E-S1 -1.30 -2.97 92.20
2611 2019-01-25 13:29:29 ESP12E-S1 -1.50 -3.19 92.00
2610 2019-01-25 13:01:12 ESP12E-S1 -1.50 -3.21 91.50
2609 2019-01-25 12:32:55 ESP12E-S1 -1.60 -3.33 90.90
2608 2019-01-25 12:04:48 ESP12E-S1 -1.90 -3.67 90.50
2607 2019-01-25 11:36:31 ESP12E-S1 -2.20 -4.01 90.00
2606 2019-01-25 11:08:17 ESP12E-S1 -2.40 -4.26 88.90
2605 2019-01-25 10:40:02 ESP12E-S1 -2.60 -4.50 88.30
2604 2019-01-25 10:11:47 ESP12E-S1 -2.80 -4.72 88.10
2603 2019-01-25 09:43:31 ESP12E-S1 -2.90 -4.87 86.80
2602 2019-01-25 09:15:09 ESP12E-S1 -3.00 -5.09 82.40
2601 2019-01-25 08:46:53 ESP12E-S1 -3.10 -5.26 80.20
2600 2019-01-25 08:18:39 ESP12E-S1 -3.20 -5.41 78.60
2599 2019-01-25 07:50:27 ESP12E-S1 -3.20 -5.47 76.40
2598 2019-01-25 07:22:14 ESP12E-S1 -3.10 -5.38 75.80
2597 2019-01-25 06:54:08 ESP12E-S1 -3.10 -5.41 74.50
2596 2019-01-25 06:25:53 ESP12E-S1 -3.20 -5.53 74.10
2595 2019-01-25 05:57:41 ESP12E-S1 -3.10 -5.44 73.30
2594 2019-01-25 05:29:27 ESP12E-S1 -3.20 -5.58 72.20
2593 2019-01-25 05:01:15 ESP12E-S1 -3.20 -5.58 72.00
2592 2019-01-25 04:33:01 ESP12E-S1 -3.20 -5.59 71.70
2591 2019-01-25 04:04:48 ESP12E-S1 -3.30 -5.70 71.90
2590 2019-01-25 03:36:34 ESP12E-S1 -3.40 -5.83 71.10
2589 2019-01-25 03:08:21 ESP12E-S1 -3.40 -5.85 70.10
2588 2019-01-25 02:40:08 ESP12E-S1 -3.50 -5.97 69.70
2587 2019-01-25 02:11:57 ESP12E-S1 -3.40 -5.89 68.90
2586 2019-01-25 01:43:44 ESP12E-S1 -3.40 -5.92 67.50
2585 2019-01-25 01:15:31 ESP12E-S1 -3.40 -5.93 67.10
2584 2019-01-25 00:47:19 ESP12E-S1 -3.30 -5.82 67.20
2583 2019-01-25 00:19:08 ESP12E-S1 -3.30 -5.81 67.50
2582 2019-01-24 23:50:55 ESP12E-S1 -3.30 -5.82 67.20
2581 2019-01-24 23:22:43 ESP12E-S1 -3.20 -5.73 66.40
2580 2019-01-24 22:54:31 ESP12E-S1 -3.10 -5.61 66.90
2579 2019-01-24 22:26:18 ESP12E-S1 -3.00 -5.53 65.50
2578 2019-01-24 21:58:14 ESP12E-S1 -3.00 -5.51 66.50
2577 2019-01-24 21:30:00 ESP12E-S1 -3.00 -5.49 67.00
2576 2019-01-24 21:01:48 ESP12E-S1 -3.00 -5.47 68.10
2575 2019-01-24 20:33:36 ESP12E-S1 -2.90 -5.31 69.80
2574 2019-01-24 20:05:22 ESP12E-S1 -2.80 -5.13 72.40
2573 2019-01-24 19:37:09 ESP12E-S1 -2.70 -4.97 74.60
2572 2019-01-24 19:08:56 ESP12E-S1 -2.70 -4.96 74.80
2571 2019-01-24 18:40:43 ESP12E-S1 -2.70 -4.98 74.20
2570 2019-01-24 18:12:31 ESP12E-S1 -2.70 -4.98 74.10
2569 2019-01-24 17:44:18 ESP12E-S1 -2.70 -5.03 72.10
2568 2019-01-24 17:16:06 ESP12E-S1 -2.70 -5.09 70.00
2567 2019-01-24 16:47:55 ESP12E-S1 -2.50 -4.87 69.70
2566 2019-01-24 16:19:43 ESP12E-S1 -2.40 -4.78 69.00
2565 2019-01-24 15:51:32 ESP12E-S1 -2.20 -4.60 67.50
2564 2019-01-24 15:23:17 ESP12E-S1 -2.40 -4.85 66.60
2563 2019-01-24 14:55:05 ESP12E-S1 -2.30 -4.74 66.50
2562 2019-01-24 14:26:53 ESP12E-S1 -2.00 -4.38 67.60
2561 2019-01-24 13:58:40 ESP12E-S1 -1.80 -4.13 68.90
2560 2019-01-24 13:30:30 ESP12E-S1 -1.90 -4.30 66.50
2559 2019-01-24 13:02:16 ESP12E-S1 -1.80 -4.13 68.90
2558 2019-01-24 12:34:00 ESP12E-S1 -2.00 -4.28 71.40
2557 2019-01-24 12:05:46 ESP12E-S1 -2.20 -4.51 71.20
2556 2019-01-24 11:37:32 ESP12E-S1 -2.30 -4.46 77.20
2555 2019-01-24 11:09:18 ESP12E-S1 -2.50 -4.73 75.10
2554 2019-01-24 10:41:02 ESP12E-S1 -2.80 -5.04 75.90
2553 2019-01-24 10:12:50 ESP12E-S1 -2.90 -5.19 74.50
2552 2019-01-24 09:44:35 ESP12E-S1 -3.10 -5.38 75.60
2551 2019-01-24 09:16:21 ESP12E-S1 -3.30 -5.61 75.20
2550 2019-01-24 08:48:10 ESP12E-S1 -3.20 -5.54 73.70
2549 2019-01-24 08:19:56 ESP12E-S1 -3.30 -5.66 73.40
2548 2019-01-24 07:51:43 ESP12E-S1 -3.30 -5.67 73.10
2547 2019-01-24 07:23:31 ESP12E-S1 -3.10 -5.46 72.50
2546 2019-01-24 06:55:18 ESP12E-S1 -3.00 -5.36 72.00
2545 2019-01-24 06:27:05 ESP12E-S1 -2.90 -5.34 68.90
2544 2019-01-24 05:58:53 ESP12E-S1 -2.90 -5.31 69.70
2543 2019-01-24 05:30:42 ESP12E-S1 -2.80 -5.18 70.70
2542 2019-01-24 05:02:36 ESP12E-S1 -2.70 -5.05 71.40
2541 2019-01-24 04:34:20 ESP12E-S1 -2.70 -5.07 70.80
2540 2019-01-24 04:06:14 ESP12E-S1 -2.70 -5.06 71.20
2539 2019-01-24 03:38:00 ESP12E-S1 -2.60 -4.91 72.40
2538 2019-01-24 03:09:48 ESP12E-S1 -2.60 -4.91 72.60
2537 2019-01-24 02:41:34 ESP12E-S1 -2.60 -4.91 72.40
2536 2019-01-24 02:13:21 ESP12E-S1 -2.50 -4.80 72.60
2535 2019-01-24 01:45:09 ESP12E-S1 -2.40 -4.70 72.00
2534 2019-01-24 01:16:57 ESP12E-S1 -2.30 -4.57 73.10
2533 2019-01-24 00:48:44 ESP12E-S1 -2.30 -4.56 73.30
2532 2019-01-24 00:20:37 ESP12E-S1 -2.20 -4.45 73.30
2531 2019-01-23 23:52:23 ESP12E-S1 -2.10 -4.34 73.20
2530 2019-01-23 23:24:11 ESP12E-S1 -2.10 -4.33 73.80
2529 2019-01-23 22:55:58 ESP12E-S1 -2.10 -4.31 74.60
2528 2019-01-23 22:27:44 ESP12E-S1 -2.00 -4.17 75.70
2527 2019-01-23 21:59:31 ESP12E-S1 -2.00 -4.19 74.90
2526 2019-01-23 21:31:36 ESP12E-S1 -2.00 -4.15 76.20
2525 2019-01-23 21:03:35 ESP12E-S1 -2.00 -4.20 74.60
2524 2019-01-23 20:35:14 ESP12E-S1 -2.10 -4.31 74.40
2523 2019-01-23 20:07:02 ESP12E-S1 -2.00 -4.20 74.30
2522 2019-01-23 19:38:48 ESP12E-S1 -2.10 -4.32 74.20
2521 2019-01-23 19:10:34 ESP12E-S1 -2.10 -4.33 73.70
2520 2019-01-23 18:42:21 ESP12E-S1 -2.10 -4.32 74.00
2519 2019-01-23 18:14:08 ESP12E-S1 -2.10 -4.32 73.90
2518 2019-01-23 17:45:55 ESP12E-S1 -2.10 -4.34 73.50
2517 2019-01-23 17:17:42 ESP12E-S1 -2.00 -4.24 73.10
2516 2019-01-23 16:49:29 ESP12E-S1 -2.00 -4.27 71.70
2515 2019-01-23 16:21:16 ESP12E-S1 -1.90 -4.17 71.40
2514 2019-01-23 15:53:04 ESP12E-S1 -1.90 -4.17 71.40
2513 2019-01-23 15:24:55 ESP12E-S1 -1.80 -4.09 70.40
2512 2019-01-23 14:56:40 ESP12E-S1 -1.80 -4.10 69.90
2511 2019-01-23 14:28:28 ESP12E-S1 -1.90 -4.21 69.90
2510 2019-01-23 14:00:15 ESP12E-S1 -1.70 -4.01 69.20
2509 2019-01-23 13:32:01 ESP12E-S1 -1.60 -3.89 69.40
2508 2019-01-23 13:03:49 ESP12E-S1 -1.50 -3.79 69.10
2507 2019-01-23 12:35:35 ESP12E-S1 -1.60 -3.87 70.10
2506 2019-01-23 12:07:22 ESP12E-S1 -1.60 -3.87 70.10
2505 2019-01-23 11:39:08 ESP12E-S1 -1.70 -3.96 70.90
2504 2019-01-23 11:10:51 ESP12E-S1 -2.00 -4.29 71.00
2503 2019-01-23 10:42:36 ESP12E-S1 -2.10 -4.38 71.60
2502 2019-01-23 10:14:22 ESP12E-S1 -2.30 -4.60 71.90
2501 2019-01-23 09:46:08 ESP12E-S1 -2.40 -4.74 70.70
2500 2019-01-23 09:17:55 ESP12E-S1 -2.50 -4.81 72.30
2499 2019-01-23 08:49:42 ESP12E-S1 -2.40 -4.65 74.00
2498 2019-01-23 08:21:29 ESP12E-S1 -2.50 -4.76 73.90
2497 2019-01-23 07:53:16 ESP12E-S1 -2.50 -4.76 74.00
2496 2019-01-23 07:25:03 ESP12E-S1 -2.40 -4.69 72.70
2495 2019-01-23 06:56:50 ESP12E-S1 -2.30 -4.54 73.90
2494 2019-01-23 06:28:38 ESP12E-S1 -2.40 -4.62 75.20
2493 2019-01-23 06:00:25 ESP12E-S1 -2.30 -4.49 76.00
2492 2019-01-23 05:32:12 ESP12E-S1 -2.40 -4.59 76.40
2491 2019-01-23 05:03:59 ESP12E-S1 -2.40 -4.58 76.60
2490 2019-01-23 04:35:46 ESP12E-S1 -2.40 -4.58 76.90
2489 2019-01-23 04:07:32 ESP12E-S1 -2.40 -4.56 77.60
2488 2019-01-23 03:39:20 ESP12E-S1 -2.40 -4.55 77.90
2487 2019-01-23 03:11:06 ESP12E-S1 -2.50 -4.66 77.90
2486 2019-01-23 02:42:55 ESP12E-S1 -2.50 -4.66 78.00
2485 2019-01-23 02:14:46 ESP12E-S1 -2.40 -4.54 78.20
2484 2019-01-23 01:46:32 ESP12E-S1 -2.40 -4.55 78.00
2483 2019-01-23 01:18:19 ESP12E-S1 -2.50 -4.64 78.60
2482 2019-01-23 00:50:06 ESP12E-S1 -2.50 -4.66 78.10
2481 2019-01-23 00:21:52 ESP12E-S1 -2.50 -4.68 77.30
2480 2019-01-22 23:53:41 ESP12E-S1 -2.40 -4.58 76.80
2479 2019-01-22 23:25:28 ESP12E-S1 -2.40 -4.58 76.70
2478 2019-01-22 22:57:16 ESP12E-S1 -2.30 -4.47 76.90
2477 2019-01-22 22:29:02 ESP12E-S1 -2.30 -4.45 77.40
2476 2019-01-22 22:00:49 ESP12E-S1 -2.30 -4.44 78.00
2475 2019-01-22 21:32:36 ESP12E-S1 -2.30 -4.44 77.90
2474 2019-01-22 21:04:26 ESP12E-S1 -2.30 -4.43 78.30
2473 2019-01-22 20:36:12 ESP12E-S1 -2.30 -4.42 78.80
2472 2019-01-22 20:07:59 ESP12E-S1 -2.40 -4.49 80.10
2471 2019-01-22 19:39:45 ESP12E-S1 -2.30 -4.42 78.60
2470 2019-01-22 19:11:33 ESP12E-S1 -2.30 -4.34 81.80
2469 2019-01-22 18:43:28 ESP12E-S1 -2.30 -4.31 82.90
2468 2019-01-22 18:15:14 ESP12E-S1 -2.30 -4.29 83.70
2467 2019-01-22 17:47:01 ESP12E-S1 -2.30 -4.25 85.10
2466 2019-01-22 17:18:50 ESP12E-S1 -2.30 -4.27 84.60
2465 2019-01-22 16:50:36 ESP12E-S1 -2.40 -4.37 84.90
2464 2019-01-22 16:22:23 ESP12E-S1 -2.40 -4.34 86.10
2463 2019-01-22 15:54:12 ESP12E-S1 -2.40 -4.33 86.50
2462 2019-01-22 15:25:59 ESP12E-S1 -2.50 -4.43 86.60
2461 2019-01-22 14:57:46 ESP12E-S1 -2.60 -4.53 87.00
2460 2019-01-22 14:29:33 ESP12E-S1 -2.90 -4.92 84.80
2459 2019-01-22 14:01:20 ESP12E-S1 -3.10 -5.18 83.10
2458 2019-01-22 13:33:07 ESP12E-S1 -3.30 -5.37 84.30
2457 2019-01-22 13:04:53 ESP12E-S1 -3.50 -5.55 85.90
2456 2019-01-22 12:36:49 ESP12E-S1 -3.80 -5.82 88.10
2455 2019-01-22 12:08:32 ESP12E-S1 -4.10 -6.11 89.60
2454 2019-01-22 11:40:24 ESP12E-S1 -4.30 -6.36 88.70
2453 2019-01-22 11:12:10 ESP12E-S1 -4.50 -6.56 89.30
2452 2019-01-22 10:43:56 ESP12E-S1 -4.90 -7.03 88.20
2451 2019-01-22 10:15:43 ESP12E-S1 -5.10 -7.21 89.80
2450 2019-01-22 09:47:35 ESP12E-S1 -5.20 -7.35 88.70
2449 2019-01-22 09:19:24 ESP12E-S1 -5.00 -7.24 84.30
2448 2019-01-22 08:51:14 ESP12E-S1 -4.60 -6.76 86.00
2447 2019-01-22 08:23:01 ESP12E-S1 -4.40 -6.54 85.80
2446 2019-01-22 07:54:50 ESP12E-S1 -4.50 -6.66 85.60
2445 2019-01-22 07:26:38 ESP12E-S1 -4.60 -6.81 84.10
2444 2019-01-22 06:58:25 ESP12E-S1 -4.80 -7.02 84.30
2443 2019-01-22 06:30:14 ESP12E-S1 -4.80 -7.14 79.70
2442 2019-01-22 06:02:01 ESP12E-S1 -5.00 -7.49 74.70
2441 2019-01-22 05:33:50 ESP12E-S1 -4.90 -7.45 72.10
2440 2019-01-22 05:05:38 ESP12E-S1 -4.90 -7.45 72.30
2439 2019-01-22 04:37:27 ESP12E-S1 -4.80 -7.35 71.80
2438 2019-01-22 04:09:15 ESP12E-S1 -4.70 -7.28 70.20
2437 2019-01-22 03:41:04 ESP12E-S1 -4.60 -7.14 71.40
2436 2019-01-22 03:12:53 ESP12E-S1 -4.50 -7.05 70.50
2435 2019-01-22 02:44:42 ESP12E-S1 -4.40 -6.96 70.00
2434 2019-01-22 02:16:30 ESP12E-S1 -4.40 -6.96 69.70
2433 2019-01-22 01:48:19 ESP12E-S1 -4.20 -6.75 69.60
2432 2019-01-22 01:20:07 ESP12E-S1 -4.10 -6.65 69.00
2431 2019-01-22 00:51:55 ESP12E-S1 -4.00 -6.53 69.30
2430 2019-01-22 00:23:43 ESP12E-S1 -3.90 -6.43 69.20
2429 2019-01-21 23:55:31 ESP12E-S1 -3.80 -6.31 69.40
2428 2019-01-21 23:27:18 ESP12E-S1 -3.70 -6.24 68.00
2427 2019-01-21 22:59:06 ESP12E-S1 -3.60 -6.14 67.70
2426 2019-01-21 22:30:55 ESP12E-S1 -3.40 -5.92 67.50
2425 2019-01-21 22:02:49 ESP12E-S1 -3.30 -5.79 68.20
2424 2019-01-21 21:34:35 ESP12E-S1 -3.10 -5.56 68.80
2423 2019-01-21 21:06:23 ESP12E-S1 -2.90 -5.34 68.80
2422 2019-01-21 20:38:11 ESP12E-S1 -2.60 -5.03 67.90
2421 2019-01-21 20:10:01 ESP12E-S1 -2.40 -4.85 66.60
2420 2019-01-21 19:41:50 ESP12E-S1 -2.20 -4.63 66.30
2419 2019-01-21 19:13:40 ESP12E-S1 -1.80 -4.20 66.20
2418 2019-01-21 18:45:28 ESP12E-S1 -1.50 -3.88 65.50
2417 2019-01-21 18:17:21 ESP12E-S1 -1.00 -3.38 63.70
2416 2019-01-21 17:49:12 ESP12E-S1 -0.60 -2.98 62.30
2415 2019-01-21 17:21:06 ESP12E-S1 0.00 -2.38 59.80
2414 2019-01-21 16:53:13 ESP12E-S1 0.90 -1.44 57.90
2413 2019-01-21 16:25:00 ESP12E-S1 1.80 -0.50 56.20
2412 2019-01-21 15:56:51 ESP12E-S1 2.90 0.68 55.00
2411 2019-01-21 15:28:42 ESP12E-S1 3.30 1.11 54.50
2410 2019-01-21 15:00:28 ESP12E-S1 3.80 1.65 54.20
2409 2019-01-21 14:32:11 ESP12E-S1 3.50 1.29 53.20
2408 2019-01-21 14:03:58 ESP12E-S1 3.00 0.77 54.30
2407 2019-01-21 13:35:42 ESP12E-S1 2.80 0.59 55.80
2406 2019-01-21 13:07:26 ESP12E-S1 2.30 0.03 55.20
2405 2019-01-21 12:39:13 ESP12E-S1 2.20 -0.02 57.60
2404 2019-01-21 12:10:57 ESP12E-S1 1.50 -0.75 59.10
2403 2019-01-21 11:42:40 ESP12E-S1 0.90 -1.37 60.70
2402 2019-01-21 11:14:22 ESP12E-S1 -0.10 -2.42 62.50
2401 2019-01-21 10:46:09 ESP12E-S1 -0.90 -3.24 64.90
2400 2019-01-21 10:17:43 ESP12E-S1 -2.40 -4.78 69.20
2399 2019-01-21 09:49:24 ESP12E-S1 -3.60 -5.99 73.30
2398 2019-01-21 09:21:07 ESP12E-S1 -4.50 -7.01 72.00
2397 2019-01-21 08:52:56 ESP12E-S1 -4.70 -7.23 72.30
2396 2019-01-21 08:24:43 ESP12E-S1 -4.70 -7.28 70.10
2395 2019-01-21 07:56:30 ESP12E-S1 -4.70 -7.27 70.80
2394 2019-01-21 07:28:18 ESP12E-S1 -4.80 -7.38 70.80
2393 2019-01-21 07:00:07 ESP12E-S1 -4.70 -7.27 70.70
2392 2019-01-21 06:31:56 ESP12E-S1 -4.40 -6.95 70.20
2391 2019-01-21 06:03:45 ESP12E-S1 -4.20 -6.70 71.40
2390 2019-01-21 05:35:33 ESP12E-S1 -4.00 -6.51 70.40
2389 2019-01-21 05:07:22 ESP12E-S1 -3.90 -6.40 70.30
2388 2019-01-21 04:39:11 ESP12E-S1 -3.80 -6.31 69.40
2387 2019-01-21 04:10:59 ESP12E-S1 -3.60 -6.08 70.00
2386 2019-01-21 03:42:48 ESP12E-S1 -3.50 -5.97 70.00
2385 2019-01-21 03:14:36 ESP12E-S1 -3.30 -5.78 68.90
2384 2019-01-21 02:46:25 ESP12E-S1 -3.20 -5.68 68.20
2383 2019-01-21 02:18:14 ESP12E-S1 -3.10 -5.58 68.00
2382 2019-01-21 01:50:01 ESP12E-S1 -3.00 -5.52 66.20
2381 2019-01-21 01:21:48 ESP12E-S1 -2.90 -5.40 66.40
2380 2019-01-21 00:53:38 ESP12E-S1 -2.80 -5.32 65.30
2379 2019-01-21 00:25:25 ESP12E-S1 -2.90 -5.42 65.50
2378 2019-01-20 23:57:13 ESP12E-S1 -2.70 -5.22 64.90
2377 2019-01-20 23:29:02 ESP12E-S1 -2.50 -5.02 64.10
2376 2019-01-20 23:00:51 ESP12E-S1 -2.40 -4.92 63.60
2375 2019-01-20 22:32:40 ESP12E-S1 -2.10 -4.61 63.10
2374 2019-01-20 22:04:26 ESP12E-S1 -2.00 -4.50 63.10
2373 2019-01-20 21:36:15 ESP12E-S1 -1.90 -4.38 63.30
2372 2019-01-20 21:08:04 ESP12E-S1 -1.90 -4.38 63.20
2371 2019-01-20 20:39:54 ESP12E-S1 -1.70 -4.17 62.90
2370 2019-01-20 20:11:43 ESP12E-S1 -1.60 -4.05 63.30
2369 2019-01-20 19:43:33 ESP12E-S1 -1.30 -3.73 62.80
2368 2019-01-20 19:15:22 ESP12E-S1 -1.00 -3.44 61.50
2367 2019-01-20 18:47:13 ESP12E-S1 -0.50 -2.93 60.00
2366 2019-01-20 18:19:02 ESP12E-S1 -0.20 -2.61 59.40
2365 2019-01-20 17:50:51 ESP12E-S1 0.20 -2.19 58.70
2364 2019-01-20 17:22:42 ESP12E-S1 0.50 -1.87 58.20
2363 2019-01-20 16:54:34 ESP12E-S1 1.20 -1.13 57.10
2362 2019-01-20 16:26:27 ESP12E-S1 2.20 -0.10 54.70
2361 2019-01-20 15:58:22 ESP12E-S1 3.50 1.27 52.40
2360 2019-01-20 15:30:14 ESP12E-S1 4.40 2.24 51.50
2359 2019-01-20 15:01:59 ESP12E-S1 4.70 2.56 51.20
2358 2019-01-20 14:33:45 ESP12E-S1 4.60 2.48 52.20
2357 2019-01-20 14:05:27 ESP12E-S1 3.90 1.75 53.60
2356 2019-01-20 13:37:12 ESP12E-S1 3.60 1.43 54.30
2355 2019-01-20 13:08:57 ESP12E-S1 3.20 1.01 55.00
2354 2019-01-20 12:40:42 ESP12E-S1 2.70 0.47 55.50
2353 2019-01-20 12:12:25 ESP12E-S1 2.00 -0.26 56.80
2352 2019-01-20 11:44:08 ESP12E-S1 1.30 -1.03 57.00
2351 2019-01-20 11:15:50 ESP12E-S1 0.40 -1.97 58.60
2350 2019-01-20 10:47:36 ESP12E-S1 -0.60 -3.03 60.30
2349 2019-01-20 10:19:15 ESP12E-S1 -1.50 -3.99 61.50
2348 2019-01-20 09:50:59 ESP12E-S1 -2.30 -4.83 62.90
2347 2019-01-20 09:22:45 ESP12E-S1 -2.60 -5.14 63.60
2346 2019-01-20 08:54:33 ESP12E-S1 -2.80 -5.36 63.60
2345 2019-01-20 08:26:21 ESP12E-S1 -2.80 -5.39 62.50
2344 2019-01-20 07:58:10 ESP12E-S1 -2.60 -5.18 62.10
2343 2019-01-20 07:29:59 ESP12E-S1 -2.50 -5.08 61.80
2342 2019-01-20 07:01:46 ESP12E-S1 -2.50 -5.09 61.50
2341 2019-01-20 06:33:33 ESP12E-S1 -2.60 -5.19 61.80
2340 2019-01-20 06:05:20 ESP12E-S1 -2.80 -5.42 61.60
2339 2019-01-20 05:37:08 ESP12E-S1 -2.90 -5.53 61.30
2338 2019-01-20 05:09:09 ESP12E-S1 -2.90 -5.55 60.80
2337 2019-01-20 04:40:55 ESP12E-S1 -2.80 -5.45 60.30
2336 2019-01-20 04:12:44 ESP12E-S1 -2.60 -5.24 59.90
2335 2019-01-20 03:44:34 ESP12E-S1 -2.60 -5.25 59.50
2334 2019-01-20 03:16:25 ESP12E-S1 -2.50 -5.16 58.70
2333 2019-01-20 02:48:14 ESP12E-S1 -2.40 -5.05 58.70
2332 2019-01-20 02:20:04 ESP12E-S1 -2.30 -4.95 58.30
2331 2019-01-20 01:51:55 ESP12E-S1 -2.10 -4.74 58.00
2330 2019-01-20 01:23:44 ESP12E-S1 -2.00 -4.63 58.10
2329 2019-01-20 00:55:33 ESP12E-S1 -1.80 -4.42 57.50
2328 2019-01-20 00:27:22 ESP12E-S1 -1.70 -4.31 57.50
2327 2019-01-19 23:59:12 ESP12E-S1 -1.50 -4.10 57.10
2326 2019-01-19 23:31:01 ESP12E-S1 -1.40 -4.00 56.70
2325 2019-01-19 23:02:50 ESP12E-S1 -1.20 -3.79 56.50
2324 2019-01-19 22:34:39 ESP12E-S1 -1.10 -3.69 56.10
2323 2019-01-19 22:06:28 ESP12E-S1 -1.10 -3.71 55.20
2322 2019-01-19 21:38:28 ESP12E-S1 -0.90 -3.47 56.20
2321 2019-01-19 21:10:13 ESP12E-S1 -0.60 -3.12 57.00
2320 2019-01-19 20:42:02 ESP12E-S1 -0.40 -2.91 56.60
2319 2019-01-19 20:13:52 ESP12E-S1 -0.20 -2.66 57.50
2318 2019-01-19 19:45:44 ESP12E-S1 -0.10 -2.52 58.60
2317 2019-01-19 19:17:33 ESP12E-S1 -0.10 -2.52 58.90
2316 2019-01-19 18:49:23 ESP12E-S1 0.30 -2.11 57.70
2315 2019-01-19 18:21:12 ESP12E-S1 0.70 -1.68 57.20
2314 2019-01-19 17:53:03 ESP12E-S1 1.10 -1.25 57.00
2313 2019-01-19 17:24:55 ESP12E-S1 1.50 -0.81 56.90
2312 2019-01-19 16:56:48 ESP12E-S1 2.20 -0.05 56.60
2311 2019-01-19 16:28:42 ESP12E-S1 3.10 0.90 55.10
2310 2019-01-19 16:00:34 ESP12E-S1 3.90 1.76 54.10
2309 2019-01-19 15:32:35 ESP12E-S1 5.10 3.04 52.50
2308 2019-01-19 15:04:18 ESP12E-S1 5.40 3.38 53.00
2307 2019-01-19 14:36:02 ESP12E-S1 4.90 2.89 55.50
2306 2019-01-19 14:07:46 ESP12E-S1 4.40 2.34 55.40
2305 2019-01-19 13:39:29 ESP12E-S1 3.80 1.76 58.50
2304 2019-01-19 13:11:16 ESP12E-S1 3.60 1.54 58.30
2303 2019-01-19 12:43:02 ESP12E-S1 3.30 1.23 59.00
2302 2019-01-19 12:14:46 ESP12E-S1 2.80 0.69 59.40
2301 2019-01-19 11:46:31 ESP12E-S1 2.10 -0.04 61.20
2300 2019-01-19 11:18:20 ESP12E-S1 1.10 -1.08 63.20
2299 2019-01-19 10:50:02 ESP12E-S1 0.40 -1.83 64.10
2298 2019-01-19 10:21:43 ESP12E-S1 -0.40 -2.64 66.90
2297 2019-01-19 09:53:25 ESP12E-S1 -1.20 -3.48 68.40
2296 2019-01-19 09:25:11 ESP12E-S1 -1.80 -4.11 69.30
2295 2019-01-19 08:57:07 ESP12E-S1 -2.00 -4.35 68.90
2294 2019-01-19 08:28:53 ESP12E-S1 -2.00 -4.33 69.40
2293 2019-01-19 08:00:52 ESP12E-S1 -2.00 -4.36 68.30
2292 2019-01-19 07:32:36 ESP12E-S1 -1.80 -4.14 68.30
2291 2019-01-19 07:04:24 ESP12E-S1 -1.70 -4.06 67.30
2290 2019-01-19 06:36:12 ESP12E-S1 -1.60 -3.95 67.20
2289 2019-01-19 06:08:00 ESP12E-S1 -1.50 -3.84 67.20
2288 2019-01-19 05:39:48 ESP12E-S1 -1.40 -3.72 67.50
2287 2019-01-19 05:11:37 ESP12E-S1 -1.30 -3.59 68.20
2286 2019-01-19 04:43:25 ESP12E-S1 -1.20 -3.46 69.10
2285 2019-01-19 04:15:14 ESP12E-S1 -1.20 -3.44 69.80
2284 2019-01-19 03:47:03 ESP12E-S1 -1.10 -3.32 70.30
2283 2019-01-19 03:18:51 ESP12E-S1 -1.10 -3.31 70.50
2282 2019-01-19 02:50:40 ESP12E-S1 -1.00 -3.20 70.50
2281 2019-01-19 02:22:28 ESP12E-S1 -0.90 -3.11 70.00
2280 2019-01-19 01:54:18 ESP12E-S1 -0.70 -2.91 69.10
2279 2019-01-19 01:26:07 ESP12E-S1 -0.50 -2.73 67.70
2278 2019-01-19 00:57:56 ESP12E-S1 -0.40 -2.64 66.80
2277 2019-01-19 00:29:45 ESP12E-S1 -0.40 -2.65 66.30
2276 2019-01-19 00:01:34 ESP12E-S1 -0.20 -2.46 65.30
2275 2019-01-18 23:33:24 ESP12E-S1 -0.10 -2.33 66.10
2274 2019-01-18 23:05:13 ESP12E-S1 0.10 -2.11 65.90
2273 2019-01-18 22:37:07 ESP12E-S1 0.30 -1.90 65.80
2272 2019-01-18 22:08:53 ESP12E-S1 0.30 -1.83 68.20
2271 2019-01-18 21:40:41 ESP12E-S1 0.40 -1.68 69.90
2270 2019-01-18 21:12:30 ESP12E-S1 0.30 -1.77 70.80
2269 2019-01-18 20:44:19 ESP12E-S1 0.50 -1.54 71.10
2268 2019-01-18 20:16:07 ESP12E-S1 0.60 -1.44 70.70
2267 2019-01-18 19:47:55 ESP12E-S1 0.60 -1.42 71.40
2266 2019-01-18 19:19:45 ESP12E-S1 0.70 -1.26 73.20
2265 2019-01-18 18:51:41 ESP12E-S1 0.90 -1.04 73.20
2264 2019-01-18 18:23:31 ESP12E-S1 1.30 -0.66 71.20
2263 2019-01-18 17:55:22 ESP12E-S1 1.70 -0.27 69.00
2262 2019-01-18 17:27:15 ESP12E-S1 2.40 0.44 66.90
2261 2019-01-18 16:59:06 ESP12E-S1 2.80 0.79 63.50
2260 2019-01-18 16:30:58 ESP12E-S1 3.70 1.72 61.10
2259 2019-01-18 16:02:52 ESP12E-S1 4.30 2.34 59.40
2258 2019-01-18 15:34:40 ESP12E-S1 5.00 3.05 57.30
2257 2019-01-18 15:06:32 ESP12E-S1 5.40 3.50 57.50
2256 2019-01-18 14:38:18 ESP12E-S1 5.60 3.72 57.70
2255 2019-01-18 14:10:02 ESP12E-S1 4.90 3.00 59.50
2254 2019-01-18 13:41:48 ESP12E-S1 5.30 3.39 57.50
2253 2019-01-18 13:13:37 ESP12E-S1 5.50 3.61 57.60
2252 2019-01-18 12:45:21 ESP12E-S1 5.30 3.53 62.80
2251 2019-01-18 12:17:11 ESP12E-S1 4.80 2.91 60.30
2250 2019-01-18 11:49:05 ESP12E-S1 4.90 3.03 60.70
2249 2019-01-18 11:20:47 ESP12E-S1 3.80 2.00 67.60
2248 2019-01-18 10:52:32 ESP12E-S1 2.50 0.62 69.40
2247 2019-01-18 10:24:13 ESP12E-S1 1.60 -0.22 75.30
2246 2019-01-18 09:55:56 ESP12E-S1 0.80 -1.06 76.90
2245 2019-01-18 09:27:41 ESP12E-S1 0.20 -1.66 79.10
2244 2019-01-18 08:59:28 ESP12E-S1 0.20 -1.62 80.70
2243 2019-01-18 08:31:18 ESP12E-S1 0.30 -1.51 80.70
2242 2019-01-18 08:03:07 ESP12E-S1 0.40 -1.41 80.20
2241 2019-01-18 07:34:56 ESP12E-S1 0.60 -1.11 83.30
2240 2019-01-18 07:06:45 ESP12E-S1 0.60 -1.08 84.40
2239 2019-01-18 06:38:34 ESP12E-S1 0.70 -1.00 83.20
2238 2019-01-18 06:10:23 ESP12E-S1 0.70 -0.91 86.80
2237 2019-01-18 05:42:11 ESP12E-S1 0.60 -1.00 87.50
2236 2019-01-18 05:13:59 ESP12E-S1 0.50 -1.08 88.60
2235 2019-01-18 04:45:48 ESP12E-S1 0.50 -1.13 86.60
2234 2019-01-18 04:17:37 ESP12E-S1 0.50 -1.14 86.40
2233 2019-01-18 03:49:27 ESP12E-S1 0.60 -0.97 88.50
2232 2019-01-18 03:21:15 ESP12E-S1 0.50 -1.10 87.70
2231 2019-01-18 02:53:05 ESP12E-S1 0.50 -1.14 86.40
2230 2019-01-18 02:24:54 ESP12E-S1 0.60 -0.99 88.00
2229 2019-01-18 01:56:43 ESP12E-S1 0.70 -0.90 87.00
2228 2019-01-18 01:28:31 ESP12E-S1 0.70 -0.83 89.60
2227 2019-01-18 01:00:21 ESP12E-S1 0.80 -0.87 84.00
2226 2019-01-18 00:32:11 ESP12E-S1 0.90 -0.81 82.20
2225 2019-01-18 00:04:01 ESP12E-S1 1.10 -0.51 85.20
2224 2019-01-17 23:35:51 ESP12E-S1 1.20 -0.38 86.10
2223 2019-01-17 23:07:39 ESP12E-S1 1.30 -0.37 82.10
2222 2019-01-17 22:39:28 ESP12E-S1 1.20 -0.56 79.20
2221 2019-01-17 22:11:15 ESP12E-S1 1.10 -0.69 78.20
2220 2019-01-17 21:43:05 ESP12E-S1 1.20 -0.55 79.60
2219 2019-01-17 21:14:55 ESP12E-S1 1.40 -0.37 78.10
2218 2019-01-17 20:46:46 ESP12E-S1 1.70 -0.05 77.40
2217 2019-01-17 20:18:37 ESP12E-S1 2.00 0.24 76.10
2216 2019-01-17 19:50:31 ESP12E-S1 2.30 0.56 75.70
2215 2019-01-17 19:22:25 ESP12E-S1 3.00 1.25 72.40
2214 2019-01-17 18:54:31 ESP12E-S1 4.90 3.14 64.80
2213 2019-01-17 18:26:54 ESP12E-S1 17.00 16.05 49.70
2212 2019-01-16 03:30:53 ESP12E-S1 3.50 2.51 99.90
2211 2019-01-16 03:02:20 ESP12E-S1 3.60 2.62 99.90
2210 2019-01-16 02:33:47 ESP12E-S1 3.70 2.73 99.90
2209 2019-01-16 02:05:19 ESP12E-S1 3.70 2.73 99.90
2208 2019-01-16 01:36:44 ESP12E-S1 3.80 2.81 98.70
2207 2019-01-16 01:08:11 ESP12E-S1 3.90 2.91 98.20
2206 2019-01-16 00:39:38 ESP12E-S1 4.00 2.99 97.20
2205 2019-01-16 00:11:06 ESP12E-S1 4.00 2.99 96.90
2204 2019-01-15 23:42:36 ESP12E-S1 4.10 3.08 96.40
2203 2019-01-15 23:14:03 ESP12E-S1 5.00 4.07 96.30
2202 2019-01-15 22:45:30 ESP12E-S1 4.20 3.17 95.70
2201 2019-01-15 22:16:59 ESP12E-S1 4.20 3.17 95.60
2200 2019-01-15 21:48:25 ESP12E-S1 4.20 3.17 95.60
2199 2019-01-15 21:19:54 ESP12E-S1 4.20 3.17 95.70
2198 2019-01-15 20:51:22 ESP12E-S1 4.20 3.16 95.10
2197 2019-01-15 20:22:50 ESP12E-S1 4.30 3.26 94.70
2196 2019-01-15 19:54:17 ESP12E-S1 4.30 3.25 94.20
2195 2019-01-15 19:25:47 ESP12E-S1 4.40 3.31 92.50
2194 2019-01-15 18:57:20 ESP12E-S1 4.40 3.31 92.30
2193 2019-01-15 18:28:47 ESP12E-S1 4.50 3.42 92.60
2192 2019-01-15 18:00:15 ESP12E-S1 4.60 3.53 92.40
2191 2019-01-15 17:31:45 ESP12E-S1 4.60 3.53 92.40
2190 2019-01-15 17:03:14 ESP12E-S1 4.90 3.81 90.70
2189 2019-01-15 16:34:44 ESP12E-S1 5.20 4.06 87.50
2188 2019-01-15 16:06:14 ESP12E-S1 5.50 4.32 84.70
2187 2019-01-15 15:37:44 ESP12E-S1 6.00 4.83 83.10
2186 2019-01-15 15:09:11 ESP12E-S1 6.10 4.97 84.40
2185 2019-01-15 14:40:38 ESP12E-S1 5.40 4.25 86.20
2184 2019-01-15 14:12:07 ESP12E-S1 5.40 4.27 87.20
2183 2019-01-15 13:43:33 ESP12E-S1 5.00 3.88 88.90
2182 2019-01-15 13:14:57 ESP12E-S1 4.40 3.30 91.90
2181 2019-01-15 12:46:23 ESP12E-S1 3.90 2.78 93.40
2180 2019-01-15 12:17:48 ESP12E-S1 3.60 2.47 94.10
2179 2019-01-15 11:49:22 ESP12E-S1 3.40 2.24 93.80
2178 2019-01-15 11:20:48 ESP12E-S1 7.20 6.46 95.00
2177 2019-01-15 10:52:17 ESP12E-S1 2.10 0.77 92.10
2176 2019-01-15 10:23:45 ESP12E-S1 3.00 1.77 92.30
2175 2019-01-15 09:55:10 ESP12E-S1 2.70 1.45 92.80
2174 2019-01-15 09:26:38 ESP12E-S1 2.50 1.24 93.20
2173 2019-01-15 08:58:06 ESP12E-S1 2.20 0.91 93.30
2172 2019-01-15 08:29:34 ESP12E-S1 2.10 0.82 94.10
2171 2019-01-15 08:01:04 ESP12E-S1 2.10 0.82 94.10
2170 2019-01-15 07:32:35 ESP12E-S1 2.10 0.81 93.70
2169 2019-01-15 07:04:03 ESP12E-S1 2.00 0.69 93.30
2168 2019-01-15 06:35:33 ESP12E-S1 1.90 0.57 92.80
2167 2019-01-15 06:07:03 ESP12E-S1 2.00 0.67 92.40
2166 2019-01-15 05:38:32 ESP12E-S1 1.90 0.56 92.40
2165 2019-01-15 05:10:01 ESP12E-S1 1.90 0.58 93.10
2164 2019-01-15 04:41:31 ESP12E-S1 1.80 0.48 93.70
2163 2019-01-15 04:13:00 ESP12E-S1 1.80 0.48 93.70
2162 2019-01-15 03:44:29 ESP12E-S1 1.80 0.50 94.50
2161 2019-01-15 03:15:59 ESP12E-S1 1.80 0.50 94.50
2160 2019-01-15 02:47:30 ESP12E-S1 1.80 0.50 94.30
2159 2019-01-15 02:19:02 ESP12E-S1 2.00 0.72 94.30
2158 2019-01-15 01:50:32 ESP12E-S1 2.00 0.72 94.20
2157 2019-01-15 01:22:03 ESP12E-S1 2.00 0.71 93.90
2156 2019-01-15 00:53:33 ESP12E-S1 2.10 0.81 93.50
2155 2019-01-15 00:25:04 ESP12E-S1 2.10 0.81 93.70
2154 2019-01-14 23:56:34 ESP12E-S1 2.20 0.93 93.90
2153 2019-01-14 23:28:05 ESP12E-S1 2.10 0.82 94.00
2152 2019-01-14 22:59:35 ESP12E-S1 2.20 0.92 93.80
2151 2019-01-14 22:31:05 ESP12E-S1 2.10 0.81 93.50
2150 2019-01-14 22:02:36 ESP12E-S1 2.00 0.70 93.50
2149 2019-01-14 21:34:13 ESP12E-S1 2.00 0.69 93.20
2148 2019-01-14 21:05:42 ESP12E-S1 2.00 0.67 92.50
2147 2019-01-14 20:37:13 ESP12E-S1 2.10 0.80 93.20
2146 2019-01-14 20:08:44 ESP12E-S1 2.20 0.90 92.70
2145 2019-01-14 19:40:16 ESP12E-S1 2.30 1.01 92.80
2144 2019-01-14 19:11:48 ESP12E-S1 2.40 1.12 93.00
2143 2019-01-14 18:43:22 ESP12E-S1 2.70 1.44 92.40
2142 2019-01-14 18:14:56 ESP12E-S1 3.00 1.73 90.90
2141 2019-01-14 17:46:30 ESP12E-S1 3.30 2.04 90.10
2140 2019-01-14 17:18:03 ESP12E-S1 3.60 2.39 91.00
2139 2019-01-14 16:49:38 ESP12E-S1 4.00 2.81 90.10
2138 2019-01-14 16:21:12 ESP12E-S1 4.80 3.59 86.20
2137 2019-01-14 15:52:49 ESP12E-S1 5.60 4.49 87.20
2136 2019-01-14 15:24:25 ESP12E-S1 6.40 5.41 88.80
2135 2019-01-14 14:55:57 ESP12E-S1 8.70 7.96 89.30
2134 2019-01-14 14:27:30 ESP12E-S1 6.70 5.73 88.10
2133 2019-01-14 13:59:01 ESP12E-S1 6.80 5.90 90.60
2132 2019-01-14 13:30:31 ESP12E-S1 6.70 5.83 92.10
2131 2019-01-14 13:02:01 ESP12E-S1 6.20 5.31 93.30
2130 2019-01-14 12:33:29 ESP12E-S1 5.70 4.84 96.40
2129 2019-01-14 12:04:55 ESP12E-S1 4.90 3.99 97.50
2128 2019-01-14 11:36:23 ESP12E-S1 4.60 3.67 98.00
2127 2019-01-14 11:07:51 ESP12E-S1 3.70 2.71 99.00
2126 2019-01-14 10:39:22 ESP12E-S1 3.70 2.71 98.80
2125 2019-01-14 10:10:53 ESP12E-S1 3.40 2.37 98.50
2124 2019-01-14 09:42:26 ESP12E-S1 3.50 2.46 98.00
2123 2019-01-14 09:13:58 ESP12E-S1 3.70 2.73 99.90
2122 2019-01-14 08:45:32 ESP12E-S1 3.70 2.72 99.30
2121 2019-01-14 08:17:03 ESP12E-S1 3.80 2.84 99.60
2120 2019-01-14 07:48:36 ESP12E-S1 3.90 2.95 99.80
2119 2019-01-14 07:20:09 ESP12E-S1 3.90 2.93 99.10
2118 2019-01-14 06:51:41 ESP12E-S1 4.20 3.28 99.90
2117 2019-01-14 06:23:12 ESP12E-S1 4.30 3.39 99.90
2116 2019-01-14 05:54:44 ESP12E-S1 4.30 3.39 99.90
2115 2019-01-14 05:26:15 ESP12E-S1 4.20 3.28 99.70
2114 2019-01-14 04:57:47 ESP12E-S1 4.30 3.35 98.20
2113 2019-01-14 04:29:20 ESP12E-S1 4.40 3.46 98.30
2112 2019-01-14 04:00:53 ESP12E-S1 4.50 3.58 98.50
2111 2019-01-14 03:32:25 ESP12E-S1 4.60 3.71 99.20
2110 2019-01-14 03:03:57 ESP12E-S1 4.60 3.68 98.10
2109 2019-01-14 02:35:32 ESP12E-S1 4.80 3.91 98.60
2108 2019-01-14 02:07:05 ESP12E-S1 5.00 4.12 98.20
2107 2019-01-14 01:38:37 ESP12E-S1 5.00 4.12 98.20
2106 2019-01-14 01:10:09 ESP12E-S1 5.00 4.15 99.20
2105 2019-01-14 00:41:40 ESP12E-S1 5.00 4.15 99.40
2104 2019-01-14 00:13:12 ESP12E-S1 5.00 4.16 99.90
2103 2019-01-13 23:44:45 ESP12E-S1 5.00 4.16 99.90
2102 2019-01-13 23:16:17 ESP12E-S1 5.00 4.16 99.90
2101 2019-01-13 22:47:50 ESP12E-S1 5.00 4.16 99.90
2100 2019-01-13 22:19:25 ESP12E-S1 5.30 4.47 98.80
2099 2019-01-13 21:51:05 ESP12E-S1 6.30 5.53 97.50
2098 2019-01-13 21:22:38 ESP12E-S1 6.50 5.81 99.90
2097 2019-01-13 20:54:13 ESP12E-S1 6.80 6.14 99.90
2096 2019-01-13 20:25:45 ESP12E-S1 6.90 6.25 99.90
2095 2019-01-13 19:57:18 ESP12E-S1 7.10 6.47 99.90
2094 2019-01-13 19:28:52 ESP12E-S1 7.20 6.58 99.90
2093 2019-01-13 19:00:26 ESP12E-S1 7.30 6.69 99.90
2092 2019-01-13 18:31:59 ESP12E-S1 7.40 6.80 99.90
2091 2019-01-13 18:03:31 ESP12E-S1 7.40 6.80 99.90
2090 2019-01-13 17:35:05 ESP12E-S1 7.40 6.80 99.90
2089 2019-01-13 17:06:38 ESP12E-S1 7.40 6.80 99.90
2088 2019-01-13 16:38:11 ESP12E-S1 7.50 6.91 99.90
2087 2019-01-13 16:09:43 ESP12E-S1 7.50 6.91 99.90
2086 2019-01-13 15:41:16 ESP12E-S1 7.50 6.91 99.90
2085 2019-01-13 15:12:48 ESP12E-S1 7.40 6.80 99.90
2084 2019-01-13 14:44:20 ESP12E-S1 7.30 6.69 99.90
2083 2019-01-13 14:15:51 ESP12E-S1 7.30 6.69 99.90
2082 2019-01-13 13:47:22 ESP12E-S1 7.00 6.36 99.90
2081 2019-01-13 13:18:53 ESP12E-S1 9.20 8.78 99.90
2080 2019-01-13 12:50:24 ESP12E-S1 6.50 5.81 99.90
2079 2019-01-13 12:21:55 ESP12E-S1 6.10 5.37 99.90
2078 2019-01-13 11:53:24 ESP12E-S1 5.60 4.82 99.90
2077 2019-01-13 11:24:56 ESP12E-S1 5.40 4.60 99.90
2076 2019-01-13 10:56:27 ESP12E-S1 5.30 4.49 99.90
2075 2019-01-13 10:27:58 ESP12E-S1 5.10 4.27 99.90
2074 2019-01-13 09:59:30 ESP12E-S1 5.00 4.16 99.90
2073 2019-01-13 09:31:39 ESP12E-S1 4.90 4.05 99.90
2072 2019-01-13 09:02:47 ESP12E-S1 4.90 4.05 99.90
2071 2019-01-13 08:34:24 ESP12E-S1 4.80 3.94 99.90
2070 2019-01-13 08:05:57 ESP12E-S1 4.70 3.83 99.90
2069 2019-01-13 07:37:33 ESP12E-S1 4.70 3.83 99.90
2068 2019-01-13 07:09:05 ESP12E-S1 4.60 3.72 99.90
2067 2019-01-13 06:40:37 ESP12E-S1 4.60 3.72 99.90
2066 2019-01-13 06:12:11 ESP12E-S1 4.50 3.61 99.90
2065 2019-01-13 05:43:45 ESP12E-S1 4.50 3.61 99.90
2064 2019-01-13 05:15:18 ESP12E-S1 4.40 3.50 99.90
2063 2019-01-13 04:46:51 ESP12E-S1 4.40 3.50 99.90
2062 2019-01-13 04:18:25 ESP12E-S1 4.60 3.72 99.90
2061 2019-01-13 03:49:58 ESP12E-S1 4.50 3.61 99.90
2060 2019-01-13 03:21:31 ESP12E-S1 4.50 3.61 99.90
2059 2019-01-13 02:53:04 ESP12E-S1 4.50 3.61 99.90
2058 2019-01-13 02:24:38 ESP12E-S1 4.50 3.61 99.90
2057 2019-01-13 01:56:14 ESP12E-S1 4.60 3.72 99.90
2056 2019-01-13 01:27:47 ESP12E-S1 4.50 3.61 99.90
2055 2019-01-13 00:59:21 ESP12E-S1 4.50 3.61 99.90
2054 2019-01-13 00:30:54 ESP12E-S1 4.40 3.50 99.90
2053 2019-01-13 00:02:26 ESP12E-S1 4.20 3.28 99.90
2052 2019-01-12 23:33:59 ESP12E-S1 4.20 3.28 99.90
2051 2019-01-12 23:05:33 ESP12E-S1 4.20 3.28 99.90
2050 2019-01-12 22:37:06 ESP12E-S1 4.40 3.50 99.90
2049 2019-01-12 22:08:39 ESP12E-S1 4.20 3.28 99.90
2048 2019-01-12 21:40:11 ESP12E-S1 3.90 2.95 99.90
2047 2019-01-12 21:11:43 ESP12E-S1 3.80 2.84 99.90
2046 2019-01-12 20:43:16 ESP12E-S1 3.70 2.73 99.90
2045 2019-01-12 20:14:49 ESP12E-S1 3.70 2.73 99.90
2044 2019-01-12 19:46:23 ESP12E-S1 3.70 2.73 99.90
2043 2019-01-12 19:17:56 ESP12E-S1 3.70 2.73 99.90
2042 2019-01-12 18:49:34 ESP12E-S1 3.70 2.73 99.90
2041 2019-01-12 18:21:06 ESP12E-S1 3.60 2.62 99.90
2040 2019-01-12 17:52:39 ESP12E-S1 3.60 2.62 99.90
2039 2019-01-12 17:24:13 ESP12E-S1 3.60 2.62 99.90
2038 2019-01-12 16:55:46 ESP12E-S1 3.50 2.51 99.90
2037 2019-01-12 16:27:21 ESP12E-S1 3.50 2.51 99.90
2036 2019-01-12 15:59:25 ESP12E-S1 3.50 2.51 99.90
2035 2019-01-12 15:30:45 ESP12E-S1 3.50 2.51 99.80
2034 2019-01-12 15:02:18 ESP12E-S1 3.50 2.51 99.70
2033 2019-01-12 14:33:53 ESP12E-S1 3.80 2.84 99.80
2032 2019-01-12 14:05:27 ESP12E-S1 3.50 2.51 99.60
2031 2019-01-12 13:37:07 ESP12E-S1 3.60 2.61 99.20
2030 2019-01-12 13:08:41 ESP12E-S1 3.70 2.69 98.30
2029 2019-01-12 12:40:16 ESP12E-S1 3.80 2.81 98.60
2028 2019-01-12 12:11:50 ESP12E-S1 3.70 2.71 98.80
2027 2019-01-12 11:43:25 ESP12E-S1 3.80 2.81 98.50
2026 2019-01-12 11:15:00 ESP12E-S1 4.00 3.00 97.30
2025 2019-01-12 10:46:33 ESP12E-S1 4.00 3.02 98.30
2024 2019-01-12 10:18:09 ESP12E-S1 3.90 2.94 99.40
2023 2019-01-12 09:49:42 ESP12E-S1 5.40 4.60 99.90
2022 2019-01-12 09:21:18 ESP12E-S1 3.80 2.84 99.80
2021 2019-01-12 08:52:52 ESP12E-S1 3.70 2.73 99.90
2020 2019-01-12 08:24:28 ESP12E-S1 3.70 2.73 99.90
2019 2019-01-12 07:56:03 ESP12E-S1 3.80 2.84 99.90
2018 2019-01-12 07:27:37 ESP12E-S1 3.70 2.73 99.90
2017 2019-01-12 06:59:12 ESP12E-S1 3.80 2.84 99.90
2016 2019-01-12 06:30:46 ESP12E-S1 3.90 2.95 99.90
2015 2019-01-12 06:02:21 ESP12E-S1 3.90 2.95 99.90
2014 2019-01-12 05:33:55 ESP12E-S1 3.90 2.95 99.90
2013 2019-01-12 05:05:31 ESP12E-S1 4.00 3.06 99.90
2012 2019-01-12 04:37:05 ESP12E-S1 4.00 3.06 99.90
2011 2019-01-12 04:08:39 ESP12E-S1 4.00 3.06 99.90
2010 2019-01-12 03:40:12 ESP12E-S1 3.90 2.95 99.90
2009 2019-01-12 03:11:46 ESP12E-S1 3.80 2.84 99.90
2008 2019-01-12 02:43:19 ESP12E-S1 3.60 2.62 99.90
2007 2019-01-12 02:14:50 ESP12E-S1 3.20 2.18 99.90
2006 2019-01-12 01:46:21 ESP12E-S1 2.60 1.52 99.90
2005 2019-01-12 01:17:54 ESP12E-S1 2.40 1.30 99.90
2004 2019-01-12 00:49:26 ESP12E-S1 1.90 0.75 99.90
2003 2019-01-12 00:21:00 ESP12E-S1 1.80 0.64 99.90
2002 2019-01-11 23:52:35 ESP12E-S1 1.70 0.53 99.90
2001 2019-01-11 23:24:09 ESP12E-S1 1.60 0.42 99.90
2000 2019-01-11 22:55:43 ESP12E-S1 1.50 0.31 99.90
1999 2019-01-11 22:27:21 ESP12E-S1 1.50 0.31 99.90
1998 2019-01-11 21:58:55 ESP12E-S1 1.60 0.42 99.90
1997 2019-01-11 21:30:31 ESP12E-S1 1.60 0.42 99.90
1996 2019-01-11 21:02:04 ESP12E-S1 1.50 0.31 99.90
1995 2019-01-11 20:33:38 ESP12E-S1 1.40 0.20 99.90
1994 2019-01-11 20:05:12 ESP12E-S1 1.30 0.09 99.90
1993 2019-01-11 19:36:55 ESP12E-S1 1.20 -0.02 99.70
1992 2019-01-11 19:08:30 ESP12E-S1 1.20 -0.03 99.50
1991 2019-01-11 18:40:09 ESP12E-S1 1.20 -0.03 99.40
1990 2019-01-11 18:11:42 ESP12E-S1 1.20 -0.03 99.30
1989 2019-01-11 17:43:18 ESP12E-S1 1.10 -0.15 99.10
1988 2019-01-11 17:14:52 ESP12E-S1 1.00 -0.26 98.80
1987 2019-01-11 16:46:27 ESP12E-S1 1.00 -0.26 98.80
1986 2019-01-11 16:18:02 ESP12E-S1 1.00 -0.27 98.50
1985 2019-01-11 15:49:40 ESP12E-S1 1.20 -0.06 98.40
1984 2019-01-11 15:21:16 ESP12E-S1 1.30 0.05 98.20
1983 2019-01-11 14:52:50 ESP12E-S1 1.30 0.04 97.80
1982 2019-01-11 14:24:31 ESP12E-S1 1.30 0.03 97.30
1981 2019-01-11 13:56:10 ESP12E-S1 1.00 -0.30 97.60
1980 2019-01-11 13:27:45 ESP12E-S1 0.60 -0.74 97.50
1979 2019-01-11 12:59:18 ESP12E-S1 0.30 -1.07 97.40
1978 2019-01-11 12:30:53 ESP12E-S1 0.20 -1.20 96.80
1977 2019-01-11 12:02:28 ESP12E-S1 0.20 -1.19 96.90
1976 2019-01-11 11:34:03 ESP12E-S1 0.10 -1.31 96.80
1975 2019-01-11 11:05:38 ESP12E-S1 0.00 -1.42 96.60
1974 2019-01-11 10:37:16 ESP12E-S1 -0.10 -1.54 96.30
1973 2019-01-11 10:08:50 ESP12E-S1 -0.20 -1.65 96.30
1972 2019-01-11 09:40:25 ESP12E-S1 -0.20 -1.65 96.40
1971 2019-01-11 09:12:00 ESP12E-S1 -0.20 -1.65 96.30
1970 2019-01-11 08:43:35 ESP12E-S1 -0.10 -1.54 96.30
1969 2019-01-11 08:15:18 ESP12E-S1 0.00 -1.44 95.80
1968 2019-01-11 07:46:51 ESP12E-S1 0.00 -1.44 95.90
1967 2019-01-11 07:18:30 ESP12E-S1 0.00 -1.45 95.40
1966 2019-01-11 06:50:05 ESP12E-S1 0.10 -1.37 94.50
1965 2019-01-11 06:21:40 ESP12E-S1 0.10 -1.37 94.30
1964 2019-01-11 05:53:15 ESP12E-S1 0.10 -1.38 93.90
1963 2019-01-11 05:24:53 ESP12E-S1 0.10 -1.41 92.80
1962 2019-01-11 04:56:28 ESP12E-S1 0.00 -1.55 91.70
1961 2019-01-11 04:28:02 ESP12E-S1 0.10 -1.45 91.20
1960 2019-01-11 03:59:36 ESP12E-S1 0.10 -1.46 91.00
1959 2019-01-11 03:31:11 ESP12E-S1 0.10 -1.47 90.50
1958 2019-01-11 03:02:46 ESP12E-S1 0.00 -1.63 88.70
1957 2019-01-11 02:34:21 ESP12E-S1 -0.10 -1.74 88.70
1956 2019-01-11 02:06:00 ESP12E-S1 -0.20 -1.90 86.70
1955 2019-01-11 01:37:34 ESP12E-S1 -0.20 -1.93 85.60
1954 2019-01-11 01:09:10 ESP12E-S1 -0.30 -2.08 84.10
1953 2019-01-11 00:40:45 ESP12E-S1 -0.40 -2.20 83.60
1952 2019-01-11 00:12:21 ESP12E-S1 -0.30 -2.11 82.80
1951 2019-01-10 23:43:57 ESP12E-S1 -0.20 -2.04 81.50
1950 2019-01-10 23:15:33 ESP12E-S1 -0.20 -2.07 80.20
1949 2019-01-10 22:47:10 ESP12E-S1 -0.20 -2.01 82.40
1948 2019-01-10 22:18:45 ESP12E-S1 -0.30 -2.17 80.70
1947 2019-01-10 21:50:21 ESP12E-S1 -0.30 -2.19 79.80
1946 2019-01-10 21:21:58 ESP12E-S1 -0.20 -2.09 79.40
1945 2019-01-10 20:53:34 ESP12E-S1 -0.30 -2.23 78.20
1944 2019-01-10 20:25:11 ESP12E-S1 -0.20 -2.11 78.70
1943 2019-01-10 19:56:47 ESP12E-S1 -0.10 -2.05 76.70
1942 2019-01-10 19:28:24 ESP12E-S1 0.10 -1.90 74.20
1941 2019-01-10 18:59:59 ESP12E-S1 0.10 -1.86 75.50
1940 2019-01-10 18:31:35 ESP12E-S1 0.30 -1.67 74.30
1939 2019-01-10 18:03:15 ESP12E-S1 0.60 -1.39 72.60
1938 2019-01-10 17:34:51 ESP12E-S1 0.80 -1.18 72.10
1937 2019-01-10 17:06:30 ESP12E-S1 0.50 -1.61 68.40
1936 2019-01-10 16:38:09 ESP12E-S1 1.70 -0.32 67.30
1935 2019-01-10 16:09:46 ESP12E-S1 1.90 -0.07 68.20
1934 2019-01-10 15:41:25 ESP12E-S1 2.50 0.54 66.40
1933 2019-01-10 15:13:03 ESP12E-S1 2.80 0.91 67.80
1932 2019-01-10 14:44:39 ESP12E-S1 2.70 0.80 67.80
1931 2019-01-10 14:16:14 ESP12E-S1 2.70 0.84 69.40
1930 2019-01-10 13:47:49 ESP12E-S1 2.60 0.77 71.10
1929 2019-01-10 13:19:27 ESP12E-S1 2.80 0.97 70.20
1928 2019-01-10 12:51:04 ESP12E-S1 3.10 1.21 66.90
1927 2019-01-10 12:22:41 ESP12E-S1 3.20 1.41 70.10
1926 2019-01-10 11:54:19 ESP12E-S1 3.40 1.63 70.30
1925 2019-01-10 11:26:02 ESP12E-S1 3.30 1.53 70.70
1924 2019-01-10 10:57:29 ESP12E-S1 2.80 1.15 77.10
1923 2019-01-10 10:29:00 ESP12E-S1 1.90 0.24 80.30
1922 2019-01-10 10:00:33 ESP12E-S1 1.40 -0.25 82.50
1921 2019-01-10 09:32:08 ESP12E-S1 1.20 -0.48 82.10
1920 2019-01-10 09:03:42 ESP12E-S1 1.00 -0.61 85.70
1919 2019-01-10 08:35:16 ESP12E-S1 0.70 -0.93 85.90
1918 2019-01-10 08:06:52 ESP12E-S1 0.70 -0.92 86.40
1917 2019-01-10 07:38:28 ESP12E-S1 0.80 -0.80 86.80
1916 2019-01-10 07:10:04 ESP12E-S1 0.80 -0.81 86.40
1915 2019-01-10 06:41:40 ESP12E-S1 1.00 -0.59 86.40
1914 2019-01-10 06:13:17 ESP12E-S1 1.10 -0.50 85.50
1913 2019-01-10 05:44:52 ESP12E-S1 1.10 -0.50 85.70
1912 2019-01-10 05:16:28 ESP12E-S1 1.20 -0.39 85.60
1911 2019-01-10 04:48:03 ESP12E-S1 1.20 -0.38 85.80
1910 2019-01-10 04:19:40 ESP12E-S1 1.20 -0.38 85.90
1909 2019-01-10 03:51:16 ESP12E-S1 1.20 -0.39 85.70
1908 2019-01-10 03:22:52 ESP12E-S1 1.20 -0.41 84.70
1907 2019-01-10 02:54:27 ESP12E-S1 1.20 -0.40 85.10
1906 2019-01-10 02:26:02 ESP12E-S1 1.20 -0.39 85.40
1905 2019-01-10 01:57:39 ESP12E-S1 1.20 -0.42 84.50
1904 2019-01-10 01:29:14 ESP12E-S1 1.10 -0.52 84.80
1903 2019-01-10 01:00:50 ESP12E-S1 1.10 -0.54 84.20
1902 2019-01-10 00:32:25 ESP12E-S1 1.10 -0.54 84.20
1901 2019-01-10 00:04:01 ESP12E-S1 1.00 -0.65 84.10
1900 2019-01-09 23:35:37 ESP12E-S1 1.00 -0.65 84.00
1899 2019-01-09 23:07:14 ESP12E-S1 0.90 -0.76 83.90
1898 2019-01-09 22:38:51 ESP12E-S1 1.00 -0.66 83.70
1897 2019-01-09 22:10:27 ESP12E-S1 1.10 -0.54 84.10
1896 2019-01-09 21:42:04 ESP12E-S1 1.20 -0.45 83.40
1895 2019-01-09 21:13:39 ESP12E-S1 1.80 0.28 85.90
1894 2019-01-09 20:45:25 ESP12E-S1 1.20 -0.48 82.30
1893 2019-01-09 20:17:08 ESP12E-S1 1.30 -0.41 80.70
1892 2019-01-09 19:48:43 ESP12E-S1 1.40 -0.34 79.20
1891 2019-01-09 19:20:21 ESP12E-S1 1.50 -0.22 79.40
1890 2019-01-09 18:51:58 ESP12E-S1 1.70 -0.02 78.80
1889 2019-01-09 18:23:36 ESP12E-S1 1.90 0.24 80.40
1888 2019-01-09 17:55:13 ESP12E-S1 2.00 0.39 81.90
1887 2019-01-09 17:26:56 ESP12E-S1 2.20 0.59 80.90
1886 2019-01-09 16:58:40 ESP12E-S1 2.30 0.66 79.40
1885 2019-01-09 16:30:16 ESP12E-S1 2.50 0.99 83.70
1884 2019-01-09 16:01:59 ESP12E-S1 2.60 1.07 82.60
1883 2019-01-09 15:33:36 ESP12E-S1 2.90 1.34 80.10
1882 2019-01-09 15:05:23 ESP12E-S1 3.10 1.55 79.70
1881 2019-01-09 14:36:57 ESP12E-S1 3.30 1.63 74.40
1880 2019-01-09 14:08:35 ESP12E-S1 3.70 2.15 77.50
1879 2019-01-09 13:40:15 ESP12E-S1 4.20 2.68 76.80
1878 2019-01-09 13:11:49 ESP12E-S1 3.60 2.09 79.40
1877 2019-01-09 12:43:26 ESP12E-S1 3.90 2.50 82.40
1876 2019-01-09 12:15:03 ESP12E-S1 3.70 2.38 86.30
1875 2019-01-09 11:46:39 ESP12E-S1 3.60 2.31 87.80
1874 2019-01-09 11:18:11 ESP12E-S1 3.00 1.77 92.50
1873 2019-01-09 10:49:44 ESP12E-S1 2.20 0.92 93.50
1872 2019-01-09 10:21:20 ESP12E-S1 2.00 0.68 93.00
1871 2019-01-09 09:52:54 ESP12E-S1 1.70 0.37 93.50
1870 2019-01-09 09:24:30 ESP12E-S1 1.50 0.13 92.80
1869 2019-01-09 08:56:07 ESP12E-S1 1.40 0.02 92.70
1868 2019-01-09 08:27:44 ESP12E-S1 1.40 0.01 92.60
1867 2019-01-09 07:59:22 ESP12E-S1 1.50 0.15 93.70
1866 2019-01-09 07:30:58 ESP12E-S1 1.60 0.29 94.70
1865 2019-01-09 07:02:35 ESP12E-S1 1.70 0.41 95.00
1864 2019-01-09 06:34:11 ESP12E-S1 1.80 0.54 96.10
1863 2019-01-09 06:05:48 ESP12E-S1 1.80 0.53 95.70
1862 2019-01-09 05:37:25 ESP12E-S1 2.00 0.73 94.60
1861 2019-01-09 05:09:03 ESP12E-S1 2.20 0.96 95.30
1860 2019-01-09 04:40:40 ESP12E-S1 2.20 1.01 96.90
1859 2019-01-09 04:12:17 ESP12E-S1 2.20 1.00 96.60
1858 2019-01-09 03:43:54 ESP12E-S1 2.30 1.11 96.50
1857 2019-01-09 03:15:30 ESP12E-S1 2.40 1.23 97.10
1856 2019-01-09 02:47:06 ESP12E-S1 2.40 1.23 97.10
1855 2019-01-09 02:18:42 ESP12E-S1 2.40 1.22 96.80
1854 2019-01-09 01:50:20 ESP12E-S1 2.60 1.43 96.40
1853 2019-01-09 01:21:58 ESP12E-S1 2.80 1.66 96.80
1852 2019-01-09 00:53:35 ESP12E-S1 2.80 1.66 96.50
1851 2019-01-09 00:25:12 ESP12E-S1 2.70 1.55 96.50
1850 2019-01-08 23:56:50 ESP12E-S1 2.80 1.65 96.20
1849 2019-01-08 23:28:28 ESP12E-S1 2.90 1.75 96.00
1848 2019-01-08 23:00:03 ESP12E-S1 3.00 1.86 96.00
1847 2019-01-08 22:31:40 ESP12E-S1 3.00 1.86 96.10
1846 2019-01-08 22:03:18 ESP12E-S1 3.20 2.07 95.60
1845 2019-01-08 21:34:55 ESP12E-S1 3.40 2.27 94.60
1844 2019-01-08 21:06:33 ESP12E-S1 3.50 2.37 94.40
1843 2019-01-08 20:38:10 ESP12E-S1 3.50 2.39 95.00
1842 2019-01-08 20:09:48 ESP12E-S1 3.60 2.50 95.30
1841 2019-01-08 19:41:24 ESP12E-S1 3.70 2.60 94.90
1840 2019-01-08 19:12:59 ESP12E-S1 3.50 2.41 96.10
1839 2019-01-08 18:44:35 ESP12E-S1 3.40 2.29 95.70
1838 2019-01-08 18:16:15 ESP12E-S1 3.90 2.83 95.00
1837 2019-01-08 17:48:02 ESP12E-S1 4.30 3.23 93.50
1836 2019-01-08 17:19:37 ESP12E-S1 4.40 3.32 92.90
1835 2019-01-08 16:51:13 ESP12E-S1 4.30 3.23 93.60
1834 2019-01-08 16:22:50 ESP12E-S1 4.40 3.37 94.60
1833 2019-01-08 15:54:27 ESP12E-S1 4.50 3.45 93.80
1832 2019-01-08 15:26:06 ESP12E-S1 4.80 3.78 93.50
1831 2019-01-08 14:57:44 ESP12E-S1 5.20 4.21 93.20
1830 2019-01-08 14:29:18 ESP12E-S1 5.20 4.25 94.90
1829 2019-01-08 14:00:52 ESP12E-S1 4.80 3.83 95.70
1828 2019-01-08 13:32:26 ESP12E-S1 4.80 3.85 96.20
1827 2019-01-08 13:04:01 ESP12E-S1 4.60 3.64 96.60
1826 2019-01-08 12:35:38 ESP12E-S1 4.60 3.63 96.20
1825 2019-01-08 12:07:20 ESP12E-S1 4.50 3.51 96.00
1824 2019-01-08 11:38:56 ESP12E-S1 4.60 3.59 94.70
1823 2019-01-08 11:10:34 ESP12E-S1 4.40 3.39 95.70
1822 2019-01-08 10:42:09 ESP12E-S1 4.30 3.29 96.00
1821 2019-01-08 10:13:45 ESP12E-S1 4.40 3.38 95.10
1820 2019-01-08 09:45:23 ESP12E-S1 4.40 3.38 95.30
1819 2019-01-08 09:16:59 ESP12E-S1 4.40 3.40 95.90
1818 2019-01-08 08:48:36 ESP12E-S1 4.40 3.40 96.10
1817 2019-01-08 08:20:13 ESP12E-S1 4.40 3.44 97.30
1816 2019-01-08 07:51:50 ESP12E-S1 4.50 3.54 97.20
1815 2019-01-08 07:23:27 ESP12E-S1 4.70 3.76 97.00
1814 2019-01-08 06:55:06 ESP12E-S1 4.70 3.77 97.30
1813 2019-01-08 06:26:43 ESP12E-S1 4.70 3.78 97.90
1812 2019-01-08 05:58:20 ESP12E-S1 4.80 3.92 98.90
1811 2019-01-08 05:29:56 ESP12E-S1 4.80 3.91 98.70
1810 2019-01-08 05:01:34 ESP12E-S1 4.80 3.94 99.70
1809 2019-01-08 04:33:09 ESP12E-S1 4.60 3.72 99.90
1808 2019-01-08 04:04:44 ESP12E-S1 4.30 3.39 99.90
1807 2019-01-08 03:36:21 ESP12E-S1 4.10 3.17 99.90
1806 2019-01-08 03:07:57 ESP12E-S1 4.00 3.06 99.90
1805 2019-01-08 02:39:33 ESP12E-S1 3.80 2.84 99.90
1804 2019-01-08 02:11:10 ESP12E-S1 3.70 2.73 99.90
1803 2019-01-08 01:42:47 ESP12E-S1 3.60 2.62 99.90
1802 2019-01-08 01:14:23 ESP12E-S1 3.50 2.51 99.90
1801 2019-01-08 00:46:01 ESP12E-S1 3.50 2.51 99.90
1800 2019-01-08 00:17:37 ESP12E-S1 3.40 2.40 99.90
1799 2019-01-07 23:49:14 ESP12E-S1 3.30 2.29 99.90
1798 2019-01-07 23:20:51 ESP12E-S1 3.30 2.29 99.70
1797 2019-01-07 22:52:28 ESP12E-S1 3.20 2.18 99.60
1796 2019-01-07 22:24:05 ESP12E-S1 3.20 2.16 98.80
1795 2019-01-07 21:55:43 ESP12E-S1 3.40 2.36 98.30
1794 2019-01-07 21:27:21 ESP12E-S1 3.50 2.46 98.00
1793 2019-01-07 20:58:58 ESP12E-S1 3.50 2.44 97.20
1792 2019-01-07 20:30:35 ESP12E-S1 3.60 2.54 96.60
1791 2019-01-07 20:02:13 ESP12E-S1 3.80 2.73 95.70
1790 2019-01-07 19:33:51 ESP12E-S1 3.90 2.83 95.30
1789 2019-01-07 19:05:29 ESP12E-S1 4.10 3.03 94.20
1788 2019-01-07 18:37:08 ESP12E-S1 4.20 3.11 93.30
1787 2019-01-07 18:08:46 ESP12E-S1 4.30 3.20 92.40
1786 2019-01-07 17:40:25 ESP12E-S1 4.30 3.21 92.90
1785 2019-01-07 17:12:04 ESP12E-S1 4.50 3.44 93.10
1784 2019-01-07 16:43:42 ESP12E-S1 4.60 3.54 92.80
1783 2019-01-07 16:15:21 ESP12E-S1 5.00 3.91 90.00
1782 2019-01-07 15:47:00 ESP12E-S1 5.30 4.11 85.20
1781 2019-01-07 15:18:39 ESP12E-S1 5.60 4.39 83.40
1780 2019-01-07 14:50:17 ESP12E-S1 5.90 4.71 82.90
1779 2019-01-07 14:21:54 ESP12E-S1 5.90 4.70 82.50
1778 2019-01-07 13:53:31 ESP12E-S1 6.00 4.87 84.80
1777 2019-01-07 13:25:08 ESP12E-S1 5.90 4.75 84.40
1776 2019-01-07 12:56:44 ESP12E-S1 5.60 4.39 83.10
1775 2019-01-07 12:28:22 ESP12E-S1 5.80 4.64 84.50
1774 2019-01-07 11:59:56 ESP12E-S1 5.50 4.38 87.20
1773 2019-01-07 11:31:29 ESP12E-S1 4.70 3.56 89.50
1772 2019-01-07 11:03:09 ESP12E-S1 4.30 3.20 92.50
1771 2019-01-07 10:34:42 ESP12E-S1 3.90 2.79 93.50
1770 2019-01-07 10:06:19 ESP12E-S1 3.80 2.68 93.80
1769 2019-01-07 09:37:55 ESP12E-S1 3.70 2.59 94.40
1768 2019-01-07 09:09:32 ESP12E-S1 3.70 2.59 94.50
1767 2019-01-07 08:41:09 ESP12E-S1 3.70 2.59 94.30
1766 2019-01-07 08:12:46 ESP12E-S1 3.70 2.60 94.60
1765 2019-01-07 07:44:24 ESP12E-S1 3.70 2.60 94.80
1764 2019-01-07 07:16:01 ESP12E-S1 3.70 2.62 95.60
1763 2019-01-07 06:47:38 ESP12E-S1 3.70 2.62 95.70
1762 2019-01-07 06:19:16 ESP12E-S1 3.80 2.73 95.70
1761 2019-01-07 05:50:55 ESP12E-S1 3.80 2.73 95.40
1760 2019-01-07 05:22:34 ESP12E-S1 3.90 2.84 95.60
1759 2019-01-07 04:54:11 ESP12E-S1 3.90 2.85 95.90
1758 2019-01-07 04:25:48 ESP12E-S1 3.90 2.85 96.10
1757 2019-01-07 03:57:24 ESP12E-S1 3.90 2.86 96.40
1756 2019-01-07 03:29:00 ESP12E-S1 3.90 2.87 96.60
1755 2019-01-07 03:00:38 ESP12E-S1 4.00 2.98 96.70
1754 2019-01-07 02:32:14 ESP12E-S1 4.00 2.99 97.20
1753 2019-01-07 02:03:51 ESP12E-S1 4.00 2.99 97.10
1752 2019-01-07 01:35:28 ESP12E-S1 3.90 2.88 97.10
1751 2019-01-07 01:07:05 ESP12E-S1 3.90 2.88 97.10
1750 2019-01-07 00:38:43 ESP12E-S1 3.90 2.90 97.80
1749 2019-01-07 00:10:20 ESP12E-S1 3.90 2.91 98.10
1748 2019-01-06 23:41:57 ESP12E-S1 4.00 3.01 97.70
1747 2019-01-06 23:13:35 ESP12E-S1 4.00 3.00 97.40
1746 2019-01-06 22:45:12 ESP12E-S1 4.00 2.99 97.00
1745 2019-01-06 22:16:50 ESP12E-S1 4.10 3.09 96.50
1744 2019-01-06 21:48:29 ESP12E-S1 4.10 3.07 96.00
1743 2019-01-06 21:20:07 ESP12E-S1 4.20 3.19 96.30
1742 2019-01-06 20:51:45 ESP12E-S1 4.20 3.20 96.80
1741 2019-01-06 20:23:24 ESP12E-S1 4.20 3.21 97.20
1740 2019-01-06 19:55:00 ESP12E-S1 4.20 3.21 97.20
1739 2019-01-06 19:26:37 ESP12E-S1 4.30 3.33 97.60
1738 2019-01-06 18:58:14 ESP12E-S1 4.30 3.33 97.40
1737 2019-01-06 18:29:52 ESP12E-S1 4.30 3.33 97.60
1736 2019-01-06 18:01:29 ESP12E-S1 4.40 3.45 97.80
1735 2019-01-06 17:33:10 ESP12E-S1 4.40 3.46 98.20
1734 2019-01-06 17:04:46 ESP12E-S1 4.40 3.47 98.50
1733 2019-01-06 16:36:22 ESP12E-S1 4.50 3.58 98.50
1732 2019-01-06 16:08:00 ESP12E-S1 4.60 3.68 98.20
1731 2019-01-06 15:39:39 ESP12E-S1 4.80 3.89 98.00
1730 2019-01-06 15:11:16 ESP12E-S1 4.90 4.00 97.90
1729 2019-01-06 14:42:52 ESP12E-S1 4.80 3.88 97.50
1728 2019-01-06 14:14:30 ESP12E-S1 4.90 3.99 97.30
1727 2019-01-06 13:46:31 ESP12E-S1 5.10 4.20 97.10
1726 2019-01-06 13:18:00 ESP12E-S1 5.30 4.41 96.80
1725 2019-01-06 12:49:37 ESP12E-S1 5.30 4.42 96.90
1724 2019-01-06 12:21:46 ESP12E-S1 5.30 4.42 97.10
1723 2019-01-06 11:53:08 ESP12E-S1 5.50 4.65 97.50
1722 2019-01-06 11:24:52 ESP12E-S1 4.90 4.01 98.40
1721 2019-01-06 10:56:32 ESP12E-S1 4.50 3.58 98.50
1720 2019-01-06 10:28:21 ESP12E-S1 4.40 3.47 98.60
1719 2019-01-06 10:00:02 ESP12E-S1 4.40 3.47 98.70
1718 2019-01-06 09:31:52 ESP12E-S1 4.30 3.37 98.90
1717 2019-01-06 09:03:27 ESP12E-S1 4.20 3.26 99.00
1716 2019-01-06 08:35:04 ESP12E-S1 4.20 3.26 99.00
1715 2019-01-06 08:06:42 ESP12E-S1 4.20 3.26 98.90
1714 2019-01-06 07:38:20 ESP12E-S1 4.20 3.26 99.00
1713 2019-01-06 07:10:08 ESP12E-S1 4.20 3.26 99.00
1712 2019-01-06 06:41:43 ESP12E-S1 4.20 3.26 98.90
1711 2019-01-06 06:13:20 ESP12E-S1 4.20 3.27 99.20
1710 2019-01-06 05:44:59 ESP12E-S1 4.20 3.26 98.90
1709 2019-01-06 05:16:38 ESP12E-S1 4.20 3.26 99.00
1708 2019-01-06 04:48:15 ESP12E-S1 4.30 3.37 98.90
1707 2019-01-06 04:19:53 ESP12E-S1 4.40 3.48 98.90
1706 2019-01-06 03:51:32 ESP12E-S1 4.40 3.49 99.30
1705 2019-01-06 03:23:11 ESP12E-S1 4.50 3.60 99.40
1704 2019-01-06 02:54:48 ESP12E-S1 4.50 3.60 99.30
1703 2019-01-06 02:26:26 ESP12E-S1 4.60 3.70 99.00
1702 2019-01-06 01:58:04 ESP12E-S1 4.50 3.59 99.10
1701 2019-01-06 01:29:42 ESP12E-S1 4.60 3.71 99.50
1700 2019-01-06 01:01:20 ESP12E-S1 4.60 3.72 99.60
1699 2019-01-06 00:32:57 ESP12E-S1 4.60 3.72 99.60
1698 2019-01-06 00:04:34 ESP12E-S1 4.60 3.71 99.50
1697 2019-01-05 23:36:12 ESP12E-S1 4.60 3.71 99.40
1696 2019-01-05 23:07:50 ESP12E-S1 4.50 3.60 99.20
1695 2019-01-05 22:39:29 ESP12E-S1 4.50 3.60 99.40
1694 2019-01-05 22:11:08 ESP12E-S1 4.60 3.71 99.50
1693 2019-01-05 21:42:48 ESP12E-S1 4.60 3.71 99.30
1692 2019-01-05 21:14:30 ESP12E-S1 4.70 3.82 99.40
1691 2019-01-05 20:46:06 ESP12E-S1 4.70 3.83 99.60
1690 2019-01-05 20:17:45 ESP12E-S1 4.70 3.82 99.50
1689 2019-01-05 19:49:23 ESP12E-S1 4.80 3.93 99.40
1688 2019-01-05 19:21:01 ESP12E-S1 4.80 3.93 99.50
1687 2019-01-05 18:52:39 ESP12E-S1 4.80 3.94 99.80
1686 2019-01-05 18:24:17 ESP12E-S1 4.90 4.05 99.70
1685 2019-01-05 17:55:57 ESP12E-S1 5.00 4.16 99.90
1684 2019-01-05 17:27:36 ESP12E-S1 5.00 4.16 99.90
1683 2019-01-05 16:59:13 ESP12E-S1 5.10 4.27 99.90
1682 2019-01-05 16:30:52 ESP12E-S1 5.20 4.38 99.90
1681 2019-01-05 16:02:39 ESP12E-S1 5.20 4.38 99.70
1680 2019-01-05 15:34:14 ESP12E-S1 5.20 4.38 99.70
1679 2019-01-05 15:05:58 ESP12E-S1 5.30 4.48 99.50
1678 2019-01-05 14:37:34 ESP12E-S1 5.30 4.48 99.50
1677 2019-01-05 14:09:13 ESP12E-S1 5.30 4.48 99.40
1676 2019-01-05 13:40:52 ESP12E-S1 5.30 4.48 99.30
1675 2019-01-05 13:12:30 ESP12E-S1 5.40 4.59 99.20
1674 2019-01-05 12:44:07 ESP12E-S1 5.30 4.48 99.20
1673 2019-01-05 12:15:44 ESP12E-S1 5.20 4.37 99.30
1672 2019-01-05 11:47:23 ESP12E-S1 5.00 4.16 99.60
1671 2019-01-05 11:19:00 ESP12E-S1 4.90 4.04 99.50
1670 2019-01-05 10:50:38 ESP12E-S1 4.90 4.04 99.40
1669 2019-01-05 10:22:22 ESP12E-S1 4.70 3.83 99.80
1668 2019-01-05 09:53:57 ESP12E-S1 4.40 3.50 99.90
1667 2019-01-05 09:25:33 ESP12E-S1 4.20 3.28 99.90
1666 2019-01-05 08:57:11 ESP12E-S1 3.90 2.95 99.90
1665 2019-01-05 08:28:47 ESP12E-S1 3.60 2.62 99.90
1664 2019-01-05 08:00:25 ESP12E-S1 3.30 2.29 99.90
1663 2019-01-05 07:32:02 ESP12E-S1 3.10 2.07 99.90
1662 2019-01-05 07:03:39 ESP12E-S1 3.00 1.96 99.90
1661 2019-01-05 06:35:16 ESP12E-S1 2.80 1.72 99.10
1660 2019-01-05 06:06:55 ESP12E-S1 2.70 1.61 99.10
1659 2019-01-05 05:38:32 ESP12E-S1 2.40 1.27 98.60
1658 2019-01-05 05:10:10 ESP12E-S1 2.40 1.27 98.60
1657 2019-01-05 04:41:48 ESP12E-S1 2.40 1.27 98.70
1656 2019-01-05 04:13:27 ESP12E-S1 2.50 1.38 98.50
1655 2019-01-05 03:45:05 ESP12E-S1 2.50 1.39 98.90
1654 2019-01-05 03:16:43 ESP12E-S1 2.40 1.26 98.40
1653 2019-01-05 02:48:22 ESP12E-S1 2.30 1.16 98.50
1652 2019-01-05 02:20:01 ESP12E-S1 2.20 1.05 98.50
1651 2019-01-05 01:51:39 ESP12E-S1 2.20 1.04 98.10
1650 2019-01-05 01:23:17 ESP12E-S1 2.10 0.93 98.20
1649 2019-01-05 00:54:55 ESP12E-S1 2.20 1.03 97.80
1648 2019-01-05 00:26:35 ESP12E-S1 2.10 0.91 97.30
1647 2019-01-04 23:58:13 ESP12E-S1 2.00 0.79 97.00
1646 2019-01-04 23:29:52 ESP12E-S1 2.10 0.90 96.90
1645 2019-01-04 23:01:30 ESP12E-S1 2.00 0.79 96.90
1644 2019-01-04 22:33:09 ESP12E-S1 2.00 0.79 97.00
1643 2019-01-04 22:04:48 ESP12E-S1 2.00 0.79 97.10
1642 2019-01-04 21:36:27 ESP12E-S1 2.00 0.80 97.40
1641 2019-01-04 21:08:06 ESP12E-S1 2.10 0.89 96.80
1640 2019-01-04 20:39:44 ESP12E-S1 2.20 0.99 96.30
1639 2019-01-04 20:11:23 ESP12E-S1 2.20 0.98 95.80
1638 2019-01-04 19:43:00 ESP12E-S1 2.20 0.97 95.60
1637 2019-01-04 19:14:41 ESP12E-S1 2.20 0.97 95.40
1636 2019-01-04 18:46:19 ESP12E-S1 2.10 0.85 95.30
1635 2019-01-04 18:17:57 ESP12E-S1 2.10 0.86 95.40
1634 2019-01-04 17:49:36 ESP12E-S1 2.20 0.95 94.90
1633 2019-01-04 17:21:16 ESP12E-S1 2.30 1.06 94.90
1632 2019-01-04 16:52:54 ESP12E-S1 2.20 0.94 94.50
1631 2019-01-04 16:24:34 ESP12E-S1 2.20 0.94 94.20
1630 2019-01-04 15:56:13 ESP12E-S1 2.20 0.93 94.10
1629 2019-01-04 15:28:06 ESP12E-S1 2.20 0.93 93.90
1628 2019-01-04 14:59:39 ESP12E-S1 2.20 0.92 93.80
1627 2019-01-04 14:31:18 ESP12E-S1 2.20 0.92 93.70
1626 2019-01-04 14:02:57 ESP12E-S1 2.30 1.01 92.90
1625 2019-01-04 13:34:38 ESP12E-S1 2.40 1.09 91.80
1624 2019-01-04 13:06:21 ESP12E-S1 2.40 1.07 90.90
1623 2019-01-04 12:38:03 ESP12E-S1 3.00 1.72 90.40
1622 2019-01-04 12:09:39 ESP12E-S1 2.40 1.06 90.70
1621 2019-01-04 11:41:15 ESP12E-S1 1.70 0.31 91.50
1620 2019-01-04 11:12:53 ESP12E-S1 1.60 0.20 91.40
1619 2019-01-04 10:44:32 ESP12E-S1 1.60 0.21 91.60
1618 2019-01-04 10:16:08 ESP12E-S1 1.10 -0.35 91.20
1617 2019-01-04 09:47:47 ESP12E-S1 0.90 -0.57 91.20
1616 2019-01-04 09:19:25 ESP12E-S1 0.70 -0.77 91.90
1615 2019-01-04 08:51:03 ESP12E-S1 0.50 -0.96 93.10
1614 2019-01-04 08:22:41 ESP12E-S1 0.40 -1.06 93.70
1613 2019-01-04 07:54:19 ESP12E-S1 0.20 -1.26 94.50
1612 2019-01-04 07:25:57 ESP12E-S1 0.10 -1.36 94.60
1611 2019-01-04 06:57:35 ESP12E-S1 0.00 -1.49 94.10
1610 2019-01-04 06:29:14 ESP12E-S1 0.00 -1.51 93.40
1609 2019-01-04 06:00:53 ESP12E-S1 -0.10 -1.62 93.40
1608 2019-01-04 05:32:31 ESP12E-S1 -0.20 -1.74 92.80
1607 2019-01-04 05:04:10 ESP12E-S1 -0.30 -1.90 91.00
1606 2019-01-04 04:35:48 ESP12E-S1 -0.40 -2.01 91.10
1605 2019-01-04 04:07:28 ESP12E-S1 -0.40 -2.01 91.10
1604 2019-01-04 03:39:08 ESP12E-S1 -0.20 -1.78 91.50
1603 2019-01-04 03:10:47 ESP12E-S1 -0.20 -1.78 91.30
1602 2019-01-04 02:42:31 ESP12E-S1 -0.20 -1.76 91.90
1601 2019-01-04 02:14:10 ESP12E-S1 -0.10 -1.63 92.70
1600 2019-01-04 01:45:51 ESP12E-S1 0.00 -1.54 92.00
1599 2019-01-04 01:17:32 ESP12E-S1 0.10 -1.42 92.40
1598 2019-01-04 00:49:12 ESP12E-S1 0.20 -1.31 92.40
1597 2019-01-04 00:20:52 ESP12E-S1 0.30 -1.21 92.20
1596 2019-01-03 23:52:37 ESP12E-S1 0.40 -1.09 92.30
1595 2019-01-03 23:24:16 ESP12E-S1 0.60 -0.87 92.30
1594 2019-01-03 22:55:56 ESP12E-S1 0.80 -0.66 92.00
1593 2019-01-03 22:27:38 ESP12E-S1 1.00 -0.42 92.80
1592 2019-01-03 21:59:20 ESP12E-S1 1.30 -0.09 92.70
1591 2019-01-03 21:31:00 ESP12E-S1 1.60 0.23 92.60
1590 2019-01-03 21:02:41 ESP12E-S1 1.80 0.45 92.60
1589 2019-01-03 20:34:21 ESP12E-S1 1.90 0.58 93.10
1588 2019-01-03 20:06:01 ESP12E-S1 1.90 0.58 93.30
1587 2019-01-03 19:37:39 ESP12E-S1 1.90 0.58 93.40
1586 2019-01-03 19:09:18 ESP12E-S1 2.00 0.70 93.50
1585 2019-01-03 18:40:57 ESP12E-S1 2.00 0.69 93.40
1584 2019-01-03 18:12:37 ESP12E-S1 2.00 0.70 93.50
1583 2019-01-03 17:44:17 ESP12E-S1 2.00 0.69 93.40
1582 2019-01-03 17:15:56 ESP12E-S1 2.00 0.70 93.80
1581 2019-01-03 16:47:36 ESP12E-S1 2.20 0.91 93.40
1580 2019-01-03 16:19:16 ESP12E-S1 2.30 1.02 93.30
1579 2019-01-03 15:50:56 ESP12E-S1 2.40 1.14 93.50
1578 2019-01-03 15:22:37 ESP12E-S1 2.60 1.34 92.70
1577 2019-01-03 14:54:20 ESP12E-S1 3.10 1.86 91.70
1576 2019-01-03 14:26:01 ESP12E-S1 3.40 2.17 91.00
1575 2019-01-03 13:57:35 ESP12E-S1 2.70 1.45 93.00
1574 2019-01-03 13:29:11 ESP12E-S1 2.20 0.93 93.90
1573 2019-01-03 13:00:45 ESP12E-S1 1.60 0.27 94.00
1572 2019-01-03 12:32:24 ESP12E-S1 1.60 0.25 93.40
1571 2019-01-03 12:04:03 ESP12E-S1 1.70 0.35 92.70
1570 2019-01-03 11:35:41 ESP12E-S1 1.60 0.24 92.70
1569 2019-01-03 11:07:20 ESP12E-S1 1.20 -0.20 92.80
1568 2019-01-03 10:38:59 ESP12E-S1 1.10 -0.31 92.90
1567 2019-01-03 10:10:36 ESP12E-S1 0.80 -0.64 92.80
1566 2019-01-03 09:42:13 ESP12E-S1 0.50 -0.97 92.90
1565 2019-01-03 09:13:51 ESP12E-S1 0.20 -1.30 92.80
1564 2019-01-03 08:45:30 ESP12E-S1 -0.10 -1.64 92.30
1563 2019-01-03 08:17:10 ESP12E-S1 -0.20 -1.78 91.30
1562 2019-01-03 07:48:56 ESP12E-S1 -0.40 -2.01 90.80
1561 2019-01-03 07:20:31 ESP12E-S1 -0.50 -2.16 89.50
1560 2019-01-03 06:52:12 ESP12E-S1 -0.50 -2.21 87.30
1559 2019-01-03 06:23:53 ESP12E-S1 -0.40 -2.16 85.30
1558 2019-01-03 05:55:34 ESP12E-S1 -0.40 -2.25 81.60
1557 2019-01-03 05:27:13 ESP12E-S1 -0.50 -2.41 80.00
1556 2019-01-03 04:58:51 ESP12E-S1 -0.70 -2.61 80.70
1555 2019-01-03 04:30:27 ESP12E-S1 -1.20 -3.15 80.80
1554 2019-01-03 04:02:06 ESP12E-S1 -1.40 -3.39 80.30
1553 2019-01-03 03:33:46 ESP12E-S1 -1.50 -3.49 80.70
1552 2019-01-03 03:05:25 ESP12E-S1 -1.50 -3.52 79.50
1551 2019-01-03 02:37:06 ESP12E-S1 -1.50 -3.51 79.80
1550 2019-01-03 02:08:47 ESP12E-S1 -1.40 -3.42 79.20
1549 2019-01-03 01:40:29 ESP12E-S1 -1.30 -3.35 77.40
1548 2019-01-03 01:12:08 ESP12E-S1 -1.20 -3.21 78.80
1547 2019-01-03 00:43:53 ESP12E-S1 -1.30 -3.34 78.10
1546 2019-01-03 00:15:34 ESP12E-S1 -1.10 -3.13 77.70
1545 2019-01-02 23:47:14 ESP12E-S1 -1.00 -3.01 77.80
1544 2019-01-02 23:47:14 ESP12E-S1 -0.80 -2.80 77.50
1543 2019-01-02 22:50:55 ESP12E-S1 -0.60 -2.62 76.00
1542 2019-01-02 22:22:35 ESP12E-S1 -0.30 -2.30 75.70
1541 2019-01-02 21:54:16 ESP12E-S1 -0.10 -2.14 73.50
1540 2019-01-02 21:26:05 ESP12E-S1 -0.10 -2.08 75.70
1539 2019-01-02 20:57:43 ESP12E-S1 0.10 -1.84 76.30
1538 2019-01-02 20:29:23 ESP12E-S1 0.40 -1.57 73.90
1537 2019-01-02 20:01:05 ESP12E-S1 0.80 -1.14 73.70
1536 2019-01-02 19:32:46 ESP12E-S1 1.10 -0.88 71.20
1535 2019-01-02 19:04:27 ESP12E-S1 1.40 -0.63 67.80
1534 2019-01-02 18:36:07 ESP12E-S1 1.50 -0.53 67.70
1533 2019-01-02 18:07:51 ESP12E-S1 2.10 0.10 66.40
1532 2019-01-02 17:39:33 ESP12E-S1 2.40 0.34 63.10
1531 2019-01-02 17:11:13 ESP12E-S1 2.70 0.71 64.60
1530 2019-01-02 16:42:55 ESP12E-S1 3.10 1.11 62.90
1529 2019-01-02 16:14:37 ESP12E-S1 3.60 1.72 65.20
1528 2019-01-02 15:46:19 ESP12E-S1 4.10 2.18 61.80
1527 2019-01-02 15:18:00 ESP12E-S1 4.60 2.86 66.70
1526 2019-01-02 14:49:42 ESP12E-S1 4.60 2.84 66.20
1525 2019-01-02 14:21:23 ESP12E-S1 4.90 3.16 65.70
1524 2019-01-02 13:53:04 ESP12E-S1 4.70 3.07 70.80
1523 2019-01-02 13:24:46 ESP12E-S1 5.20 3.79 77.30
1522 2019-01-02 12:56:22 ESP12E-S1 4.90 3.56 80.80
1521 2019-01-02 12:27:58 ESP12E-S1 4.80 3.56 85.20
1520 2019-01-02 11:59:42 ESP12E-S1 3.80 2.58 89.60
1519 2019-01-02 11:31:18 ESP12E-S1 3.80 2.55 88.80
1518 2019-01-02 11:02:55 ESP12E-S1 3.50 2.21 88.40
1517 2019-01-02 10:34:36 ESP12E-S1 3.60 2.37 90.00
1516 2019-01-02 10:06:11 ESP12E-S1 3.10 1.82 90.30
1515 2019-01-02 09:37:47 ESP12E-S1 2.70 1.41 91.20
1514 2019-01-02 09:09:36 ESP12E-S1 2.40 1.08 91.30
1513 2019-01-02 08:41:12 ESP12E-S1 2.30 0.98 91.60
1512 2019-01-02 08:12:50 ESP12E-S1 2.20 0.86 91.40
1511 2019-01-02 07:44:29 ESP12E-S1 2.10 0.74 90.80
1510 2019-01-02 07:16:08 ESP12E-S1 2.10 0.73 90.40
1509 2019-01-02 06:47:48 ESP12E-S1 2.20 0.83 90.30
1508 2019-01-02 06:19:28 ESP12E-S1 2.20 0.83 90.10
1507 2019-01-02 05:51:08 ESP12E-S1 2.10 0.69 89.20
1506 2019-01-02 05:22:46 ESP12E-S1 2.00 0.57 88.80
1505 2019-01-02 04:54:26 ESP12E-S1 2.10 0.71 89.70
1504 2019-01-02 04:26:08 ESP12E-S1 2.20 0.82 89.90
1503 2019-01-02 03:57:48 ESP12E-S1 2.20 0.84 90.50
1502 2019-01-02 03:29:27 ESP12E-S1 2.30 0.96 91.10
1501 2019-01-02 03:01:08 ESP12E-S1 2.40 1.08 91.20
1500 2019-01-02 02:32:47 ESP12E-S1 2.50 1.19 91.30
1499 2019-01-02 02:04:28 ESP12E-S1 2.50 1.21 92.00
1498 2019-01-02 01:36:09 ESP12E-S1 2.70 1.43 91.90
1497 2019-01-02 01:07:48 ESP12E-S1 2.60 1.32 92.10
1496 2019-01-02 00:39:27 ESP12E-S1 2.60 1.32 92.20
1495 2019-01-02 00:11:06 ESP12E-S1 2.60 1.31 91.80
1494 2019-01-01 23:42:48 ESP12E-S1 2.90 1.63 91.50
1493 2019-01-01 23:14:38 ESP12E-S1 3.30 2.10 92.30
1492 2019-01-01 22:46:16 ESP12E-S1 3.60 2.46 93.50
1491 2019-01-01 22:17:55 ESP12E-S1 3.60 2.44 92.70
1490 2019-01-01 21:49:45 ESP12E-S1 3.70 2.55 92.80
1489 2019-01-01 21:21:22 ESP12E-S1 4.00 2.87 92.60
1488 2019-01-01 20:53:05 ESP12E-S1 4.40 3.35 93.90
1487 2019-01-01 20:24:45 ESP12E-S1 4.60 3.60 95.30
1486 2019-01-01 19:56:26 ESP12E-S1 4.80 3.82 95.00
1485 2019-01-01 19:28:05 ESP12E-S1 4.90 3.93 95.30
1484 2019-01-01 18:59:46 ESP12E-S1 5.20 4.28 95.90
1483 2019-01-01 18:31:27 ESP12E-S1 5.50 4.63 96.50
1482 2019-01-01 18:03:07 ESP12E-S1 5.80 4.99 97.80
1481 2019-01-01 17:34:47 ESP12E-S1 5.90 5.11 98.30
1480 2019-01-01 17:06:00 ESP12E-S1 5.90 5.14 99.50
1479 2019-01-01 16:37:37 ESP12E-S1 5.90 5.15 99.70
1478 2019-01-01 16:10:28 ESP12E-S1 5.80 5.04 99.90
1477 2019-01-01 15:38:02 ESP12E-S1 5.80 5.04 99.70
1476 2019-01-01 15:09:44 ESP12E-S1 5.70 4.92 99.30
1475 2019-01-01 14:41:24 ESP12E-S1 5.70 4.91 99.00
1474 2019-01-01 14:13:05 ESP12E-S1 5.70 4.90 98.70
1473 2019-01-01 13:44:45 ESP12E-S1 5.80 5.00 98.40
1472 2019-01-01 13:16:27 ESP12E-S1 5.80 5.00 98.10
1471 2019-01-01 12:48:07 ESP12E-S1 5.80 4.99 97.90
1470 2019-01-01 12:19:56 ESP12E-S1 5.70 4.87 97.30
1469 2019-01-01 11:51:34 ESP12E-S1 5.80 4.96 96.60
1468 2019-01-01 11:23:12 ESP12E-S1 5.90 5.04 95.70
1467 2019-01-01 10:54:51 ESP12E-S1 6.00 5.15 95.50
1466 2019-01-01 10:26:31 ESP12E-S1 6.00 5.14 95.30
1465 2019-01-01 09:58:10 ESP12E-S1 6.00 5.14 95.00
1464 2019-01-01 09:29:51 ESP12E-S1 6.00 5.13 94.70
1463 2019-01-01 09:01:31 ESP12E-S1 6.00 5.13 94.60
1462 2019-01-01 08:33:10 ESP12E-S1 6.10 5.25 95.00
1461 2019-01-01 08:04:53 ESP12E-S1 6.20 5.40 96.50
1460 2019-01-01 07:36:32 ESP12E-S1 6.20 5.41 96.90
1459 2019-01-01 07:08:13 ESP12E-S1 6.30 5.51 96.60
1458 2019-01-01 06:39:53 ESP12E-S1 6.30 5.50 96.40
1457 2019-01-01 06:11:33 ESP12E-S1 6.50 5.70 95.70
1456 2019-01-01 05:43:14 ESP12E-S1 6.50 5.72 96.30
1455 2019-01-01 05:14:55 ESP12E-S1 6.50 5.73 96.70
1454 2019-01-01 04:46:36 ESP12E-S1 6.60 5.85 97.20
1453 2019-01-01 04:18:15 ESP12E-S1 6.60 5.86 97.50
1452 2019-01-01 03:49:54 ESP12E-S1 6.60 5.89 98.60
1451 2019-01-01 03:21:34 ESP12E-S1 6.60 5.90 99.00
1450 2019-01-01 02:53:15 ESP12E-S1 6.50 5.80 99.40
1449 2019-01-01 02:24:56 ESP12E-S1 6.50 5.80 99.40
1448 2019-01-01 01:56:36 ESP12E-S1 6.50 5.80 99.30
1447 2019-01-01 01:28:17 ESP12E-S1 6.60 5.92 99.60
1446 2019-01-01 00:59:58 ESP12E-S1 6.80 6.13 99.20
1445 2019-01-01 00:31:43 ESP12E-S1 6.80 6.12 98.90
1444 2019-01-01 00:03:22 ESP12E-S1 6.80 6.13 99.30
1443 2018-12-31 23:35:27 ESP12E-S1 6.90 6.24 99.20
1442 2018-12-31 23:06:55 ESP12E-S1 6.90 6.23 99.10
1441 2018-12-31 22:38:35 ESP12E-S1 7.00 6.35 99.20
1440 2018-12-31 22:10:17 ESP12E-S1 7.00 6.35 99.30
1439 2018-12-31 21:41:56 ESP12E-S1 7.00 6.36 99.60
1438 2018-12-31 21:13:36 ESP12E-S1 7.00 6.36 99.80
1437 2018-12-31 20:45:15 ESP12E-S1 7.10 6.47 99.90
1436 2018-12-31 20:16:55 ESP12E-S1 7.10 6.47 99.90
1435 2018-12-31 19:48:35 ESP12E-S1 7.10 6.47 99.90
1434 2018-12-31 19:20:16 ESP12E-S1 7.10 6.47 99.90
1433 2018-12-31 18:51:56 ESP12E-S1 7.20 6.58 99.90
1432 2018-12-31 18:23:35 ESP12E-S1 7.20 6.58 99.90
1431 2018-12-31 17:55:16 ESP12E-S1 7.20 6.58 99.90
1430 2018-12-31 17:26:57 ESP12E-S1 7.30 6.69 99.90
1429 2018-12-31 16:58:38 ESP12E-S1 7.30 6.69 99.90
1428 2018-12-31 16:30:19 ESP12E-S1 7.40 6.80 99.90
1427 2018-12-31 16:02:02 ESP12E-S1 7.50 6.91 99.90
1426 2018-12-31 15:33:41 ESP12E-S1 7.50 6.91 99.90
1425 2018-12-31 15:05:22 ESP12E-S1 7.60 7.02 99.80
1424 2018-12-31 14:37:03 ESP12E-S1 7.60 7.02 99.80
1423 2018-12-31 14:08:44 ESP12E-S1 7.70 7.13 99.60
1422 2018-12-31 13:40:27 ESP12E-S1 7.90 7.33 98.90
1421 2018-12-31 13:12:08 ESP12E-S1 7.90 7.34 99.30
1420 2018-12-31 12:43:47 ESP12E-S1 7.80 7.24 99.90
1419 2018-12-31 12:15:26 ESP12E-S1 7.60 7.02 99.90
1418 2018-12-31 11:47:02 ESP12E-S1 7.00 6.36 99.90
1417 2018-12-31 11:18:40 ESP12E-S1 6.60 5.92 99.90
1416 2018-12-31 10:50:17 ESP12E-S1 6.20 5.48 99.90
1415 2018-12-31 10:21:56 ESP12E-S1 5.90 5.15 99.90
1414 2018-12-31 09:53:35 ESP12E-S1 5.80 5.04 99.90
1413 2018-12-31 09:25:14 ESP12E-S1 5.60 4.82 99.90
1412 2018-12-31 08:56:53 ESP12E-S1 5.60 4.82 99.90
1411 2018-12-31 08:28:32 ESP12E-S1 5.50 4.71 99.90
1410 2018-12-31 08:00:12 ESP12E-S1 5.50 4.71 99.90
1409 2018-12-31 07:32:02 ESP12E-S1 5.50 4.71 99.90
1408 2018-12-31 07:03:38 ESP12E-S1 5.60 4.82 99.90
1407 2018-12-31 06:35:21 ESP12E-S1 5.70 4.93 99.90
1406 2018-12-31 06:07:00 ESP12E-S1 5.70 4.93 99.90
1405 2018-12-31 05:38:38 ESP12E-S1 5.60 4.82 99.90
1404 2018-12-31 05:10:16 ESP12E-S1 5.40 4.60 99.90
1403 2018-12-31 04:41:55 ESP12E-S1 5.40 4.60 99.90
1402 2018-12-31 04:13:35 ESP12E-S1 5.40 4.60 99.90
1401 2018-12-31 03:45:14 ESP12E-S1 5.30 4.49 99.90
1400 2018-12-31 03:16:53 ESP12E-S1 5.30 4.49 99.90
1399 2018-12-31 02:48:32 ESP12E-S1 5.20 4.38 99.90
1398 2018-12-31 02:20:11 ESP12E-S1 5.00 4.16 99.90
1397 2018-12-31 01:51:50 ESP12E-S1 4.90 4.05 99.80
1396 2018-12-31 01:23:29 ESP12E-S1 4.80 3.94 99.60
1395 2018-12-31 00:55:07 ESP12E-S1 4.80 3.94 99.80
1394 2018-12-31 00:26:45 ESP12E-S1 4.70 3.83 99.70
1393 2018-12-30 23:58:36 ESP12E-S1 4.70 3.82 99.50
1392 2018-12-30 23:30:13 ESP12E-S1 4.80 3.93 99.50
1391 2018-12-30 23:01:55 ESP12E-S1 4.80 3.93 99.20
1390 2018-12-30 22:33:34 ESP12E-S1 4.80 3.93 99.30
1389 2018-12-30 22:05:20 ESP12E-S1 4.80 3.92 99.00
1388 2018-12-30 21:37:06 ESP12E-S1 4.80 3.91 98.70
1387 2018-12-30 21:08:44 ESP12E-S1 4.80 3.91 98.50
1386 2018-12-30 20:40:25 ESP12E-S1 4.90 4.01 98.10
1385 2018-12-30 20:12:06 ESP12E-S1 5.00 4.10 97.40
1384 2018-12-30 19:43:46 ESP12E-S1 5.10 4.19 96.50
1383 2018-12-30 19:15:26 ESP12E-S1 5.10 4.17 96.00
1382 2018-12-30 18:47:07 ESP12E-S1 5.20 4.28 96.00
1381 2018-12-30 18:18:48 ESP12E-S1 5.30 4.39 96.00
1380 2018-12-30 17:50:32 ESP12E-S1 5.30 4.38 95.70
1379 2018-12-30 17:22:16 ESP12E-S1 5.50 4.60 95.50
1378 2018-12-30 16:53:56 ESP12E-S1 5.70 4.79 94.20
1377 2018-12-30 16:25:37 ESP12E-S1 5.80 4.86 92.70
1376 2018-12-30 15:57:18 ESP12E-S1 5.80 4.85 92.50
1375 2018-12-30 15:28:59 ESP12E-S1 5.90 4.95 92.00
1374 2018-12-30 15:00:39 ESP12E-S1 5.90 4.95 92.10
1373 2018-12-30 14:32:19 ESP12E-S1 6.00 5.07 92.30
1372 2018-12-30 14:04:00 ESP12E-S1 6.00 5.06 92.10
1371 2018-12-30 13:35:42 ESP12E-S1 6.10 5.17 91.90
1370 2018-12-30 13:07:23 ESP12E-S1 6.10 5.18 92.60
1369 2018-12-30 12:39:00 ESP12E-S1 6.00 5.08 93.00
1368 2018-12-30 12:10:41 ESP12E-S1 5.70 4.77 93.50
1367 2018-12-30 11:42:21 ESP12E-S1 5.60 4.66 93.70
1366 2018-12-30 11:14:01 ESP12E-S1 5.50 4.56 93.90
1365 2018-12-30 10:45:38 ESP12E-S1 5.30 4.35 94.30
1364 2018-12-30 10:17:17 ESP12E-S1 5.00 4.03 94.90
1363 2018-12-30 09:48:56 ESP12E-S1 4.90 3.91 94.40
1362 2018-12-30 09:20:36 ESP12E-S1 4.70 3.68 94.10
1361 2018-12-30 08:52:15 ESP12E-S1 4.60 3.57 94.10
1360 2018-12-30 08:23:56 ESP12E-S1 4.60 3.57 94.00
1359 2018-12-30 07:55:40 ESP12E-S1 4.80 3.79 94.10
1358 2018-12-30 07:27:21 ESP12E-S1 4.80 3.79 94.00
1357 2018-12-30 06:59:03 ESP12E-S1 5.00 4.02 94.20
1356 2018-12-30 06:30:44 ESP12E-S1 5.00 4.00 93.50
1355 2018-12-30 06:02:24 ESP12E-S1 5.10 4.12 94.00
1354 2018-12-30 05:34:03 ESP12E-S1 5.10 4.14 94.60
1353 2018-12-30 05:05:43 ESP12E-S1 5.00 4.03 94.70
1352 2018-12-30 04:37:24 ESP12E-S1 5.10 4.14 94.70
1351 2018-12-30 04:09:03 ESP12E-S1 5.20 4.25 94.60
1350 2018-12-30 03:40:43 ESP12E-S1 5.10 4.14 94.80
1349 2018-12-30 03:12:23 ESP12E-S1 5.10 4.14 94.60
1348 2018-12-30 02:44:03 ESP12E-S1 5.10 4.16 95.50
1347 2018-12-30 02:15:42 ESP12E-S1 4.90 3.99 97.30
1346 2018-12-30 01:47:21 ESP12E-S1 4.70 3.82 99.50
1345 2018-12-30 01:19:01 ESP12E-S1 4.50 3.61 99.70
1344 2018-12-30 00:50:40 ESP12E-S1 4.30 3.39 99.90
1343 2018-12-30 00:22:17 ESP12E-S1 3.70 2.73 99.90
1342 2018-12-29 23:53:53 ESP12E-S1 3.00 1.96 99.90
1341 2018-12-29 23:25:31 ESP12E-S1 2.50 1.41 99.90
1340 2018-12-29 22:57:12 ESP12E-S1 2.40 1.30 99.90
1339 2018-12-29 22:28:52 ESP12E-S1 2.20 1.08 99.90
1338 2018-12-29 22:00:30 ESP12E-S1 2.00 0.86 99.90
1337 2018-12-29 21:32:10 ESP12E-S1 1.80 0.64 99.80
1336 2018-12-29 21:03:50 ESP12E-S1 1.70 0.53 99.60
1335 2018-12-29 20:35:31 ESP12E-S1 1.60 0.41 99.40
1334 2018-12-29 20:07:14 ESP12E-S1 1.60 0.40 99.10
1333 2018-12-29 19:38:54 ESP12E-S1 1.60 0.39 98.70
1332 2018-12-29 19:10:35 ESP12E-S1 1.70 0.51 98.80
1331 2018-12-29 18:42:16 ESP12E-S1 1.80 0.62 99.10
1330 2018-12-29 18:13:57 ESP12E-S1 1.70 0.52 99.40
1329 2018-12-29 17:45:38 ESP12E-S1 1.60 0.41 99.30
1328 2018-12-29 17:17:20 ESP12E-S1 1.60 0.41 99.20
1327 2018-12-29 16:49:00 ESP12E-S1 1.50 0.29 98.80
1326 2018-12-29 16:20:40 ESP12E-S1 1.40 0.17 98.60
1325 2018-12-29 15:52:21 ESP12E-S1 1.40 0.15 97.80
1324 2018-12-29 15:24:01 ESP12E-S1 1.40 0.14 97.60
1323 2018-12-29 14:55:42 ESP12E-S1 1.40 0.14 97.40
1322 2018-12-29 14:27:21 ESP12E-S1 1.30 0.02 96.90
1321 2018-12-29 13:59:01 ESP12E-S1 1.30 0.01 96.50
1320 2018-12-29 13:30:42 ESP12E-S1 1.30 -0.02 95.70
1319 2018-12-29 13:02:25 ESP12E-S1 1.50 0.19 95.00
1318 2018-12-29 12:34:06 ESP12E-S1 1.60 0.31 95.50
1317 2018-12-29 12:05:46 ESP12E-S1 1.60 0.30 95.30
1316 2018-12-29 11:37:25 ESP12E-S1 1.40 0.09 95.50
1315 2018-12-29 11:09:04 ESP12E-S1 1.20 -0.13 95.60
1314 2018-12-29 10:40:43 ESP12E-S1 1.00 -0.36 95.20
1313 2018-12-29 10:12:22 ESP12E-S1 0.90 -0.46 95.50
1312 2018-12-29 09:44:02 ESP12E-S1 0.80 -0.56 95.90
1311 2018-12-29 09:15:42 ESP12E-S1 0.50 -0.89 95.80
1310 2018-12-29 08:47:22 ESP12E-S1 0.20 -1.24 95.20
1309 2018-12-29 08:19:02 ESP12E-S1 0.10 -1.35 95.20
1308 2018-12-29 07:50:45 ESP12E-S1 0.00 -1.46 95.00
1307 2018-12-29 07:22:25 ESP12E-S1 0.00 -1.47 94.70
1306 2018-12-29 06:54:07 ESP12E-S1 0.00 -1.46 95.00
1305 2018-12-29 06:25:48 ESP12E-S1 -0.10 -1.57 95.10
1304 2018-12-29 05:57:28 ESP12E-S1 -0.10 -1.58 94.80
1303 2018-12-29 05:29:09 ESP12E-S1 -0.10 -1.59 94.40
1302 2018-12-29 05:00:49 ESP12E-S1 -0.20 -1.71 94.10
1301 2018-12-29 04:32:40 ESP12E-S1 -0.30 -1.82 94.10
1300 2018-12-29 04:04:18 ESP12E-S1 -0.20 -1.70 94.20
1299 2018-12-29 03:35:58 ESP12E-S1 -0.30 -1.81 94.40
1298 2018-12-29 03:07:38 ESP12E-S1 -0.30 -1.81 94.40
1297 2018-12-29 02:39:20 ESP12E-S1 -0.30 -1.82 94.10
1296 2018-12-29 02:10:59 ESP12E-S1 -0.30 -1.81 94.20
1295 2018-12-29 01:42:41 ESP12E-S1 -0.40 -1.93 94.00
1294 2018-12-29 01:14:21 ESP12E-S1 -0.40 -1.94 93.80
1293 2018-12-29 00:46:03 ESP12E-S1 -0.60 -2.15 94.00
1292 2018-12-29 00:17:44 ESP12E-S1 -0.70 -2.26 93.90
1291 2018-12-28 23:49:25 ESP12E-S1 -0.80 -2.38 93.70
1290 2018-12-28 23:21:06 ESP12E-S1 -0.80 -2.38 93.70
1289 2018-12-28 22:52:47 ESP12E-S1 -0.90 -2.49 93.60
1288 2018-12-28 22:24:34 ESP12E-S1 -0.80 -2.38 93.50
1287 2018-12-28 21:56:17 ESP12E-S1 -0.80 -2.39 93.30
1286 2018-12-28 21:27:57 ESP12E-S1 -0.70 -2.28 93.20
1285 2018-12-28 20:59:46 ESP12E-S1 -0.50 -2.08 92.60
1284 2018-12-28 20:31:26 ESP12E-S1 -0.40 -1.96 92.70
1283 2018-12-28 20:03:07 ESP12E-S1 -0.50 -2.07 93.00
1282 2018-12-28 19:34:46 ESP12E-S1 -0.60 -2.17 93.40
1281 2018-12-28 19:06:27 ESP12E-S1 -0.70 -2.27 93.70
1280 2018-12-28 18:38:08 ESP12E-S1 -0.60 -2.16 93.70
1279 2018-12-28 18:09:48 ESP12E-S1 -0.50 -2.05 93.70
1278 2018-12-28 17:41:31 ESP12E-S1 -0.30 -1.82 94.00
1277 2018-12-28 17:13:13 ESP12E-S1 -0.20 -1.71 94.10
1276 2018-12-28 16:44:57 ESP12E-S1 0.00 -1.49 93.90
1275 2018-12-28 16:16:40 ESP12E-S1 0.20 -1.28 93.80
1274 2018-12-28 15:48:22 ESP12E-S1 0.30 -1.17 93.50
1273 2018-12-28 15:20:04 ESP12E-S1 0.50 -0.96 93.20
1272 2018-12-28 14:51:45 ESP12E-S1 0.50 -0.96 93.10
1271 2018-12-28 14:23:27 ESP12E-S1 0.60 -0.86 93.00
1270 2018-12-28 13:55:08 ESP12E-S1 0.50 -0.97 93.00
1269 2018-12-28 13:26:48 ESP12E-S1 0.30 -1.17 93.70
1268 2018-12-28 12:58:30 ESP12E-S1 0.30 -1.18 93.20
1267 2018-12-28 12:30:11 ESP12E-S1 0.20 -1.30 92.80
1266 2018-12-28 12:01:50 ESP12E-S1 0.00 -1.53 92.50
1265 2018-12-28 11:33:31 ESP12E-S1 -0.20 -1.75 92.30
1264 2018-12-28 11:05:11 ESP12E-S1 -0.40 -1.97 92.40
1263 2018-12-28 10:36:56 ESP12E-S1 -0.40 -1.97 92.40
1262 2018-12-28 10:08:35 ESP12E-S1 -0.40 -1.97 92.60
1261 2018-12-28 09:40:15 ESP12E-S1 -0.60 -2.17 93.10
1260 2018-12-28 09:11:56 ESP12E-S1 -0.80 -2.40 92.90
1259 2018-12-28 08:43:38 ESP12E-S1 -0.70 -2.28 93.20
1258 2018-12-28 08:15:20 ESP12E-S1 -0.60 -2.17 93.10
1257 2018-12-28 07:47:01 ESP12E-S1 -0.70 -2.28 93.40
1256 2018-12-28 07:18:42 ESP12E-S1 -0.70 -2.27 93.60
1255 2018-12-28 06:50:24 ESP12E-S1 -0.50 -2.06 93.20
1254 2018-12-28 06:22:08 ESP12E-S1 -0.40 -1.95 93.20
1253 2018-12-28 05:53:49 ESP12E-S1 -0.50 -2.06 93.40
1252 2018-12-28 05:25:30 ESP12E-S1 -0.60 -2.16 93.60
1251 2018-12-28 04:57:11 ESP12E-S1 -0.50 -2.05 93.70
1250 2018-12-28 04:28:53 ESP12E-S1 -0.50 -2.06 93.40
1249 2018-12-28 04:00:34 ESP12E-S1 -0.40 -1.95 93.30
1248 2018-12-28 03:32:15 ESP12E-S1 -0.50 -2.06 93.10
1247 2018-12-28 03:03:56 ESP12E-S1 -0.50 -2.06 93.30
1246 2018-12-28 02:35:38 ESP12E-S1 -0.50 -2.07 92.80
1245 2018-12-28 02:07:19 ESP12E-S1 -0.50 -2.07 93.00
1244 2018-12-28 01:39:01 ESP12E-S1 -0.40 -1.97 92.40
1243 2018-12-28 01:10:44 ESP12E-S1 -0.40 -1.97 92.50
1242 2018-12-28 00:42:25 ESP12E-S1 -0.40 -1.97 92.30
1241 2018-12-28 00:14:06 ESP12E-S1 -0.30 -1.87 92.10
1240 2018-12-27 23:45:49 ESP12E-S1 -0.10 -1.67 91.50
1239 2018-12-27 23:17:31 ESP12E-S1 0.20 -1.34 91.40
1238 2018-12-27 22:49:12 ESP12E-S1 0.20 -1.31 92.30
1237 2018-12-27 22:20:53 ESP12E-S1 0.10 -1.43 92.20
1236 2018-12-27 21:52:34 ESP12E-S1 0.10 -1.43 92.10
1235 2018-12-27 21:24:17 ESP12E-S1 0.10 -1.42 92.30
1234 2018-12-27 20:56:09 ESP12E-S1 0.20 -1.31 92.40
1233 2018-12-27 20:27:46 ESP12E-S1 0.10 -1.42 92.60
1232 2018-12-27 19:59:28 ESP12E-S1 0.00 -1.52 93.00
1231 2018-12-27 19:31:11 ESP12E-S1 0.00 -1.51 93.40
1230 2018-12-27 19:02:52 ESP12E-S1 0.00 -1.52 93.00
1229 2018-12-27 18:34:35 ESP12E-S1 0.00 -1.52 92.80
1228 2018-12-27 18:06:16 ESP12E-S1 0.10 -1.42 92.60
1227 2018-12-27 17:37:59 ESP12E-S1 0.60 -0.89 91.60
1226 2018-12-27 17:09:39 ESP12E-S1 0.60 -0.89 91.70
1225 2018-12-27 16:41:22 ESP12E-S1 0.90 -0.58 91.00
1224 2018-12-27 16:13:06 ESP12E-S1 1.20 -0.26 90.60
1223 2018-12-27 15:44:51 ESP12E-S1 1.80 0.39 90.00
1222 2018-12-27 15:16:36 ESP12E-S1 2.40 1.02 89.00
1221 2018-12-27 14:48:20 ESP12E-S1 2.70 1.31 87.60
1220 2018-12-27 14:20:01 ESP12E-S1 2.90 1.47 85.20
1219 2018-12-27 13:51:40 ESP12E-S1 2.60 1.18 86.90
1218 2018-12-27 13:23:21 ESP12E-S1 2.50 1.06 86.30
1217 2018-12-27 12:54:59 ESP12E-S1 2.20 0.77 88.00
1216 2018-12-27 12:26:39 ESP12E-S1 1.80 0.37 89.40
1215 2018-12-27 11:58:18 ESP12E-S1 1.50 0.03 88.90
1214 2018-12-27 11:29:56 ESP12E-S1 1.00 -0.53 88.60
1213 2018-12-27 11:01:35 ESP12E-S1 0.40 -1.15 90.10
1212 2018-12-27 10:33:11 ESP12E-S1 -0.20 -1.80 90.40
1211 2018-12-27 10:04:52 ESP12E-S1 -0.70 -2.36 90.20
1210 2018-12-27 09:36:31 ESP12E-S1 -1.00 -2.68 90.40
1209 2018-12-27 09:08:11 ESP12E-S1 -1.00 -2.68 90.50
1208 2018-12-27 08:39:57 ESP12E-S1 -1.00 -2.68 90.50
1207 2018-12-27 08:11:37 ESP12E-S1 -1.20 -2.90 90.70
1206 2018-12-27 07:43:20 ESP12E-S1 -1.20 -2.89 91.00
1205 2018-12-27 07:15:02 ESP12E-S1 -1.20 -2.88 91.20
1204 2018-12-27 06:46:54 ESP12E-S1 -1.20 -2.88 91.30
1203 2018-12-27 06:18:33 ESP12E-S1 -1.10 -2.78 91.10
1202 2018-12-27 05:50:16 ESP12E-S1 -0.90 -2.56 90.90
1201 2018-12-27 05:21:59 ESP12E-S1 -0.80 -2.45 90.80
1200 2018-12-27 04:53:41 ESP12E-S1 -0.60 -2.24 90.70
1199 2018-12-27 04:25:23 ESP12E-S1 -0.50 -2.12 91.10
1198 2018-12-27 03:57:04 ESP12E-S1 -0.60 -2.23 91.00
1197 2018-12-27 03:28:46 ESP12E-S1 -0.70 -2.34 90.90
1196 2018-12-27 03:00:27 ESP12E-S1 -0.80 -2.45 91.00
1195 2018-12-27 02:32:11 ESP12E-S1 -0.80 -2.45 90.90
1194 2018-12-27 02:03:54 ESP12E-S1 -0.70 -2.34 91.00
1193 2018-12-27 01:35:37 ESP12E-S1 -0.80 -2.45 91.00
1192 2018-12-27 01:07:18 ESP12E-S1 -0.80 -2.45 90.90
1191 2018-12-27 00:38:59 ESP12E-S1 -0.90 -2.55 91.20
1190 2018-12-27 00:10:42 ESP12E-S1 -0.70 -2.35 90.40
1189 2018-12-26 23:42:26 ESP12E-S1 -0.50 -2.14 90.20
1188 2018-12-26 23:14:08 ESP12E-S1 -0.30 -1.92 90.00
1187 2018-12-26 22:46:00 ESP12E-S1 -0.20 -1.81 90.00
1186 2018-12-26 22:17:42 ESP12E-S1 -0.10 -1.71 89.80
1185 2018-12-26 21:49:23 ESP12E-S1 -0.10 -1.72 89.50
1184 2018-12-26 21:21:06 ESP12E-S1 -0.20 -1.83 89.50
1183 2018-12-26 20:52:47 ESP12E-S1 -0.20 -1.81 90.10
1182 2018-12-26 20:24:29 ESP12E-S1 -0.30 -1.92 90.00
1181 2018-12-26 19:56:09 ESP12E-S1 -0.30 -1.91 90.40
1180 2018-12-26 19:27:50 ESP12E-S1 -0.40 -2.02 90.40
1179 2018-12-26 18:59:31 ESP12E-S1 -0.40 -2.02 90.40
1178 2018-12-26 18:31:14 ESP12E-S1 -0.40 -2.04 89.90
1177 2018-12-26 18:02:56 ESP12E-S1 -0.30 -1.94 89.40
1176 2018-12-26 17:34:39 ESP12E-S1 -0.20 -1.84 89.00
1175 2018-12-26 17:06:22 ESP12E-S1 -0.10 -1.73 89.00
1174 2018-12-26 16:38:04 ESP12E-S1 -0.10 -1.74 88.80
1173 2018-12-26 16:09:46 ESP12E-S1 0.10 -1.53 88.40
1172 2018-12-26 15:41:28 ESP12E-S1 0.20 -1.44 87.50
1171 2018-12-26 15:13:10 ESP12E-S1 0.40 -1.24 86.80
1170 2018-12-26 14:44:54 ESP12E-S1 0.60 -1.03 86.50
1169 2018-12-26 14:16:37 ESP12E-S1 0.90 -0.77 83.70
1168 2018-12-26 13:48:28 ESP12E-S1 2.10 0.43 79.20
1167 2018-12-26 13:20:04 ESP12E-S1 1.50 -0.06 85.60
1166 2018-12-26 12:51:51 ESP12E-S1 1.00 -0.53 88.50
1165 2018-12-26 12:23:24 ESP12E-S1 0.20 -1.37 90.00
1164 2018-12-26 11:55:03 ESP12E-S1 -0.50 -2.15 89.70
1163 2018-12-26 11:26:42 ESP12E-S1 -1.00 -2.72 89.20
1162 2018-12-26 10:58:23 ESP12E-S1 -1.10 -2.85 88.40
1161 2018-12-26 10:30:04 ESP12E-S1 -1.40 -3.20 87.50
1160 2018-12-26 10:01:44 ESP12E-S1 -1.90 -3.71 89.20
1159 2018-12-26 09:33:27 ESP12E-S1 -1.90 -3.70 89.40
1158 2018-12-26 09:05:08 ESP12E-S1 -1.90 -3.84 84.20
1157 2018-12-26 08:36:50 ESP12E-S1 -1.90 -3.85 83.50
1156 2018-12-26 08:08:37 ESP12E-S1 -1.80 -3.74 83.70
1155 2018-12-26 07:40:20 ESP12E-S1 -1.50 -3.41 83.50
1154 2018-12-26 07:12:03 ESP12E-S1 -1.30 -3.17 84.30
1153 2018-12-26 06:43:47 ESP12E-S1 -1.10 -2.97 83.60
1152 2018-12-26 06:15:30 ESP12E-S1 -1.10 -2.98 83.30
1151 2018-12-26 05:47:14 ESP12E-S1 -0.90 -2.77 82.90
1150 2018-12-26 05:18:57 ESP12E-S1 -0.80 -2.66 83.00
1149 2018-12-26 04:50:40 ESP12E-S1 -0.60 -2.47 81.80
1148 2018-12-26 04:22:24 ESP12E-S1 -0.40 -2.24 82.20
1147 2018-12-26 03:54:07 ESP12E-S1 -0.30 -2.13 82.30
1146 2018-12-26 03:25:50 ESP12E-S1 -0.10 -1.92 81.80
1145 2018-12-26 02:57:32 ESP12E-S1 0.10 -1.70 81.90
1144 2018-12-26 02:29:15 ESP12E-S1 0.10 -1.69 82.20
1143 2018-12-26 02:00:58 ESP12E-S1 0.30 -1.47 82.30
1142 2018-12-26 01:32:41 ESP12E-S1 0.40 -1.34 82.90
1141 2018-12-26 01:04:27 ESP12E-S1 0.60 -1.11 83.10
1140 2018-12-26 00:36:08 ESP12E-S1 0.70 -1.00 83.30
1139 2018-12-26 00:07:52 ESP12E-S1 0.80 -0.88 83.70
1138 2018-12-25 23:39:37 ESP12E-S1 1.00 -0.67 83.40
1137 2018-12-25 23:11:20 ESP12E-S1 1.30 -0.35 83.00
1136 2018-12-25 22:43:03 ESP12E-S1 1.60 -0.01 83.10
1135 2018-12-25 22:14:48 ESP12E-S1 1.80 0.23 84.00
1134 2018-12-25 21:46:32 ESP12E-S1 2.30 0.79 84.30
1133 2018-12-25 21:18:14 ESP12E-S1 2.70 1.23 84.30
1132 2018-12-25 20:49:55 ESP12E-S1 2.70 1.24 84.70
1131 2018-12-25 20:21:37 ESP12E-S1 2.70 1.21 83.80
1130 2018-12-25 19:53:19 ESP12E-S1 2.80 1.30 82.90
1129 2018-12-25 19:25:03 ESP12E-S1 3.00 1.49 81.90
1128 2018-12-25 18:56:48 ESP12E-S1 3.30 1.81 81.40
1127 2018-12-25 18:28:29 ESP12E-S1 3.30 1.80 80.80
1126 2018-12-25 18:00:11 ESP12E-S1 3.40 1.86 79.20
1125 2018-12-25 17:31:53 ESP12E-S1 3.50 1.95 78.30
1124 2018-12-25 17:03:35 ESP12E-S1 3.60 2.03 77.10
1123 2018-12-25 16:35:18 ESP12E-S1 3.70 2.11 76.00
1122 2018-12-25 16:06:59 ESP12E-S1 3.90 2.31 75.10
1121 2018-12-25 15:38:43 ESP12E-S1 4.20 2.61 73.90
1120 2018-12-25 15:10:28 ESP12E-S1 4.50 2.91 72.90
1119 2018-12-25 14:42:11 ESP12E-S1 4.70 3.06 70.30
1118 2018-12-25 14:14:08 ESP12E-S1 5.40 3.80 69.00
1117 2018-12-25 13:45:43 ESP12E-S1 5.40 3.84 70.50
1116 2018-12-25 13:17:25 ESP12E-S1 5.40 3.77 68.10
1115 2018-12-25 12:49:01 ESP12E-S1 4.60 2.97 71.10
1114 2018-12-25 12:20:42 ESP12E-S1 4.00 2.34 72.10
1113 2018-12-25 11:52:23 ESP12E-S1 3.80 2.14 72.90
1112 2018-12-25 11:24:00 ESP12E-S1 3.30 1.63 74.40
1111 2018-12-25 10:55:42 ESP12E-S1 2.90 1.26 77.10
1110 2018-12-25 10:27:23 ESP12E-S1 2.60 0.95 78.10
1109 2018-12-25 09:59:04 ESP12E-S1 2.40 0.85 82.50
1108 2018-12-25 09:30:45 ESP12E-S1 2.20 0.64 82.90
1107 2018-12-25 09:02:28 ESP12E-S1 2.00 0.40 82.20
1106 2018-12-25 08:34:09 ESP12E-S1 2.00 0.44 83.50
1105 2018-12-25 08:05:50 ESP12E-S1 1.90 0.33 83.60
1104 2018-12-25 07:37:33 ESP12E-S1 1.90 0.36 84.80
1103 2018-12-25 07:09:15 ESP12E-S1 1.80 0.20 82.80
1102 2018-12-25 06:40:56 ESP12E-S1 1.80 0.23 83.90
1101 2018-12-25 06:12:37 ESP12E-S1 1.70 0.13 84.40
1100 2018-12-25 05:44:18 ESP12E-S1 1.60 0.03 84.70
1099 2018-12-25 05:15:59 ESP12E-S1 1.60 0.00 83.70
1098 2018-12-25 04:47:41 ESP12E-S1 1.40 -0.22 83.70
1097 2018-12-25 04:19:23 ESP12E-S1 1.20 -0.44 83.50
1096 2018-12-25 03:51:03 ESP12E-S1 1.00 -0.70 82.00
1095 2018-12-25 03:22:43 ESP12E-S1 0.80 -0.96 80.60
1094 2018-12-25 02:54:26 ESP12E-S1 0.80 -1.00 79.00
1093 2018-12-25 02:26:08 ESP12E-S1 0.80 -1.03 78.00
1092 2018-12-25 01:57:50 ESP12E-S1 0.80 -1.03 78.10
1091 2018-12-25 01:29:35 ESP12E-S1 0.90 -0.90 78.50
1090 2018-12-25 01:01:17 ESP12E-S1 0.90 -0.93 77.40
1089 2018-12-25 00:33:00 ESP12E-S1 0.90 -0.90 78.70
1088 2018-12-25 00:04:44 ESP12E-S1 0.90 -0.90 78.70
1087 2018-12-24 23:36:27 ESP12E-S1 0.90 -0.90 78.80
1086 2018-12-24 23:08:10 ESP12E-S1 0.80 -0.96 80.60
1085 2018-12-24 22:39:54 ESP12E-S1 1.10 -0.66 79.60
1084 2018-12-24 22:11:38 ESP12E-S1 1.20 -0.52 80.50
1083 2018-12-24 21:43:22 ESP12E-S1 1.50 -0.19 80.70
1082 2018-12-24 21:15:08 ESP12E-S1 1.80 0.07 78.10
1081 2018-12-24 20:46:51 ESP12E-S1 1.70 0.03 80.50
1080 2018-12-24 20:18:36 ESP12E-S1 2.10 0.47 80.60
1079 2018-12-24 19:50:37 ESP12E-S1 2.20 0.55 79.60
1078 2018-12-24 19:22:27 ESP12E-S1 2.60 0.97 78.50
1077 2018-12-24 18:54:07 ESP12E-S1 2.90 1.28 78.00
1076 2018-12-24 18:25:52 ESP12E-S1 3.30 1.67 75.90
1075 2018-12-24 17:57:37 ESP12E-S1 3.70 2.08 74.70
1074 2018-12-24 17:29:22 ESP12E-S1 4.20 2.55 71.80
1073 2018-12-24 17:01:07 ESP12E-S1 4.70 3.02 68.70
1072 2018-12-24 16:32:51 ESP12E-S1 5.40 3.79 68.90
1071 2018-12-24 16:04:38 ESP12E-S1 6.20 4.59 65.70
1070 2018-12-24 15:36:25 ESP12E-S1 7.20 5.68 65.10
1069 2018-12-24 15:08:08 ESP12E-S1 7.70 6.19 63.60
1068 2018-12-24 14:40:06 ESP12E-S1 8.00 6.51 63.50
1067 2018-12-24 14:11:46 ESP12E-S1 9.10 7.71 63.00
1066 2018-12-24 13:43:27 ESP12E-S1 8.90 7.68 70.20
1065 2018-12-24 13:15:09 ESP12E-S1 8.90 7.72 71.70
1064 2018-12-24 12:46:48 ESP12E-S1 8.70 7.54 73.20
1063 2018-12-24 12:18:30 ESP12E-S1 8.60 7.57 78.50
1062 2018-12-24 11:49:59 ESP12E-S1 6.80 5.81 87.30
1061 2018-12-24 11:21:36 ESP12E-S1 5.80 4.84 92.10
1060 2018-12-24 10:54:07 ESP12E-S1 5.10 4.09 92.70
1059 2018-12-24 10:25:13 ESP12E-S1 4.90 3.88 93.20
1058 2018-12-24 09:56:54 ESP12E-S1 4.70 3.67 93.50
1057 2018-12-24 09:28:46 ESP12E-S1 4.30 3.21 93.00
1056 2018-12-24 09:00:23 ESP12E-S1 4.20 3.11 93.20
1055 2018-12-24 08:32:07 ESP12E-S1 4.20 3.10 92.70
1054 2018-12-24 08:03:51 ESP12E-S1 4.30 3.20 92.30
1053 2018-12-24 07:35:34 ESP12E-S1 4.40 3.32 92.70
1052 2018-12-24 07:07:18 ESP12E-S1 4.50 3.44 93.20
1051 2018-12-24 06:39:01 ESP12E-S1 4.60 3.55 93.30
1050 2018-12-24 06:10:43 ESP12E-S1 4.70 3.65 93.00
1049 2018-12-24 05:42:25 ESP12E-S1 4.80 3.78 93.60
1048 2018-12-24 05:14:08 ESP12E-S1 4.80 3.77 93.40
1047 2018-12-24 04:45:52 ESP12E-S1 5.20 4.22 93.60
1046 2018-12-24 04:17:37 ESP12E-S1 5.40 4.42 92.70
1045 2018-12-24 03:49:21 ESP12E-S1 5.80 4.86 92.80
1044 2018-12-24 03:21:06 ESP12E-S1 6.30 5.42 93.30
1043 2018-12-24 02:52:53 ESP12E-S1 6.90 6.07 92.70
1042 2018-12-24 02:24:39 ESP12E-S1 7.50 6.77 94.30
1041 2018-12-24 01:56:23 ESP12E-S1 7.80 7.09 94.10
1040 2018-12-24 01:28:12 ESP12E-S1 8.40 7.74 93.80
1039 2018-12-24 00:59:58 ESP12E-S1 9.20 8.72 97.50
1038 2018-12-24 00:31:42 ESP12E-S1 9.60 9.22 99.80
1037 2018-12-24 00:03:27 ESP12E-S1 10.10 9.77 99.90
1036 2018-12-23 23:35:07 ESP12E-S1 10.00 9.66 99.90
1035 2018-12-23 23:06:46 ESP12E-S1 9.80 9.44 99.90
1034 2018-12-23 22:38:25 ESP12E-S1 9.30 8.89 99.90
1033 2018-12-23 22:10:07 ESP12E-S1 8.10 7.57 99.90
1032 2018-12-23 21:41:44 ESP12E-S1 7.50 6.91 99.90
1031 2018-12-23 21:13:24 ESP12E-S1 7.10 6.46 99.40
1030 2018-12-23 20:45:05 ESP12E-S1 6.80 6.11 98.70
1029 2018-12-23 20:16:46 ESP12E-S1 6.70 5.97 97.60
1028 2018-12-23 19:48:27 ESP12E-S1 6.70 5.96 97.20
1027 2018-12-23 19:20:09 ESP12E-S1 6.70 5.95 96.70
1026 2018-12-23 18:51:51 ESP12E-S1 6.70 5.94 96.20
1025 2018-12-23 18:23:34 ESP12E-S1 6.70 5.93 95.80
1024 2018-12-23 17:55:15 ESP12E-S1 6.70 5.92 95.70
1023 2018-12-23 17:26:58 ESP12E-S1 6.80 6.03 95.40
1022 2018-12-23 16:58:42 ESP12E-S1 6.90 6.15 95.80
1021 2018-12-23 16:30:25 ESP12E-S1 7.00 6.25 95.50
1020 2018-12-23 16:02:06 ESP12E-S1 7.10 6.35 95.10
1019 2018-12-23 15:33:49 ESP12E-S1 7.30 6.56 94.90
1018 2018-12-23 15:05:33 ESP12E-S1 7.40 6.68 95.20
1017 2018-12-23 14:37:16 ESP12E-S1 7.50 6.80 95.40
1016 2018-12-23 14:08:57 ESP12E-S1 7.60 6.91 95.40
1015 2018-12-23 13:40:50 ESP12E-S1 7.70 6.99 94.20
1014 2018-12-23 13:12:27 ESP12E-S1 7.50 6.73 92.80
1013 2018-12-23 12:44:09 ESP12E-S1 7.40 6.61 92.60
1012 2018-12-23 12:15:50 ESP12E-S1 7.30 6.51 92.90
1011 2018-12-23 11:47:30 ESP12E-S1 7.20 6.41 93.10
1010 2018-12-23 11:19:12 ESP12E-S1 7.20 6.41 93.10
1009 2018-12-23 10:50:54 ESP12E-S1 7.00 6.19 93.40
1008 2018-12-23 10:22:35 ESP12E-S1 6.80 5.98 93.70
1007 2018-12-23 09:54:14 ESP12E-S1 6.70 5.87 93.80
1006 2018-12-23 09:25:55 ESP12E-S1 6.60 5.76 93.60
1005 2018-12-23 08:57:37 ESP12E-S1 6.40 5.53 93.40
1004 2018-12-23 08:29:20 ESP12E-S1 6.30 5.41 93.00
1003 2018-12-23 08:01:02 ESP12E-S1 6.30 5.41 92.70
1002 2018-12-23 07:32:44 ESP12E-S1 6.30 5.38 91.80
1001 2018-12-23 07:04:26 ESP12E-S1 6.40 5.49 91.60
1000 2018-12-23 06:36:11 ESP12E-S1 6.50 5.58 91.10
999 2018-12-23 06:07:53 ESP12E-S1 6.70 5.81 91.30
998 2018-12-23 05:39:22 ESP12E-S1 7.10 6.23 90.60
997 2018-12-23 05:13:08 ESP12E-S1 7.60 6.73 88.70
996 2018-12-22 23:46:11 ESP12E-S1 7.30 6.40 88.80
995 2018-12-22 23:17:57 ESP12E-S1 7.40 6.52 89.00
994 2018-12-22 22:49:40 ESP12E-S1 7.40 6.53 89.50
993 2018-12-22 22:21:29 ESP12E-S1 7.40 6.52 89.20
992 2018-12-22 21:53:14 ESP12E-S1 7.60 6.73 88.80
991 2018-12-22 21:25:01 ESP12E-S1 7.70 6.81 87.60
990 2018-12-22 20:56:45 ESP12E-S1 7.80 6.89 86.40
989 2018-12-22 20:28:31 ESP12E-S1 7.90 7.01 86.60
988 2018-12-22 20:00:15 ESP12E-S1 8.00 7.11 86.20
987 2018-12-22 19:31:59 ESP12E-S1 8.10 7.21 85.80
986 2018-12-22 19:03:44 ESP12E-S1 8.10 7.18 84.70
985 2018-12-22 18:35:28 ESP12E-S1 8.20 7.27 84.00
984 2018-12-22 18:07:13 ESP12E-S1 8.30 7.37 83.80
983 2018-12-22 17:38:57 ESP12E-S1 8.40 7.48 83.50
982 2018-12-22 17:10:42 ESP12E-S1 8.70 7.76 81.60
981 2018-12-22 16:42:29 ESP12E-S1 9.00 8.03 79.30
980 2018-12-22 16:14:17 ESP12E-S1 9.40 8.40 76.60
979 2018-12-22 15:46:04 ESP12E-S1 9.90 8.91 75.20
978 2018-12-22 15:17:51 ESP12E-S1 10.50 9.48 71.70
977 2018-12-22 14:49:35 ESP12E-S1 10.70 9.74 73.20
976 2018-12-22 14:21:20 ESP12E-S1 10.80 9.83 72.50
975 2018-12-22 13:52:58 ESP12E-S1 10.00 9.18 81.20
974 2018-12-22 13:24:44 ESP12E-S1 10.10 9.30 81.80
973 2018-12-22 12:56:27 ESP12E-S1 10.20 9.54 86.80
972 2018-12-22 12:28:08 ESP12E-S1 9.90 9.31 90.60
971 2018-12-22 11:59:48 ESP12E-S1 9.10 8.45 91.50
970 2018-12-22 11:31:28 ESP12E-S1 8.30 7.59 92.00
969 2018-12-22 11:03:11 ESP12E-S1 8.50 7.78 90.80
968 2018-12-22 10:35:04 ESP12E-S1 9.20 8.37 84.20
967 2018-12-22 10:06:50 ESP12E-S1 10.00 8.99 74.20
966 2018-12-22 09:39:12 ESP12E-S1 9.90 8.95 76.80
965 2018-12-22 09:02:47 ESP12E-S1 10.00 9.15 80.30
964 2018-12-22 08:35:19 ESP12E-S1 10.10 9.29 81.40
963 2018-12-22 08:01:57 ESP12E-S1 10.10 9.26 80.30
962 2018-12-22 07:33:45 ESP12E-S1 10.00 9.19 81.80
961 2018-12-22 07:06:13 ESP12E-S1 9.80 9.09 86.20
960 2018-12-22 06:27:34 ESP12E-S1 9.50 8.76 86.40
959 2018-12-22 00:22:31 ESP12E-S1 9.80 9.09 86.30
958 2018-12-21 23:55:13 ESP12E-S1 9.90 9.11 82.80
957 2018-12-21 23:27:14 ESP12E-S1 10.20 9.37 80.40
956 2018-12-21 22:56:35 ESP12E-S1 10.00 9.27 84.90
955 2018-12-21 22:28:21 ESP12E-S1 9.90 9.32 90.80
954 2018-12-21 22:00:06 ESP12E-S1 10.10 9.53 90.60
953 2018-12-21 21:32:02 ESP12E-S1 10.10 9.58 92.40
952 2018-12-21 21:03:40 ESP12E-S1 9.90 9.41 94.20
951 2018-12-21 20:35:23 ESP12E-S1 9.80 9.32 95.20
950 2018-12-21 20:07:06 ESP12E-S1 9.50 9.03 96.60
949 2018-12-21 19:38:46 ESP12E-S1 9.50 9.06 97.70
948 2018-12-21 19:11:39 ESP12E-S1 9.40 8.96 98.40
947 2018-12-21 18:41:58 ESP12E-S1 9.10 8.66 99.20
946 2018-12-21 18:13:54 ESP12E-S1 8.90 8.45 99.90
945 2018-12-21 17:45:39 ESP12E-S1 8.70 8.23 99.90
944 2018-12-21 17:17:21 ESP12E-S1 8.60 8.12 99.90
943 2018-12-21 16:49:06 ESP12E-S1 8.50 8.01 99.90
942 2018-12-21 16:20:49 ESP12E-S1 8.40 7.90 99.90
941 2018-12-21 15:52:31 ESP12E-S1 8.30 7.79 99.90
940 2018-12-21 15:24:15 ESP12E-S1 8.10 7.57 99.90
939 2018-12-21 14:55:59 ESP12E-S1 7.90 7.35 99.90
938 2018-12-21 14:27:41 ESP12E-S1 7.80 7.24 99.90
937 2018-12-21 13:59:25 ESP12E-S1 7.80 7.24 99.90
936 2018-12-21 13:31:10 ESP12E-S1 7.70 7.13 99.70
935 2018-12-21 13:02:53 ESP12E-S1 7.60 7.02 99.60
934 2018-12-21 12:34:35 ESP12E-S1 7.30 6.69 99.60
933 2018-12-21 12:06:20 ESP12E-S1 7.00 6.36 99.90
932 2018-12-21 11:38:00 ESP12E-S1 6.50 5.81 99.90
931 2018-12-21 11:09:43 ESP12E-S1 6.10 5.36 99.20
930 2018-12-21 10:41:27 ESP12E-S1 5.80 5.01 98.50
929 2018-12-21 10:13:10 ESP12E-S1 5.70 4.88 98.00
928 2018-12-21 09:44:52 ESP12E-S1 5.60 4.77 97.90
927 2018-12-21 09:16:44 ESP12E-S1 5.50 4.65 97.40
926 2018-12-21 08:48:24 ESP12E-S1 5.40 4.52 96.60
925 2018-12-21 08:20:07 ESP12E-S1 5.30 4.39 95.90
924 2018-12-21 07:51:51 ESP12E-S1 5.40 4.48 95.00
923 2018-12-21 07:23:40 ESP12E-S1 5.60 4.67 94.00
922 2018-12-21 06:57:52 ESP12E-S1 6.20 5.32 93.60
921 2018-12-21 01:16:59 ESP12E-S1 5.80 4.89 94.00
920 2018-12-20 23:27:52 ESP12E-S1 5.50 4.58 94.80
919 2018-12-20 22:58:09 ESP12E-S1 5.50 4.58 94.90
918 2018-12-20 22:29:56 ESP12E-S1 5.50 4.58 94.90
917 2018-12-20 22:01:41 ESP12E-S1 5.50 4.58 94.90
916 2018-12-20 21:33:51 ESP12E-S1 5.40 4.47 94.60
915 2018-12-20 21:05:22 ESP12E-S1 5.50 4.57 94.30
914 2018-12-20 20:37:23 ESP12E-S1 5.50 4.56 94.10
913 2018-12-20 20:08:38 ESP12E-S1 5.60 4.66 93.80
912 2018-12-20 18:58:09 ESP12E-S1 5.50 4.57 94.30
911 2018-12-20 18:29:51 ESP12E-S1 5.50 4.57 94.30
910 2018-12-20 18:01:36 ESP12E-S1 5.50 4.57 94.50
909 2018-12-20 17:33:27 ESP12E-S1 5.60 4.69 94.90
908 2018-12-20 17:05:11 ESP12E-S1 5.50 4.59 95.00
907 2018-12-20 16:36:55 ESP12E-S1 5.60 4.70 95.10
906 2018-12-20 16:08:43 ESP12E-S1 5.60 4.70 95.00
905 2018-12-20 15:40:27 ESP12E-S1 5.60 4.70 95.00
904 2018-12-20 15:12:11 ESP12E-S1 5.50 4.58 94.90
903 2018-12-20 14:43:56 ESP12E-S1 5.60 4.69 94.80
902 2018-12-20 14:15:40 ESP12E-S1 5.50 4.58 94.70
901 2018-12-20 13:47:23 ESP12E-S1 5.40 4.47 94.90
900 2018-12-20 13:19:06 ESP12E-S1 5.20 4.28 95.80
899 2018-12-20 12:50:50 ESP12E-S1 5.10 4.17 96.00
898 2018-12-20 12:22:33 ESP12E-S1 5.10 4.17 96.10
897 2018-12-20 11:54:16 ESP12E-S1 5.00 4.07 96.30
896 2018-12-20 11:26:00 ESP12E-S1 5.00 4.06 96.00
895 2018-12-20 10:57:44 ESP12E-S1 5.00 4.06 95.90
894 2018-12-20 10:29:28 ESP12E-S1 4.90 3.95 95.90
893 2018-12-20 10:01:14 ESP12E-S1 4.80 3.84 95.90
892 2018-12-20 09:32:56 ESP12E-S1 4.70 3.74 96.20
891 2018-12-20 09:04:41 ESP12E-S1 4.60 3.63 96.40
890 2018-12-20 08:36:25 ESP12E-S1 4.50 3.51 96.10
889 2018-12-20 08:08:11 ESP12E-S1 4.50 3.51 96.00
888 2018-12-20 07:39:56 ESP12E-S1 4.50 3.51 95.90
887 2018-12-20 07:11:43 ESP12E-S1 4.50 3.51 95.80
886 2018-12-20 06:43:29 ESP12E-S1 4.50 3.50 95.70
885 2018-12-20 06:15:13 ESP12E-S1 4.40 3.39 95.70
884 2018-12-20 05:46:57 ESP12E-S1 4.40 3.39 95.60
883 2018-12-20 05:18:43 ESP12E-S1 4.40 3.38 95.20
882 2018-12-20 04:50:28 ESP12E-S1 4.50 3.49 95.20
881 2018-12-20 04:22:13 ESP12E-S1 4.50 3.49 95.10
880 2018-12-20 03:53:58 ESP12E-S1 4.50 3.49 95.00
879 2018-12-20 03:25:41 ESP12E-S1 4.40 3.38 95.10
878 2018-12-20 02:57:26 ESP12E-S1 4.40 3.38 95.10
877 2018-12-20 02:29:11 ESP12E-S1 4.40 3.37 94.90
876 2018-12-20 02:00:54 ESP12E-S1 4.40 3.37 94.90
875 2018-12-20 01:32:39 ESP12E-S1 4.30 3.26 94.90
874 2018-12-20 01:04:23 ESP12E-S1 4.30 3.27 95.00
873 2018-12-20 00:36:09 ESP12E-S1 4.40 3.38 95.00
872 2018-12-20 00:07:54 ESP12E-S1 4.50 3.48 94.90
871 2018-12-19 23:39:38 ESP12E-S1 4.50 3.48 94.70
870 2018-12-19 23:11:23 ESP12E-S1 4.50 3.48 94.80
869 2018-12-19 22:43:11 ESP12E-S1 4.50 3.48 94.60
868 2018-12-19 22:14:54 ESP12E-S1 4.50 3.48 94.80
867 2018-12-19 21:46:39 ESP12E-S1 4.40 3.36 94.50
866 2018-12-19 21:18:25 ESP12E-S1 4.30 3.25 94.20
865 2018-12-19 20:50:10 ESP12E-S1 4.30 3.23 93.70
864 2018-12-19 20:21:54 ESP12E-S1 4.20 3.11 93.30
863 2018-12-19 19:53:38 ESP12E-S1 4.10 2.99 92.90
862 2018-12-19 19:25:29 ESP12E-S1 4.00 2.87 92.40
861 2018-12-19 18:57:13 ESP12E-S1 4.00 2.86 92.20
860 2018-12-19 18:28:59 ESP12E-S1 4.10 2.97 92.00
859 2018-12-19 18:00:44 ESP12E-S1 4.20 3.09 92.40
858 2018-12-19 17:32:34 ESP12E-S1 4.10 2.97 92.20
857 2018-12-19 17:04:17 ESP12E-S1 4.00 2.86 92.10
856 2018-12-19 16:36:02 ESP12E-S1 4.10 2.97 91.90
855 2018-12-19 16:07:45 ESP12E-S1 4.20 3.07 91.80
854 2018-12-19 15:39:30 ESP12E-S1 4.10 2.97 91.90
853 2018-12-19 15:11:14 ESP12E-S1 4.10 2.98 92.60
852 2018-12-19 14:42:58 ESP12E-S1 4.00 2.87 92.60
851 2018-12-19 14:14:42 ESP12E-S1 4.00 2.88 92.90
850 2018-12-19 13:46:27 ESP12E-S1 3.70 2.53 92.20
849 2018-12-19 13:18:11 ESP12E-S1 3.70 2.53 92.00
848 2018-12-19 12:49:55 ESP12E-S1 3.60 2.42 91.90
847 2018-12-19 12:21:38 ESP12E-S1 3.40 2.19 91.80
846 2018-12-19 11:53:20 ESP12E-S1 3.10 1.85 91.30
845 2018-12-19 11:25:04 ESP12E-S1 2.90 1.62 91.10
844 2018-12-19 10:56:48 ESP12E-S1 2.60 1.29 90.90
843 2018-12-19 10:28:33 ESP12E-S1 2.60 1.29 90.80
842 2018-12-19 10:00:21 ESP12E-S1 2.50 1.18 90.80
841 2018-12-19 09:32:05 ESP12E-S1 2.40 1.06 90.70
840 2018-12-19 09:04:00 ESP12E-S1 2.30 0.94 90.10
839 2018-12-19 08:35:42 ESP12E-S1 2.20 0.84 90.60
838 2018-12-19 08:07:26 ESP12E-S1 2.20 0.85 90.90
837 2018-12-19 07:39:11 ESP12E-S1 2.20 0.84 90.70
836 2018-12-19 07:10:57 ESP12E-S1 2.10 0.74 90.80
835 2018-12-19 06:42:54 ESP12E-S1 2.10 0.73 90.40
834 2018-12-19 06:14:35 ESP12E-S1 2.10 0.69 89.00
833 2018-12-19 05:46:20 ESP12E-S1 2.00 0.60 89.90
832 2018-12-19 05:18:13 ESP12E-S1 1.90 0.50 90.10
831 2018-12-19 04:49:54 ESP12E-S1 1.90 0.50 90.10
830 2018-12-19 04:21:39 ESP12E-S1 1.80 0.38 89.70
829 2018-12-19 03:53:23 ESP12E-S1 1.80 0.38 89.60
828 2018-12-19 03:25:08 ESP12E-S1 1.80 0.39 90.10
827 2018-12-19 02:56:52 ESP12E-S1 1.80 0.39 90.20
826 2018-12-19 02:28:37 ESP12E-S1 1.80 0.39 90.20
825 2018-12-19 02:00:22 ESP12E-S1 1.70 0.28 90.10
824 2018-12-19 01:32:07 ESP12E-S1 1.70 0.28 90.20
823 2018-12-19 01:03:52 ESP12E-S1 1.70 0.28 90.20
822 2018-12-19 00:35:35 ESP12E-S1 1.70 0.28 90.10
821 2018-12-19 00:07:21 ESP12E-S1 1.70 0.27 89.70
820 2018-12-18 23:39:07 ESP12E-S1 1.70 0.25 89.00
819 2018-12-18 23:10:52 ESP12E-S1 1.90 0.47 89.00
818 2018-12-18 22:42:39 ESP12E-S1 2.10 0.69 89.00
817 2018-12-18 22:14:28 ESP12E-S1 2.30 0.92 89.30
816 2018-12-18 21:46:14 ESP12E-S1 2.50 1.16 90.00
815 2018-12-18 21:18:01 ESP12E-S1 2.70 1.39 90.50
814 2018-12-18 20:49:47 ESP12E-S1 2.80 1.51 91.00
813 2018-12-18 20:21:33 ESP12E-S1 2.90 1.63 91.20
812 2018-12-18 19:53:18 ESP12E-S1 3.10 1.85 91.30
811 2018-12-18 19:25:03 ESP12E-S1 3.20 1.95 91.10
810 2018-12-18 18:56:49 ESP12E-S1 3.40 2.17 91.00
809 2018-12-18 18:28:34 ESP12E-S1 3.60 2.39 91.00
808 2018-12-18 18:00:19 ESP12E-S1 3.70 2.50 90.90
807 2018-12-18 17:32:06 ESP12E-S1 3.90 2.72 90.90
806 2018-12-18 17:03:52 ESP12E-S1 4.20 3.04 90.70
805 2018-12-18 16:35:39 ESP12E-S1 4.60 3.48 90.70
804 2018-12-18 16:07:26 ESP12E-S1 5.10 4.03 90.70
803 2018-12-18 15:39:11 ESP12E-S1 5.40 4.37 90.80
802 2018-12-18 15:11:01 ESP12E-S1 5.50 4.48 91.10
801 2018-12-18 14:42:44 ESP12E-S1 5.60 4.59 91.10
800 2018-12-18 14:14:26 ESP12E-S1 5.50 4.49 91.40
799 2018-12-18 13:46:12 ESP12E-S1 5.20 4.16 91.40
798 2018-12-18 13:18:04 ESP12E-S1 5.10 4.04 91.10
797 2018-12-18 12:49:45 ESP12E-S1 4.90 3.84 91.60
796 2018-12-18 12:21:26 ESP12E-S1 4.60 3.53 92.40
795 2018-12-18 11:53:08 ESP12E-S1 4.20 3.10 93.00
794 2018-12-18 11:24:50 ESP12E-S1 4.00 2.91 93.90
793 2018-12-18 10:56:36 ESP12E-S1 4.10 3.00 93.40
792 2018-12-18 10:28:20 ESP12E-S1 4.20 3.11 93.20
791 2018-12-18 10:00:04 ESP12E-S1 3.90 2.78 93.20
790 2018-12-18 09:31:48 ESP12E-S1 3.70 2.56 93.10
789 2018-12-18 09:03:31 ESP12E-S1 3.60 2.45 93.20
788 2018-12-18 08:35:28 ESP12E-S1 3.60 2.46 93.60
787 2018-12-18 08:07:09 ESP12E-S1 3.50 2.34 93.20
786 2018-12-18 07:38:53 ESP12E-S1 3.40 2.23 93.30
785 2018-12-18 07:10:37 ESP12E-S1 3.40 2.23 93.30
784 2018-12-18 06:42:22 ESP12E-S1 3.40 2.24 93.60
783 2018-12-18 06:14:07 ESP12E-S1 3.30 2.12 93.40
782 2018-12-18 05:45:52 ESP12E-S1 3.20 2.01 93.40
781 2018-12-18 05:17:36 ESP12E-S1 3.20 2.01 93.40
780 2018-12-18 04:49:18 ESP12E-S1 3.00 1.79 93.30
779 2018-12-18 04:21:03 ESP12E-S1 3.00 1.78 93.00
778 2018-12-18 03:52:46 ESP12E-S1 3.00 1.78 92.80
777 2018-12-18 03:24:30 ESP12E-S1 2.90 1.67 92.70
776 2018-12-18 02:56:16 ESP12E-S1 2.90 1.67 92.80
775 2018-12-18 02:28:02 ESP12E-S1 3.10 1.90 93.20
774 2018-12-18 01:59:47 ESP12E-S1 3.20 2.02 93.80
773 2018-12-18 01:31:32 ESP12E-S1 3.50 2.35 93.80
772 2018-12-18 01:03:17 ESP12E-S1 3.50 2.36 94.00
771 2018-12-18 00:35:05 ESP12E-S1 3.50 2.36 94.00
770 2018-12-18 00:06:48 ESP12E-S1 3.60 2.47 94.10
769 2018-12-17 23:38:32 ESP12E-S1 3.60 2.48 94.20
768 2018-12-17 23:10:16 ESP12E-S1 3.60 2.48 94.30
767 2018-12-17 22:41:59 ESP12E-S1 3.50 2.38 94.60
766 2018-12-17 22:13:42 ESP12E-S1 3.50 2.37 94.50
765 2018-12-17 21:45:27 ESP12E-S1 3.40 2.26 94.50
764 2018-12-17 21:17:17 ESP12E-S1 3.30 2.15 94.30
763 2018-12-17 20:49:00 ESP12E-S1 3.30 2.15 94.50
762 2018-12-17 20:20:44 ESP12E-S1 3.20 2.04 94.50
761 2018-12-17 19:52:29 ESP12E-S1 3.10 1.94 94.60
760 2018-12-17 19:24:12 ESP12E-S1 3.00 1.83 94.60
759 2018-12-17 18:56:05 ESP12E-S1 3.00 1.82 94.50
758 2018-12-17 18:27:47 ESP12E-S1 2.90 1.71 94.50
757 2018-12-17 17:59:31 ESP12E-S1 2.80 1.60 94.30
756 2018-12-17 17:31:15 ESP12E-S1 2.70 1.49 94.20
755 2018-12-17 17:02:59 ESP12E-S1 2.60 1.36 93.70
754 2018-12-17 16:34:43 ESP12E-S1 2.50 1.25 93.50
753 2018-12-17 16:06:27 ESP12E-S1 2.40 1.13 93.40
752 2018-12-17 15:38:13 ESP12E-S1 2.40 1.13 93.40
751 2018-12-17 15:09:58 ESP12E-S1 2.40 1.13 93.10
750 2018-12-17 14:41:42 ESP12E-S1 2.40 1.13 93.10
749 2018-12-17 14:13:27 ESP12E-S1 2.40 1.13 93.10
748 2018-12-17 13:45:11 ESP12E-S1 2.30 1.02 93.10
747 2018-12-17 13:16:55 ESP12E-S1 2.30 1.02 93.10
746 2018-12-17 12:48:40 ESP12E-S1 2.20 0.90 92.90
745 2018-12-17 12:20:24 ESP12E-S1 2.10 0.78 92.60
744 2018-12-17 11:52:14 ESP12E-S1 2.00 0.67 92.50
743 2018-12-17 11:23:57 ESP12E-S1 1.90 0.56 92.50
742 2018-12-17 10:55:41 ESP12E-S1 1.90 0.56 92.40
741 2018-12-17 10:27:27 ESP12E-S1 1.90 0.56 92.40
740 2018-12-17 09:59:10 ESP12E-S1 1.80 0.46 92.80
739 2018-12-17 09:30:54 ESP12E-S1 1.60 0.23 92.60
738 2018-12-17 09:02:39 ESP12E-S1 1.60 0.24 92.70
737 2018-12-17 08:34:23 ESP12E-S1 1.60 0.23 92.30
736 2018-12-17 08:06:07 ESP12E-S1 1.60 0.23 92.50
735 2018-12-17 07:37:51 ESP12E-S1 1.50 0.09 91.30
734 2018-12-17 07:09:35 ESP12E-S1 1.40 -0.01 91.70
733 2018-12-17 06:41:19 ESP12E-S1 1.30 -0.13 91.40
732 2018-12-17 06:13:03 ESP12E-S1 1.30 -0.13 91.50
731 2018-12-17 05:44:49 ESP12E-S1 1.30 -0.13 91.50
730 2018-12-17 05:16:34 ESP12E-S1 1.50 0.09 91.20
729 2018-12-17 04:48:19 ESP12E-S1 1.40 -0.04 90.50
728 2018-12-17 04:20:03 ESP12E-S1 1.30 -0.15 90.60
727 2018-12-17 03:51:48 ESP12E-S1 1.20 -0.26 90.50
726 2018-12-17 03:23:32 ESP12E-S1 1.20 -0.26 90.50
725 2018-12-17 02:55:17 ESP12E-S1 1.10 -0.38 90.20
724 2018-12-17 02:27:00 ESP12E-S1 1.00 -0.48 90.60
723 2018-12-17 01:58:45 ESP12E-S1 1.00 -0.48 90.40
722 2018-12-17 01:30:29 ESP12E-S1 0.90 -0.59 90.70
721 2018-12-17 01:02:13 ESP12E-S1 0.80 -0.70 90.50
720 2018-12-17 00:33:56 ESP12E-S1 0.70 -0.82 90.30
719 2018-12-17 00:05:40 ESP12E-S1 0.60 -0.92 90.70
718 2018-12-16 23:37:25 ESP12E-S1 0.50 -1.04 90.20
717 2018-12-16 23:09:11 ESP12E-S1 0.60 -0.93 90.10
716 2018-12-16 22:40:57 ESP12E-S1 0.70 -0.82 90.00
715 2018-12-16 22:12:43 ESP12E-S1 0.70 -0.83 89.90
714 2018-12-16 21:44:26 ESP12E-S1 0.50 -1.07 89.00
713 2018-12-16 21:16:10 ESP12E-S1 0.40 -1.17 89.50
712 2018-12-16 20:47:54 ESP12E-S1 0.20 -1.38 89.70
711 2018-12-16 20:19:38 ESP12E-S1 0.00 -1.62 89.10
710 2018-12-16 19:51:23 ESP12E-S1 -0.20 -1.86 88.30
709 2018-12-16 19:23:07 ESP12E-S1 -0.40 -2.10 87.60
708 2018-12-16 18:54:51 ESP12E-S1 -0.60 -2.33 87.20
707 2018-12-16 18:26:36 ESP12E-S1 -0.60 -2.35 86.40
706 2018-12-16 17:58:25 ESP12E-S1 -0.70 -2.48 85.70
705 2018-12-16 17:30:11 ESP12E-S1 -0.70 -2.48 85.50
704 2018-12-16 17:01:55 ESP12E-S1 -0.80 -2.60 85.10
703 2018-12-16 16:33:39 ESP12E-S1 -0.80 -2.62 84.60
702 2018-12-16 16:05:23 ESP12E-S1 -0.90 -2.73 84.60
701 2018-12-16 15:37:07 ESP12E-S1 -0.90 -2.74 83.90
700 2018-12-16 15:08:53 ESP12E-S1 -1.00 -2.84 84.50
699 2018-12-16 14:40:38 ESP12E-S1 -1.00 -2.86 83.70
698 2018-12-16 14:12:23 ESP12E-S1 -0.90 -2.79 82.30
697 2018-12-16 13:44:09 ESP12E-S1 -0.80 -2.70 81.20
696 2018-12-16 13:15:54 ESP12E-S1 -0.90 -2.86 79.40
695 2018-12-16 12:47:39 ESP12E-S1 -0.90 -2.87 79.10
694 2018-12-16 12:19:23 ESP12E-S1 -0.90 -2.90 77.80
693 2018-12-16 11:51:09 ESP12E-S1 -1.00 -3.05 76.30
692 2018-12-16 11:22:54 ESP12E-S1 -1.00 -3.04 76.70
691 2018-12-16 10:54:39 ESP12E-S1 -1.20 -3.28 76.00
690 2018-12-16 10:26:24 ESP12E-S1 -1.30 -3.39 76.10
689 2018-12-16 09:58:08 ESP12E-S1 -1.40 -3.48 76.80
688 2018-12-16 09:29:53 ESP12E-S1 -1.50 -3.59 76.70
687 2018-12-16 09:01:39 ESP12E-S1 -1.50 -3.61 75.90
686 2018-12-16 08:33:26 ESP12E-S1 -1.50 -3.64 75.00
685 2018-12-16 08:05:10 ESP12E-S1 -1.50 -3.64 75.00
684 2018-12-16 07:36:57 ESP12E-S1 -1.60 -3.73 75.70
683 2018-12-16 07:08:43 ESP12E-S1 -1.50 -3.66 74.20
682 2018-12-16 06:40:29 ESP12E-S1 -1.40 -3.58 73.10
681 2018-12-16 06:12:18 ESP12E-S1 -1.30 -3.56 69.30
680 2018-12-16 05:44:08 ESP12E-S1 -1.10 -3.51 62.80
679 2018-12-16 05:15:55 ESP12E-S1 -1.10 -3.56 61.10
678 2018-12-16 04:47:40 ESP12E-S1 -1.10 -3.56 61.00
677 2018-12-16 04:19:24 ESP12E-S1 -1.20 -3.68 60.70
676 2018-12-16 03:51:09 ESP12E-S1 -1.20 -3.66 61.40
675 2018-12-16 03:22:55 ESP12E-S1 -1.20 -3.67 60.90
674 2018-12-16 02:54:40 ESP12E-S1 -1.20 -3.67 61.00
673 2018-12-16 02:26:26 ESP12E-S1 -1.20 -3.67 60.90
672 2018-12-16 01:58:11 ESP12E-S1 -1.20 -3.68 60.60
671 2018-12-16 01:29:57 ESP12E-S1 -1.20 -3.68 60.60
670 2018-12-16 01:01:51 ESP12E-S1 -1.10 -3.57 60.80
669 2018-12-16 00:33:32 ESP12E-S1 -1.10 -3.57 60.50
668 2018-12-16 00:05:18 ESP12E-S1 -0.90 -3.35 60.50
667 2018-12-15 23:37:03 ESP12E-S1 -0.90 -3.38 59.70
666 2018-12-15 23:08:49 ESP12E-S1 -0.70 -3.16 59.60
665 2018-12-15 22:40:34 ESP12E-S1 -0.70 -3.17 59.30
664 2018-12-15 22:12:20 ESP12E-S1 -0.60 -3.07 58.80
663 2018-12-15 21:44:05 ESP12E-S1 -0.50 -2.97 58.50
662 2018-12-15 21:15:51 ESP12E-S1 -0.40 -2.87 58.10
661 2018-12-15 20:47:37 ESP12E-S1 -0.30 -2.75 58.30
660 2018-12-15 20:19:22 ESP12E-S1 -0.30 -2.75 58.20
659 2018-12-15 19:51:09 ESP12E-S1 -0.20 -2.66 57.70
658 2018-12-15 19:22:54 ESP12E-S1 -0.10 -2.55 57.50
657 2018-12-15 18:54:39 ESP12E-S1 0.00 -2.43 58.00
656 2018-12-15 18:26:24 ESP12E-S1 0.00 -2.41 58.80
655 2018-12-15 17:58:09 ESP12E-S1 0.00 -2.41 58.80
654 2018-12-15 17:29:58 ESP12E-S1 0.10 -2.30 58.80
653 2018-12-15 17:01:43 ESP12E-S1 0.20 -2.18 59.30
652 2018-12-15 16:33:28 ESP12E-S1 0.20 -2.17 59.40
651 2018-12-15 16:05:15 ESP12E-S1 0.30 -2.07 59.30
650 2018-12-15 15:37:00 ESP12E-S1 0.50 -1.86 58.80
649 2018-12-15 15:08:45 ESP12E-S1 0.60 -1.74 59.30
648 2018-12-15 14:40:30 ESP12E-S1 0.60 -1.75 58.70
647 2018-12-15 14:12:14 ESP12E-S1 0.60 -1.75 58.70
646 2018-12-15 13:43:58 ESP12E-S1 0.50 -1.85 59.30
645 2018-12-15 13:15:43 ESP12E-S1 0.50 -1.85 59.20
644 2018-12-15 12:47:28 ESP12E-S1 0.50 -1.83 59.90
643 2018-12-15 12:19:12 ESP12E-S1 0.50 -1.81 60.50
642 2018-12-15 11:50:56 ESP12E-S1 0.40 -1.94 59.80
641 2018-12-15 11:22:40 ESP12E-S1 0.40 -1.94 59.80
640 2018-12-15 10:54:24 ESP12E-S1 0.30 -1.98 62.60
639 2018-12-15 10:26:10 ESP12E-S1 0.10 -2.15 64.70
638 2018-12-15 09:57:56 ESP12E-S1 0.10 -2.20 62.70
637 2018-12-15 09:29:40 ESP12E-S1 0.00 -2.31 62.70
636 2018-12-15 09:01:25 ESP12E-S1 0.00 -2.30 62.90
635 2018-12-15 08:33:11 ESP12E-S1 0.00 -2.32 62.40
634 2018-12-15 08:04:56 ESP12E-S1 0.00 -2.30 62.90
633 2018-12-15 07:36:41 ESP12E-S1 0.00 -2.31 62.50
632 2018-12-15 07:08:27 ESP12E-S1 -0.10 -2.40 63.50
631 2018-12-15 06:40:12 ESP12E-S1 -0.10 -2.38 64.00
630 2018-12-15 06:11:58 ESP12E-S1 0.00 -2.26 64.40
629 2018-12-15 05:43:43 ESP12E-S1 0.00 -2.26 64.40
628 2018-12-15 05:15:30 ESP12E-S1 0.10 -2.17 63.70
627 2018-12-15 04:47:18 ESP12E-S1 0.00 -2.29 63.30
626 2018-12-15 04:19:03 ESP12E-S1 0.00 -2.30 63.10
625 2018-12-15 03:50:49 ESP12E-S1 0.10 -2.18 63.20
624 2018-12-15 03:22:34 ESP12E-S1 0.10 -2.20 62.50
623 2018-12-15 02:54:19 ESP12E-S1 0.10 -2.22 62.00
622 2018-12-15 02:26:04 ESP12E-S1 0.10 -2.24 61.20
621 2018-12-15 01:57:49 ESP12E-S1 0.10 -2.25 60.70
620 2018-12-15 01:29:34 ESP12E-S1 0.10 -2.27 59.80
619 2018-12-15 01:01:18 ESP12E-S1 0.10 -2.28 59.40
618 2018-12-15 00:33:02 ESP12E-S1 0.10 -2.28 59.60
617 2018-12-15 00:04:51 ESP12E-S1 0.10 -2.30 58.80
616 2018-12-14 23:36:34 ESP12E-S1 0.10 -2.28 59.40
615 2018-12-14 23:08:19 ESP12E-S1 0.10 -2.31 58.50
614 2018-12-14 22:40:03 ESP12E-S1 0.20 -2.21 58.10
613 2018-12-14 22:11:48 ESP12E-S1 0.20 -2.20 58.40
612 2018-12-14 21:43:44 ESP12E-S1 0.10 -2.34 57.40
611 2018-12-14 21:15:27 ESP12E-S1 0.10 -2.31 58.30
610 2018-12-14 20:47:12 ESP12E-S1 0.10 -2.31 58.20
609 2018-12-14 20:18:57 ESP12E-S1 0.00 -2.43 58.10
608 2018-12-14 19:50:43 ESP12E-S1 0.10 -2.33 57.80
607 2018-12-14 19:22:27 ESP12E-S1 0.00 -2.45 57.20
606 2018-12-14 18:54:13 ESP12E-S1 0.10 -2.33 57.50
605 2018-12-14 18:25:57 ESP12E-S1 0.20 -2.21 57.90
604 2018-12-14 17:57:42 ESP12E-S1 0.20 -2.24 57.00
603 2018-12-14 17:29:28 ESP12E-S1 0.40 -1.98 58.40
602 2018-12-14 17:01:36 ESP12E-S1 0.50 -1.85 59.10
601 2018-12-14 16:33:26 ESP12E-S1 0.60 -1.75 58.90
600 2018-12-14 16:04:54 ESP12E-S1 0.70 -1.63 59.10
599 2018-12-14 15:36:24 ESP12E-S1 0.90 -1.42 58.80
598 2018-12-14 15:08:53 ESP12E-S1 1.20 -1.08 59.10
597 2018-12-14 14:03:08 ESP12E-S1 0.90 -1.39 59.80
596 2018-12-14 13:34:49 ESP12E-S1 0.70 -1.63 59.20
595 2018-12-14 13:06:32 ESP12E-S1 0.90 -1.39 59.90
594 2018-12-14 12:38:16 ESP12E-S1 0.80 -1.50 60.10
593 2018-12-14 12:10:00 ESP12E-S1 0.80 -1.49 60.40
592 2018-12-14 11:41:45 ESP12E-S1 0.70 -1.60 60.30
591 2018-12-14 11:13:30 ESP12E-S1 0.70 -1.59 60.70
590 2018-12-14 10:45:15 ESP12E-S1 0.60 -1.68 61.30
589 2018-12-14 10:16:59 ESP12E-S1 0.60 -1.70 60.80
588 2018-12-14 09:48:47 ESP12E-S1 0.50 -1.82 60.30
587 2018-12-14 09:20:30 ESP12E-S1 0.40 -1.91 61.00
586 2018-12-14 08:52:16 ESP12E-S1 0.40 -1.93 60.20
585 2018-12-14 08:24:01 ESP12E-S1 0.40 -1.90 61.40
584 2018-12-14 07:55:46 ESP12E-S1 0.40 -1.90 61.30
583 2018-12-14 07:27:31 ESP12E-S1 0.40 -1.91 61.20
582 2018-12-14 06:59:16 ESP12E-S1 0.40 -1.92 60.70
581 2018-12-14 06:31:00 ESP12E-S1 0.40 -1.93 60.20
580 2018-12-14 06:02:45 ESP12E-S1 0.40 -1.93 60.20
579 2018-12-14 05:34:31 ESP12E-S1 0.40 -1.94 59.90
578 2018-12-14 05:06:16 ESP12E-S1 0.40 -1.92 60.70
577 2018-12-14 04:37:39 ESP12E-S1 0.50 -1.79 61.30
576 2018-12-14 04:09:59 ESP12E-S1 0.60 -1.68 61.60
575 2018-12-14 03:39:35 ESP12E-S1 0.60 -1.68 61.40
574 2018-12-14 03:07:22 ESP12E-S1 0.70 -1.60 60.30
573 2018-12-14 02:39:08 ESP12E-S1 0.60 -1.70 60.80
572 2018-12-14 02:10:53 ESP12E-S1 0.70 -1.60 60.30
571 2018-12-14 01:42:38 ESP12E-S1 0.70 -1.58 61.10
570 2018-12-14 01:14:24 ESP12E-S1 0.70 -1.59 60.80
569 2018-12-14 00:46:09 ESP12E-S1 0.90 -1.36 61.10
568 2018-12-14 00:18:31 ESP12E-S1 0.80 -1.47 61.00
567 2018-12-13 23:50:10 ESP12E-S1 0.90 -1.37 60.80
566 2018-12-13 23:22:19 ESP12E-S1 1.00 -1.28 60.10
565 2018-12-13 22:54:03 ESP12E-S1 1.10 -1.16 60.40
564 2018-12-13 22:26:00 ESP12E-S1 1.10 -1.12 61.70
563 2018-12-13 21:56:52 ESP12E-S1 1.20 -1.04 60.80
562 2018-12-13 21:28:32 ESP12E-S1 1.20 -1.01 61.90
561 2018-12-13 21:00:17 ESP12E-S1 1.30 -0.89 62.20
560 2018-12-13 20:32:02 ESP12E-S1 1.30 -0.92 61.20
559 2018-12-13 20:03:47 ESP12E-S1 1.40 -0.81 61.00
558 2018-12-13 19:35:33 ESP12E-S1 1.50 -0.69 61.50
557 2018-12-13 19:07:38 ESP12E-S1 1.60 -0.59 60.90
556 2018-12-13 18:39:17 ESP12E-S1 1.60 -0.59 61.10
555 2018-12-13 18:11:02 ESP12E-S1 1.70 -0.45 62.10
554 2018-12-13 17:42:47 ESP12E-S1 1.80 -0.41 59.40
553 2018-12-13 17:14:35 ESP12E-S1 2.20 0.02 59.20
552 2018-12-13 16:46:20 ESP12E-S1 2.30 0.11 58.50
551 2018-12-13 16:17:58 ESP12E-S1 2.80 0.64 57.80
550 2018-12-13 15:50:08 ESP12E-S1 3.40 1.29 57.20
549 2018-12-13 15:15:10 ESP12E-S1 4.30 2.19 53.90
548 2018-12-13 14:47:00 ESP12E-S1 5.60 3.64 54.70
547 2018-12-13 14:18:27 ESP12E-S1 5.50 3.57 56.00
546 2018-12-13 13:50:15 ESP12E-S1 5.00 3.00 55.40
545 2018-12-13 13:22:00 ESP12E-S1 5.10 3.14 56.60
544 2018-12-13 12:53:42 ESP12E-S1 4.80 2.81 56.60
543 2018-12-13 12:25:23 ESP12E-S1 4.10 2.11 59.00
542 2018-12-13 11:57:05 ESP12E-S1 3.50 1.49 60.50
541 2018-12-13 11:28:46 ESP12E-S1 3.00 1.00 63.00
540 2018-12-13 11:00:27 ESP12E-S1 2.30 0.24 63.40
539 2018-12-13 10:32:09 ESP12E-S1 1.40 -0.65 67.00
538 2018-12-13 10:03:50 ESP12E-S1 0.70 -1.36 69.40
537 2018-12-13 09:35:35 ESP12E-S1 0.40 -1.64 71.40
536 2018-12-13 09:07:20 ESP12E-S1 0.30 -1.72 72.40
535 2018-12-13 08:39:05 ESP12E-S1 0.30 -1.72 72.70
534 2018-12-13 08:11:00 ESP12E-S1 0.30 -1.74 71.80
533 2018-12-13 07:42:44 ESP12E-S1 0.50 -1.51 72.10
532 2018-12-13 07:14:35 ESP12E-S1 0.70 -1.27 72.80
531 2018-12-13 06:46:21 ESP12E-S1 0.90 -1.03 73.80
530 2018-12-13 06:18:10 ESP12E-S1 1.30 -0.57 74.60
529 2018-12-13 05:49:57 ESP12E-S1 1.60 -0.22 75.20
528 2018-12-13 05:21:55 ESP12E-S1 1.80 0.04 76.60
527 2018-12-13 04:53:38 ESP12E-S1 2.00 0.26 76.90
526 2018-12-13 04:25:23 ESP12E-S1 2.00 0.26 76.80
525 2018-12-13 03:57:06 ESP12E-S1 2.00 0.24 76.00
524 2018-12-13 03:28:52 ESP12E-S1 1.90 0.09 74.40
523 2018-12-13 03:00:35 ESP12E-S1 1.80 -0.07 72.70
522 2018-12-13 02:32:20 ESP12E-S1 1.60 -0.22 75.40
521 2018-12-13 02:04:06 ESP12E-S1 1.90 0.21 79.20
520 2018-12-13 01:36:17 ESP12E-S1 2.10 0.44 79.50
519 2018-12-13 01:07:55 ESP12E-S1 2.50 0.87 79.20
518 2018-12-13 00:39:42 ESP12E-S1 2.80 1.18 78.20
517 2018-12-13 00:11:34 ESP12E-S1 3.10 1.50 77.90
516 2018-12-12 23:43:18 ESP12E-S1 3.10 1.49 77.70
515 2018-12-12 23:15:03 ESP12E-S1 3.20 1.59 77.30
514 2018-12-12 22:46:48 ESP12E-S1 3.20 1.59 77.10
513 2018-12-12 22:18:33 ESP12E-S1 3.20 1.56 76.00
512 2018-12-12 21:50:18 ESP12E-S1 3.30 1.66 75.50
511 2018-12-12 21:22:06 ESP12E-S1 3.30 1.63 74.50
510 2018-12-12 20:53:53 ESP12E-S1 3.40 1.69 72.60
509 2018-12-12 20:25:38 ESP12E-S1 3.40 1.65 71.10
508 2018-12-12 19:57:24 ESP12E-S1 3.40 1.67 71.60
507 2018-12-12 19:29:09 ESP12E-S1 3.50 1.78 71.90
506 2018-12-12 19:00:59 ESP12E-S1 3.40 1.69 72.70
505 2018-12-12 18:32:43 ESP12E-S1 3.40 1.70 72.80
504 2018-12-12 18:04:30 ESP12E-S1 3.80 2.16 73.80
503 2018-12-12 17:36:17 ESP12E-S1 3.90 2.27 73.80
502 2018-12-12 17:08:02 ESP12E-S1 4.20 2.57 72.60
501 2018-12-12 16:39:48 ESP12E-S1 4.40 2.73 70.40
500 2018-12-12 16:11:35 ESP12E-S1 4.60 2.98 71.50
499 2018-12-12 15:43:22 ESP12E-S1 5.00 3.37 69.50
498 2018-12-12 15:15:11 ESP12E-S1 5.50 3.88 67.90
497 2018-12-12 14:47:03 ESP12E-S1 6.90 5.33 64.60
496 2018-12-12 14:18:47 ESP12E-S1 7.40 5.90 65.40
495 2018-12-12 13:50:27 ESP12E-S1 6.60 5.05 66.30
494 2018-12-12 13:22:07 ESP12E-S1 6.30 4.83 70.80
493 2018-12-12 12:53:49 ESP12E-S1 5.60 4.13 73.50
492 2018-12-12 12:25:32 ESP12E-S1 5.10 3.57 72.80
491 2018-12-12 11:57:14 ESP12E-S1 4.80 3.28 74.30
490 2018-12-12 11:28:56 ESP12E-S1 4.60 3.05 74.20
489 2018-12-12 11:00:39 ESP12E-S1 4.20 2.65 75.50
488 2018-12-12 10:32:18 ESP12E-S1 3.60 2.04 77.50
487 2018-12-12 10:04:09 ESP12E-S1 3.30 1.66 75.60
486 2018-12-12 09:35:50 ESP12E-S1 3.00 1.31 75.00
485 2018-12-12 09:07:33 ESP12E-S1 3.10 1.42 75.00
484 2018-12-12 08:39:18 ESP12E-S1 3.00 1.30 74.50
483 2018-12-12 08:11:04 ESP12E-S1 3.10 1.46 76.50
482 2018-12-12 07:42:49 ESP12E-S1 3.20 1.71 81.80
481 2018-12-12 07:14:34 ESP12E-S1 3.20 1.73 82.70
480 2018-12-12 06:46:19 ESP12E-S1 3.30 1.87 83.50
479 2018-12-12 06:18:04 ESP12E-S1 3.30 1.87 83.70
478 2018-12-12 05:50:00 ESP12E-S1 3.10 1.70 85.50
477 2018-12-12 05:21:42 ESP12E-S1 3.20 1.78 84.50
476 2018-12-12 04:53:26 ESP12E-S1 3.30 1.84 82.50
475 2018-12-12 04:25:11 ESP12E-S1 3.30 1.81 81.30
474 2018-12-12 03:56:57 ESP12E-S1 3.30 1.83 82.10
473 2018-12-12 03:28:42 ESP12E-S1 3.40 1.96 82.80
472 2018-12-12 03:00:26 ESP12E-S1 3.40 2.01 84.70
471 2018-12-12 02:32:11 ESP12E-S1 3.40 2.03 85.60
470 2018-12-12 02:03:55 ESP12E-S1 3.40 2.03 85.50
469 2018-12-12 01:35:39 ESP12E-S1 3.40 2.03 85.70
468 2018-12-12 01:07:24 ESP12E-S1 3.40 2.05 86.20
467 2018-12-12 00:39:09 ESP12E-S1 3.40 2.06 86.80
466 2018-12-12 00:10:55 ESP12E-S1 3.40 2.04 86.10
465 2018-12-11 23:42:42 ESP12E-S1 3.40 2.04 86.00
464 2018-12-11 23:14:27 ESP12E-S1 3.30 1.93 85.80
463 2018-12-11 22:46:11 ESP12E-S1 3.30 1.92 85.50
462 2018-12-11 22:17:56 ESP12E-S1 3.30 1.92 85.70
461 2018-12-11 21:49:41 ESP12E-S1 3.20 1.82 85.90
460 2018-12-11 21:21:26 ESP12E-S1 3.20 1.85 87.10
459 2018-12-11 20:53:11 ESP12E-S1 3.20 1.85 87.10
458 2018-12-11 20:24:57 ESP12E-S1 3.20 1.85 87.00
457 2018-12-11 19:56:48 ESP12E-S1 3.20 1.84 86.60
456 2018-12-11 19:28:31 ESP12E-S1 3.20 1.83 86.50
455 2018-12-11 19:00:16 ESP12E-S1 3.50 2.16 86.50
454 2018-12-11 18:32:01 ESP12E-S1 3.60 2.22 84.30
453 2018-12-11 18:03:49 ESP12E-S1 3.90 2.51 82.90
452 2018-12-11 17:35:36 ESP12E-S1 4.00 2.61 82.70
451 2018-12-11 17:07:32 ESP12E-S1 4.20 2.79 80.80
450 2018-12-11 16:39:07 ESP12E-S1 4.40 2.94 78.40
449 2018-12-11 16:10:24 ESP12E-S1 5.50 4.16 78.70
448 2018-12-11 15:41:57 ESP12E-S1 6.60 5.26 74.30
447 2018-12-11 15:13:41 ESP12E-S1 7.60 6.27 71.20
446 2018-12-11 14:45:35 ESP12E-S1 7.40 6.09 72.50
445 2018-12-11 14:17:36 ESP12E-S1 7.90 6.62 71.70
444 2018-12-11 13:49:26 ESP12E-S1 9.30 8.11 69.90
443 2018-12-11 13:20:53 ESP12E-S1 7.70 6.56 78.00
442 2018-12-11 12:52:48 ESP12E-S1 7.40 6.23 78.00
441 2018-12-11 12:24:34 ESP12E-S1 6.10 4.81 78.30
440 2018-12-11 11:56:29 ESP12E-S1 8.50 7.30 72.70
439 2018-12-11 11:27:57 ESP12E-S1 5.80 4.60 82.80
438 2018-12-11 10:59:30 ESP12E-S1 3.80 2.53 87.70
437 2018-12-11 10:31:18 ESP12E-S1 4.10 2.83 86.80
436 2018-12-11 10:03:01 ESP12E-S1 3.60 2.31 87.90
435 2018-12-11 09:34:45 ESP12E-S1 3.50 2.22 88.50
434 2018-12-11 09:06:29 ESP12E-S1 3.40 2.11 88.50
433 2018-12-11 08:38:14 ESP12E-S1 3.30 2.01 89.20
432 2018-12-11 08:09:58 ESP12E-S1 3.40 2.13 89.50
431 2018-12-11 07:41:43 ESP12E-S1 3.50 2.22 88.70
430 2018-12-11 07:13:27 ESP12E-S1 3.30 2.00 88.70
429 2018-12-11 06:45:14 ESP12E-S1 3.30 2.01 89.10
428 2018-12-11 06:16:59 ESP12E-S1 3.10 1.82 90.20
427 2018-12-11 05:48:44 ESP12E-S1 3.10 1.81 89.90
426 2018-12-11 05:20:31 ESP12E-S1 3.10 1.79 89.10
425 2018-12-11 04:52:25 ESP12E-S1 3.20 1.90 89.10
424 2018-12-11 04:24:07 ESP12E-S1 3.20 1.90 88.90
423 2018-12-11 03:55:49 ESP12E-S1 3.10 1.79 89.20
422 2018-12-11 03:27:35 ESP12E-S1 3.10 1.80 89.40
421 2018-12-11 02:59:20 ESP12E-S1 3.00 1.69 89.30
420 2018-12-11 02:31:05 ESP12E-S1 3.10 1.78 88.80
419 2018-12-11 02:02:50 ESP12E-S1 2.90 1.53 87.60
418 2018-12-11 01:34:35 ESP12E-S1 3.00 1.64 87.30
417 2018-12-11 01:06:20 ESP12E-S1 3.00 1.65 87.70
416 2018-12-11 00:38:04 ESP12E-S1 3.10 1.75 87.40
415 2018-12-11 00:09:49 ESP12E-S1 3.00 1.64 87.40
414 2018-12-10 23:41:33 ESP12E-S1 3.00 1.64 87.50
413 2018-12-10 23:13:19 ESP12E-S1 3.00 1.64 87.50
412 2018-12-10 22:45:04 ESP12E-S1 2.90 1.53 87.30
411 2018-12-10 22:16:49 ESP12E-S1 3.00 1.64 87.60
410 2018-12-10 21:48:33 ESP12E-S1 2.90 1.53 87.60
409 2018-12-10 21:20:20 ESP12E-S1 2.90 1.54 87.90
408 2018-12-10 20:52:07 ESP12E-S1 2.80 1.42 87.40
407 2018-12-10 20:23:52 ESP12E-S1 3.00 1.63 87.00
406 2018-12-10 19:55:40 ESP12E-S1 3.20 1.82 86.00
405 2018-12-10 19:27:25 ESP12E-S1 3.60 2.25 85.40
404 2018-12-10 18:59:12 ESP12E-S1 3.70 2.38 86.30
403 2018-12-10 18:30:58 ESP12E-S1 3.80 2.48 85.80
402 2018-12-10 18:03:01 ESP12E-S1 4.00 2.69 85.40
401 2018-12-10 17:34:40 ESP12E-S1 4.10 2.83 86.80
400 2018-12-10 17:06:26 ESP12E-S1 4.20 2.92 86.10
399 2018-12-10 16:38:12 ESP12E-S1 4.20 2.96 87.30
398 2018-12-10 16:09:59 ESP12E-S1 4.30 3.06 87.20
397 2018-12-10 15:41:45 ESP12E-S1 4.70 3.48 86.40
396 2018-12-10 15:13:37 ESP12E-S1 4.80 3.58 85.80
395 2018-12-10 14:45:19 ESP12E-S1 5.00 3.78 85.20
394 2018-12-10 14:17:05 ESP12E-S1 5.00 3.75 84.20
393 2018-12-10 13:48:55 ESP12E-S1 5.10 3.87 84.40
392 2018-12-10 13:20:43 ESP12E-S1 5.40 4.16 83.00
391 2018-12-10 12:52:41 ESP12E-S1 5.80 4.56 81.20
390 2018-12-10 12:24:24 ESP12E-S1 6.10 4.87 80.50
389 2018-12-10 11:56:17 ESP12E-S1 7.80 6.63 76.20
388 2018-12-10 11:28:08 ESP12E-S1 6.80 5.58 78.30
387 2018-12-10 10:59:47 ESP12E-S1 5.80 4.59 82.40
386 2018-12-10 10:31:28 ESP12E-S1 6.00 4.84 83.80
385 2018-12-10 10:03:06 ESP12E-S1 4.50 3.32 88.50
384 2018-12-10 09:34:51 ESP12E-S1 4.40 3.19 87.90
383 2018-12-10 09:06:36 ESP12E-S1 4.20 2.98 88.20
382 2018-12-10 08:38:20 ESP12E-S1 4.10 2.87 88.20
381 2018-12-10 08:10:24 ESP12E-S1 4.10 2.89 89.00
380 2018-12-10 07:42:02 ESP12E-S1 4.20 2.95 87.20
379 2018-12-10 07:13:47 ESP12E-S1 4.20 2.96 87.60
378 2018-12-10 06:45:32 ESP12E-S1 4.20 2.97 87.90
377 2018-12-10 06:17:17 ESP12E-S1 4.20 2.95 87.10
376 2018-12-10 05:49:01 ESP12E-S1 4.20 2.95 87.20
375 2018-12-10 05:20:47 ESP12E-S1 4.20 2.96 87.30
374 2018-12-10 04:52:32 ESP12E-S1 4.10 2.89 89.20
373 2018-12-10 04:24:17 ESP12E-S1 4.10 2.86 87.90
372 2018-12-10 03:56:05 ESP12E-S1 4.30 3.03 86.00
371 2018-12-10 03:27:53 ESP12E-S1 4.70 3.51 87.50
370 2018-12-10 02:59:37 ESP12E-S1 4.80 3.62 87.40
369 2018-12-10 02:31:23 ESP12E-S1 4.90 3.75 88.30
368 2018-12-10 02:03:07 ESP12E-S1 4.90 3.76 88.80
367 2018-12-10 01:34:53 ESP12E-S1 5.10 3.97 88.40
366 2018-12-10 01:06:39 ESP12E-S1 5.20 4.08 88.30
365 2018-12-10 00:38:26 ESP12E-S1 5.40 4.31 88.50
364 2018-12-10 00:10:11 ESP12E-S1 5.50 4.39 87.40
363 2018-12-09 23:41:55 ESP12E-S1 5.40 4.29 87.70
362 2018-12-09 23:13:42 ESP12E-S1 5.50 4.40 87.90
361 2018-12-09 22:45:27 ESP12E-S1 5.70 4.67 89.60
360 2018-12-09 22:17:11 ESP12E-S1 5.70 4.67 89.70
359 2018-12-09 21:48:56 ESP12E-S1 5.80 4.79 90.10
358 2018-12-09 21:20:42 ESP12E-S1 5.90 4.90 90.00
357 2018-12-09 20:52:32 ESP12E-S1 6.10 5.13 90.40
356 2018-12-09 20:24:17 ESP12E-S1 6.10 5.13 90.60
355 2018-12-09 19:56:00 ESP12E-S1 6.10 5.14 91.10
354 2018-12-09 19:27:45 ESP12E-S1 6.00 5.01 90.30
353 2018-12-09 18:59:29 ESP12E-S1 6.10 5.13 90.60
352 2018-12-09 18:31:13 ESP12E-S1 6.00 5.02 90.40
351 2018-12-09 18:02:57 ESP12E-S1 5.90 4.91 90.60
350 2018-12-09 17:34:44 ESP12E-S1 5.80 4.78 89.70
349 2018-12-09 17:06:29 ESP12E-S1 6.10 5.09 89.10
348 2018-12-09 16:38:16 ESP12E-S1 6.30 5.34 90.20
347 2018-12-09 16:10:02 ESP12E-S1 6.30 5.34 90.30
346 2018-12-09 15:41:55 ESP12E-S1 6.20 5.23 90.20
345 2018-12-09 15:13:36 ESP12E-S1 6.00 4.99 89.40
344 2018-12-09 14:45:23 ESP12E-S1 6.10 5.05 87.50
343 2018-12-09 14:17:14 ESP12E-S1 7.00 6.00 85.90
342 2018-12-09 13:49:03 ESP12E-S1 7.80 6.95 88.50
341 2018-12-09 13:20:47 ESP12E-S1 7.40 6.52 89.20
340 2018-12-09 12:52:33 ESP12E-S1 7.60 6.69 87.00
339 2018-12-09 12:24:20 ESP12E-S1 8.30 7.36 83.40
338 2018-12-09 11:56:07 ESP12E-S1 8.20 7.18 80.70
337 2018-12-09 11:27:47 ESP12E-S1 8.00 6.98 81.40
336 2018-12-09 10:59:31 ESP12E-S1 7.40 6.39 84.20
335 2018-12-09 10:31:16 ESP12E-S1 7.40 6.47 87.30
334 2018-12-09 10:03:02 ESP12E-S1 7.70 6.65 81.30
333 2018-12-09 09:34:50 ESP12E-S1 8.10 7.02 78.80
332 2018-12-09 09:06:27 ESP12E-S1 7.10 6.05 83.80
331 2018-12-09 08:38:10 ESP12E-S1 6.80 5.81 87.00
330 2018-12-09 08:09:55 ESP12E-S1 6.70 5.65 85.20
329 2018-12-09 07:41:44 ESP12E-S1 6.60 5.58 86.70
328 2018-12-09 07:13:27 ESP12E-S1 6.70 5.66 85.50
327 2018-12-09 06:45:13 ESP12E-S1 6.60 5.49 83.40
326 2018-12-09 06:16:58 ESP12E-S1 6.60 5.51 84.20
325 2018-12-09 05:48:44 ESP12E-S1 6.60 5.59 87.20
324 2018-12-09 05:20:41 ESP12E-S1 6.90 5.90 86.30
323 2018-12-09 04:52:22 ESP12E-S1 7.00 5.95 84.00
322 2018-12-09 04:24:09 ESP12E-S1 7.10 6.02 82.40
321 2018-12-09 03:55:55 ESP12E-S1 7.30 6.26 83.20
320 2018-12-09 03:27:41 ESP12E-S1 7.40 6.56 90.40
319 2018-12-09 02:59:27 ESP12E-S1 7.50 6.62 88.60
318 2018-12-09 02:31:10 ESP12E-S1 7.50 6.63 89.20
317 2018-12-09 02:02:54 ESP12E-S1 7.30 6.44 90.20
316 2018-12-09 01:34:39 ESP12E-S1 7.40 6.55 90.30
315 2018-12-09 01:06:24 ESP12E-S1 7.60 6.82 92.00
314 2018-12-09 00:38:06 ESP12E-S1 7.40 6.66 94.30
313 2018-12-09 00:09:51 ESP12E-S1 7.70 7.01 95.30
312 2018-12-08 23:41:39 ESP12E-S1 7.50 6.79 95.20
311 2018-12-08 23:13:22 ESP12E-S1 7.40 6.67 94.90
310 2018-12-08 22:45:06 ESP12E-S1 7.30 6.55 94.50
309 2018-12-08 22:16:51 ESP12E-S1 7.10 6.33 94.40
308 2018-12-08 21:48:36 ESP12E-S1 7.00 6.21 94.00
307 2018-12-08 21:20:21 ESP12E-S1 6.90 6.09 93.70
306 2018-12-08 20:52:07 ESP12E-S1 6.80 5.97 93.10
305 2018-12-08 20:24:02 ESP12E-S1 6.90 6.06 92.30
304 2018-12-08 19:55:45 ESP12E-S1 7.00 6.14 91.30
303 2018-12-08 19:27:37 ESP12E-S1 6.90 6.02 90.90
302 2018-12-08 18:59:37 ESP12E-S1 6.70 5.81 91.20
301 2018-12-08 18:31:14 ESP12E-S1 6.70 5.81 91.30
300 2018-12-08 18:03:01 ESP12E-S1 6.60 5.69 91.10
299 2018-12-08 17:34:47 ESP12E-S1 6.60 5.68 90.60
298 2018-12-08 17:06:33 ESP12E-S1 6.80 5.89 90.00
297 2018-12-08 16:38:19 ESP12E-S1 6.90 5.99 89.60
296 2018-12-08 16:10:05 ESP12E-S1 7.00 6.08 88.90
295 2018-12-08 15:41:51 ESP12E-S1 7.30 6.36 87.10
294 2018-12-08 15:13:39 ESP12E-S1 7.70 6.77 86.10
293 2018-12-08 14:45:23 ESP12E-S1 7.50 6.58 87.00
292 2018-12-08 14:17:07 ESP12E-S1 7.20 6.25 87.00
291 2018-12-08 13:48:51 ESP12E-S1 7.20 6.25 87.30
290 2018-12-08 13:20:36 ESP12E-S1 7.10 6.18 88.70
289 2018-12-08 12:52:18 ESP12E-S1 6.80 5.89 90.30
288 2018-12-08 12:24:01 ESP12E-S1 6.30 5.36 91.00
287 2018-12-08 11:55:45 ESP12E-S1 6.00 5.03 91.10
286 2018-12-08 11:27:28 ESP12E-S1 5.70 4.70 90.80
285 2018-12-08 10:59:12